Provisional Data: Snake Creek near Lawsville Center, PA


Please select a monitoring station.
Please select start date.
Please select start date.

Toggle Unit: C/F Toggle Unit: C/F
Sample Time Temperature (C) Temperature (F) Specific Conductivity (mS/cm) pH   Turbidity (NTU+) DO (mg/L)
1/12/2021 12:00:00 AM 0.24 32.432 0.086 7.02 4.21 14.09
1/12/2021 12:15:00 AM 0.24 32.432 0.087 7.02 4.32 14.1
1/12/2021 12:30:00 AM 0.24 32.432 0.087 7.02 4.08 14.1
1/12/2021 12:45:00 AM 0.24 32.432 0.087 7.02 4.25 14.09
1/12/2021 1:00:00 AM 0.24 32.432 0.087 7.02 4.31 14.12
1/12/2021 1:15:00 AM 0.25 32.45 0.087 7.02 4.17 14.11
1/12/2021 1:30:00 AM 0.25 32.45 0.087 7.02 4.15 14.11
1/12/2021 1:45:00 AM 0.25 32.45 0.087 7.02 4.72 14.1
1/12/2021 2:00:00 AM 0.26 32.468 0.087 7.02 4.39 14.09
1/12/2021 2:15:00 AM 0.26 32.468 0.087 7.02 4.15 14.1
1/12/2021 2:30:00 AM 0.25 32.45 0.086 7.02 4 14.1
1/12/2021 2:45:00 AM 0.26 32.468 0.087 7.02 4.09 14.11
1/12/2021 3:00:00 AM 0.25 32.45 0.087 7.02 4.09 14.1
1/12/2021 3:15:00 AM 0.26 32.468 0.087 7.02 3.95 14.09
1/12/2021 3:30:00 AM 0.26 32.468 0.087 7.02 3.89 14.1
1/12/2021 3:45:00 AM 0.25 32.45 0.087 7.02 3.89 14.11
1/12/2021 4:00:00 AM 0.25 32.45 0.087 7.02 3.86 14.1
1/12/2021 4:15:00 AM 0.25 32.45 0.087 7.02 3.98 14.11
1/12/2021 4:30:00 AM 0.24 32.432 0.087 7.02 3.98 14.09
1/12/2021 4:45:00 AM 0.24 32.432 0.087 7.02 4 14.09
1/12/2021 5:00:00 AM 0.24 32.432 0.087 7.02 4.34 14.09
1/12/2021 5:15:00 AM 0.24 32.432 0.087 7.02 3.88 14.1
1/12/2021 5:30:00 AM 0.23 32.414 0.087 7.02 4.05 14.1
1/12/2021 5:45:00 AM 0.22 32.396 0.087 7.02 3.86 14.07
1/12/2021 6:00:00 AM 0.22 32.396 0.087 7.02 3.86 14.11
1/12/2021 6:15:00 AM 0.21 32.378 0.087 7.02 3.88 14.11
1/12/2021 6:30:00 AM 0.21 32.378 0.087 7.02 3.99 14.12
1/12/2021 6:45:00 AM 0.2 32.36 0.087 7.02 3.97 14.12
1/12/2021 7:00:00 AM 0.21 32.378 0.087 7.02 3.85 14.12
1/12/2021 7:15:00 AM 0.21 32.378 0.087 7.02 3.74 14.12
1/12/2021 7:30:00 AM 0.21 32.378 0.087 7.02 3.71 14.11
1/12/2021 7:45:00 AM 0.22 32.396 0.087 7.02 3.71 14.11
1/12/2021 8:00:00 AM 0.22 32.396 0.087 7.02 3.65 14.11
1/12/2021 8:15:00 AM 0.23 32.414 0.087 7.02 3.69 14.12
1/12/2021 8:30:00 AM 0.24 32.432 0.087 7.02 3.86 14.11
1/12/2021 8:45:00 AM 0.26 32.468 0.087 7.02 3.77 14.09
1/12/2021 9:00:00 AM 0.28 32.504 0.087 7.03 3.65 14.12
1/12/2021 9:15:00 AM 0.31 32.558 0.087 7.03 3.64 14.12
1/12/2021 9:30:00 AM 0.33 32.594 0.087 7.03 3.75 14.12
1/12/2021 9:45:00 AM 0.36 32.648 0.087 7.04 3.65 14.12
1/12/2021 10:00:00 AM 0.39 32.702 0.087 7.04 3.83 14.11
1/12/2021 10:15:00 AM 0.43 32.774 0.087 7.04 3.62 14.12
1/12/2021 10:30:00 AM 0.48 32.864 0.087 7.04 3.72 14.12
1/12/2021 10:45:00 AM 0.53 32.954 0.087 7.04 3.8 14.11
1/12/2021 11:00:00 AM 0.56 33.008 0.087 7.04 3.83 14.07
1/12/2021 11:15:00 AM 0.58 33.044 0.087 7.05 3.68 14.1
1/12/2021 11:30:00 AM 0.59 33.062 0.087 7.05 3.89 14.09
1/12/2021 11:45:00 AM 0.61 33.098 0.087 7.05 3.75 14.09
1/12/2021 12:00:00 PM 0.65 33.17 0.087 7.05 4.13 14.06
1/12/2021 12:15:00 PM 0.68 33.224 0.087 7.05 3.88 14.06
1/12/2021 12:30:00 PM 0.71 33.278 0.087 7.05 3.95 14.05
1/12/2021 12:45:00 PM 0.74 33.332 0.087 7.05 4.06 14.04
1/12/2021 1:00:00 PM 0.75 33.35 0.086 7.06 3.77 14.02
1/12/2021 1:15:00 PM 0.76 33.368 0.087 7.05 3.83 14.01
1/12/2021 1:30:00 PM 0.77 33.386 0.087 7.06 3.76 14
1/12/2021 1:45:00 PM 0.8 33.44 0.087 7.06 3.78 13.99
1/12/2021 2:00:00 PM 0.83 33.494 0.086 7.06 3.63 13.97
1/12/2021 2:15:00 PM 0.87 33.566 0.087 7.06 3.77 13.97
1/12/2021 2:30:00 PM 0.9 33.62 0.087 7.06 4.06 13.95
1/12/2021 2:45:00 PM 0.92 33.656 0.087 7.06 3.92 13.94
1/12/2021 3:00:00 PM 0.95 33.71 0.086 7.06 3.88 13.93
1/12/2021 3:15:00 PM 0.96 33.728 0.087 7.06 4.41 13.91
1/12/2021 3:30:00 PM 0.97 33.746 0.086 7.06 4.23 13.91
1/12/2021 3:45:00 PM 0.98 33.764 0.086 7.06 4.08 13.9
1/12/2021 4:00:00 PM 0.97 33.746 0.086 7.06 4.41 13.88
1/12/2021 4:15:00 PM 0.97 33.746 0.086 7.06 3.86 13.87
1/12/2021 4:30:00 PM 0.95 33.71 0.086 7.06 3.79 13.86
1/12/2021 4:45:00 PM 0.94 33.692 0.086 7.06 3.81 13.86
1/12/2021 5:00:00 PM 0.93 33.674 0.086 7.06 3.81 13.85
1/12/2021 5:15:00 PM 0.91 33.638 0.087 7.05 4.45 13.85
1/12/2021 5:30:00 PM 0.9 33.62 0.086 7.05 3.97 13.83
1/12/2021 5:45:00 PM 0.89 33.602 0.087 7.05 4.14 13.84
1/12/2021 6:00:00 PM 0.88 33.584 0.087 7.05 3.78 13.83
1/12/2021 6:15:00 PM 0.87 33.566 0.087 7.05 3.9 13.83
1/12/2021 6:30:00 PM 0.87 33.566 0.087 7.05 3.99 13.84
1/12/2021 6:45:00 PM 0.86 33.548 0.087 7.04 4.28 13.83
1/12/2021 7:00:00 PM 0.86 33.548 0.087 7.04 3.8 13.84
1/12/2021 7:15:00 PM 0.86 33.548 0.087 7.04 3.87 13.84
1/12/2021 7:30:00 PM 0.85 33.53 0.087 7.04 4.01 13.83
1/12/2021 7:45:00 PM 0.85 33.53 0.087 7.04 3.86 13.84
1/12/2021 8:00:00 PM 0.85 33.53 0.087 7.04 4.03 13.82
1/12/2021 8:15:00 PM 0.86 33.548 0.088 7.04 3.86 13.84
1/12/2021 8:30:00 PM 0.87 33.566 0.087 7.03 4.18 13.83
1/12/2021 8:45:00 PM 0.87 33.566 0.087 7.04 3.97 13.84
1/12/2021 9:00:00 PM 0.88 33.584 0.087 7.03 3.92 13.83
1/12/2021 9:15:00 PM 0.88 33.584 0.087 7.04 3.92 13.83
1/12/2021 9:30:00 PM 0.88 33.584 0.087 7.04 4.45 13.83
1/12/2021 9:45:00 PM 0.88 33.584 0.087 7.04 4 13.83
1/12/2021 10:00:00 PM 0.88 33.584 0.087 7.04 4.16 13.83
1/12/2021 10:15:00 PM 0.88 33.584 0.087 7.04 4.18 13.83
1/12/2021 10:30:00 PM 0.88 33.584 0.087 7.03 3.97 13.82
1/12/2021 10:45:00 PM 0.88 33.584 0.087 7.04 4.13 13.82
1/12/2021 11:00:00 PM 0.88 33.584 0.087 7.04 4.07 13.82
1/12/2021 11:15:00 PM 0.88 33.584 0.087 7.04 3.99 13.83
1/12/2021 11:30:00 PM 0.88 33.584 0.087 7.03 4 13.82
1/12/2021 11:45:00 PM 0.88 33.584 0.088 7.04 4.2 13.83
1/13/2021 12:00:00 AM 0.88 33.584 0.087 7.03 4.08 13.83
1/13/2021 12:15:00 AM 0.87 33.566 0.087 7.03 4.17 13.83
1/13/2021 12:30:00 AM 0.87 33.566 0.087 7.03 4.3 13.83
1/13/2021 12:45:00 AM 0.87 33.566 0.087 7.03 3.94 13.84
1/13/2021 1:00:00 AM 0.86 33.548 0.087 7.03 3.88 13.83
1/13/2021 1:15:00 AM 0.86 33.548 0.088 7.03 3.93 13.83
1/13/2021 1:30:00 AM 0.86 33.548 0.088 7.03 4.15 13.83
1/13/2021 1:45:00 AM 0.87 33.566 0.087 7.03 4.08 13.82
1/13/2021 2:00:00 AM 0.86 33.548 0.087 7.04 4.28 13.82
1/13/2021 2:15:00 AM 0.86 33.548 0.087 7.04 4.18 13.83
1/13/2021 2:30:00 AM 0.86 33.548 0.087 7.03 4.34 13.83
1/13/2021 2:45:00 AM 0.85 33.53 0.087 7.03 3.94 13.83
1/13/2021 3:00:00 AM 0.85 33.53 0.087 7.03 3.98 13.83
1/13/2021 3:15:00 AM 0.85 33.53 0.087 7.03 3.89 13.82
1/13/2021 3:30:00 AM 0.84 33.512 0.087 7.03 4.52 13.82
1/13/2021 3:45:00 AM 0.84 33.512 0.087 7.03 4.02 13.82
1/13/2021 4:00:00 AM 0.84 33.512 0.088 7.03 3.97 13.8
1/13/2021 4:15:00 AM 0.84 33.512 0.088 7.03 4.49 13.81
1/13/2021 4:30:00 AM 0.84 33.512 0.088 7.04 3.9 13.82
1/13/2021 4:45:00 AM 0.84 33.512 0.088 7.04 3.83 13.8
1/13/2021 5:00:00 AM 0.84 33.512 0.088 7.04 4.03 13.82
1/13/2021 5:15:00 AM 0.83 33.494 0.088 7.03 3.94 13.82
1/13/2021 5:30:00 AM 0.83 33.494 0.088 7.04 4.09 13.82
1/13/2021 5:45:00 AM 0.83 33.494 0.088 7.03 4.11 13.83
1/13/2021 6:00:00 AM 0.83 33.494 0.088 7.03 3.79 13.83
1/13/2021 6:15:00 AM 0.83 33.494 0.088 7.04 3.84 13.83
1/13/2021 6:30:00 AM 0.83 33.494 0.088 7.03 4.07 13.83
1/13/2021 6:45:00 AM 0.82 33.476 0.088 7.04 3.8 13.83
1/13/2021 7:00:00 AM 0.82 33.476 0.087 7.03 3.75 13.83
1/13/2021 7:15:00 AM 0.82 33.476 0.088 7.04 3.86 13.82
1/13/2021 7:30:00 AM 0.82 33.476 0.088 7.04 4.58 13.83
1/13/2021 7:45:00 AM 0.82 33.476 0.088 7.04 3.88 13.83
1/13/2021 8:00:00 AM 0.82 33.476 0.088 7.04 3.73 13.84
1/13/2021 8:15:00 AM 0.82 33.476 0.088 7.04 3.71 13.84
1/13/2021 8:30:00 AM 0.83 33.494 0.088 7.03 3.86 13.85
1/13/2021 8:45:00 AM 0.84 33.512 0.088 7.03 4.34 13.85
1/13/2021 9:00:00 AM 0.85 33.53 0.088 7.04 4 13.85
1/13/2021 9:15:00 AM 0.86 33.548 0.088 7.04 3.76 13.85
1/13/2021 9:30:00 AM 0.88 33.584 0.088 7.04 3.78 13.84
1/13/2021 9:45:00 AM 0.9 33.62 0.088 7.05 3.91 13.85
1/13/2021 10:00:00 AM 0.93 33.674 0.088 7.05 3.76 13.86
1/13/2021 10:15:00 AM 0.95 33.71 0.088 7.05 3.69 13.85
1/13/2021 10:30:00 AM 0.97 33.746 0.088 7.05 3.64 13.84
1/13/2021 10:45:00 AM 0.99 33.782 0.088 7.06 3.7 13.85
1/13/2021 11:00:00 AM 1.01 33.818 0.088 7.06 3.69 13.85
1/13/2021 11:15:00 AM 1.04 33.872 0.088 7.06 3.61 13.84
1/13/2021 11:30:00 AM 1.08 33.944 0.088 7.06 3.78 13.83
1/13/2021 11:45:00 AM 1.11 33.998 0.088 7.07 3.69 13.82
1/13/2021 12:00:00 PM 1.15 34.07 0.088 7.07 3.64 13.81
1/13/2021 12:15:00 PM 1.17 34.106 0.088 7.07 3.54 13.8
1/13/2021 12:30:00 PM 1.2 34.16 0.088 7.07 3.51 13.78
1/13/2021 12:45:00 PM 1.21 34.178 0.088 7.07 3.72 13.75
1/13/2021 1:00:00 PM 1.24 34.232 0.088 7.07 4.15 13.76
1/13/2021 1:15:00 PM 1.26 34.268 0.088 7.07 3.9 13.74
1/13/2021 1:30:00 PM 1.29 34.322 0.088 7.07 4 13.74
1/13/2021 1:45:00 PM 1.32 34.376 0.088 7.07 4.04 13.72
1/13/2021 2:00:00 PM 1.35 34.43 0.088 7.07 3.8 13.72
1/13/2021 2:15:00 PM 1.38 34.484 0.088 7.08 3.53 13.72
1/13/2021 2:30:00 PM 1.41 34.538 0.088 7.08 3.92 13.7
1/13/2021 2:45:00 PM 1.44 34.592 0.088 7.08 3.79 13.69
1/13/2021 3:00:00 PM 1.45 34.61 0.088 7.08 3.55 13.68
1/13/2021 3:15:00 PM 1.47 34.646 0.088 7.08 3.77 13.67
1/13/2021 3:30:00 PM 1.49 34.682 0.088 7.08 3.69 13.66
1/13/2021 3:45:00 PM 1.5 34.7 0.088 7.08 3.75 13.65
1/13/2021 4:00:00 PM 1.5 34.7 0.088 7.08 3.86 13.64
1/13/2021 4:15:00 PM 1.49 34.682 0.088 7.08 3.7 13.62
1/13/2021 4:30:00 PM 1.47 34.646 0.088 7.08 3.57 13.61
1/13/2021 4:45:00 PM 1.46 34.628 0.088 7.08 3.85 13.6
1/13/2021 5:00:00 PM 1.44 34.592 0.088 7.07 3.59 13.59
1/13/2021 5:15:00 PM 1.42 34.556 0.088 7.07 3.59 13.58
1/13/2021 5:30:00 PM 1.4 34.52 0.088 7.07 3.54 13.58
1/13/2021 5:45:00 PM 1.37 34.466 0.088 7.06 3.62 13.58
1/13/2021 6:00:00 PM 1.35 34.43 0.088 7.06 4.09 13.57
1/13/2021 6:15:00 PM 1.32 34.376 0.088 7.06 4.04 13.57
1/13/2021 6:30:00 PM 1.3 34.34 0.088 7.06 3.86 13.57
1/13/2021 6:45:00 PM 1.28 34.304 0.088 7.06 4.07 13.57
1/13/2021 7:00:00 PM 1.26 34.268 0.088 7.05 3.86 13.57
1/13/2021 7:15:00 PM 1.23 34.214 0.088 7.05 3.83 13.58
1/13/2021 7:30:00 PM 1.21 34.178 0.088 7.05 3.94 13.58
1/13/2021 7:45:00 PM 1.19 34.142 0.088 7.05 4.35 13.6
1/13/2021 8:00:00 PM 1.18 34.124 0.088 7.05 3.7 13.58
1/13/2021 8:15:00 PM 1.16 34.088 0.088 7.05 3.9 13.61
1/13/2021 8:30:00 PM 1.15 34.07 0.088 7.05 3.81 13.57
1/13/2021 8:45:00 PM 1.14 34.052 0.088 7.05 3.74 13.61
1/13/2021 9:00:00 PM 1.12 34.016 0.088 7.05 3.81 13.62
1/13/2021 9:15:00 PM 1.1 33.98 0.088 7.05 4 13.62
1/13/2021 9:30:00 PM 1.08 33.944 0.088 7.05 3.88 13.63
1/13/2021 9:45:00 PM 1.06 33.908 0.088 7.05 3.64 13.64
1/13/2021 10:00:00 PM 1.05 33.89 0.088 7.05 3.78 13.65
1/13/2021 10:15:00 PM 1.03 33.854 0.088 7.04 3.66 13.64
1/13/2021 10:30:00 PM 1.01 33.818 0.088 7.05 3.84 13.66
1/13/2021 10:45:00 PM 0.99 33.782 0.088 7.05 3.69 13.65
1/13/2021 11:00:00 PM 0.97 33.746 0.088 7.04 3.73 13.67
1/13/2021 11:15:00 PM 0.95 33.71 0.088 7.04 3.64 13.68
1/13/2021 11:30:00 PM 0.93 33.674 0.088 7.04 3.88 13.68
1/13/2021 11:45:00 PM 0.92 33.656 0.088 7.04 3.68 13.7
1/14/2021 12:00:00 AM 0.9 33.62 0.088 7.04 3.83 13.7
1/14/2021 12:15:00 AM 0.89 33.602 0.088 7.04 3.68 13.72
1/14/2021 12:30:00 AM 0.88 33.584 0.088 7.04 3.95 13.72
1/14/2021 12:45:00 AM 0.87 33.566 0.088 7.04 3.92 13.73
1/14/2021 1:00:00 AM 0.86 33.548 0.088 7.04 3.93 13.73
1/14/2021 1:15:00 AM 0.86 33.548 0.088 7.04 3.61 13.74
1/14/2021 1:30:00 AM 0.85 33.53 0.089 7.04 3.74 13.74
1/14/2021 1:45:00 AM 0.84 33.512 0.089 7.04 3.97 13.74
1/14/2021 2:00:00 AM 0.84 33.512 0.089 7.04 3.57 13.75
1/14/2021 2:15:00 AM 0.84 33.512 0.089 7.04 4.01 13.75
1/14/2021 2:30:00 AM 0.83 33.494 0.089 7.04 3.65 13.76
1/14/2021 2:45:00 AM 0.83 33.494 0.088 7.04 3.71 13.75
1/14/2021 3:00:00 AM 0.83 33.494 0.089 7.04 3.69 13.76
1/14/2021 3:15:00 AM 0.83 33.494 0.089 7.04 3.59 13.76
1/14/2021 3:30:00 AM 0.83 33.494 0.088 7.04 3.73 13.76
1/14/2021 3:45:00 AM 0.83 33.494 0.089 7.04 3.6 13.76
1/14/2021 4:00:00 AM 0.83 33.494 0.089 7.04 3.65 13.76
1/14/2021 4:15:00 AM 0.83 33.494 0.089 7.04 3.77 13.75
1/14/2021 4:30:00 AM 0.83 33.494 0.089 7.04 3.69 13.74
1/14/2021 4:45:00 AM 0.83 33.494 0.088 7.04 3.88 13.73
1/14/2021 5:00:00 AM 0.83 33.494 0.088 7.04 3.59 13.71
1/14/2021 5:15:00 AM 0.83 33.494 0.089 7.04 3.5 13.72
1/14/2021 5:30:00 AM 0.83 33.494 0.089 7.04 3.65 13.73
1/14/2021 5:45:00 AM 0.84 33.512 0.089 7.04 3.56 13.74
1/14/2021 6:00:00 AM 0.84 33.512 0.089 7.04 3.55 13.74
1/14/2021 6:15:00 AM 0.84 33.512 0.088 7.04 3.48 13.73
1/14/2021 6:30:00 AM 0.84 33.512 0.089 7.04 3.51 13.74
1/14/2021 6:45:00 AM 0.85 33.53 0.089 7.04 3.47 13.74
1/14/2021 7:00:00 AM 0.86 33.548 0.089 7.04 3.46 13.74
1/14/2021 7:15:00 AM 0.86 33.548 0.089 7.04 3.46 13.71
1/14/2021 7:30:00 AM 0.86 33.548 0.089 7.04 3.59 13.68
1/14/2021 7:45:00 AM 0.87 33.566 0.089 7.04 3.46 13.72
1/14/2021 8:00:00 AM 0.88 33.584 0.089 7.04 3.5 13.73
1/14/2021 8:15:00 AM 0.88 33.584 0.089 7.03 3.5 13.74
1/14/2021 8:30:00 AM 0.89 33.602 0.089 7.04 3.53 13.73
1/14/2021 8:45:00 AM 0.89 33.602 0.089 7.05 3.73 13.74
1/14/2021 9:00:00 AM 0.91 33.638 0.089 7.05 3.63 13.75
1/14/2021 9:15:00 AM 0.94 33.692 0.089 7.05 3.55 13.75
1/14/2021 9:30:00 AM 0.97 33.746 0.088 7.05 3.52 13.75
1/14/2021 9:45:00 AM 1.01 33.818 0.088 7.06 3.66 13.76
1/14/2021 10:00:00 AM 1.06 33.908 0.088 7.06 3.45 13.76
1/14/2021 10:15:00 AM 1.11 33.998 0.088 7.06 3.32 13.75
1/14/2021 10:30:00 AM 1.16 34.088 0.088 7.06 3.43 13.75
1/14/2021 10:45:00 AM 1.22 34.196 0.088 7.07 3.43 13.74
1/14/2021 11:00:00 AM 1.29 34.322 0.089 7.07 3.53 13.73
1/14/2021 11:15:00 AM 1.36 34.448 0.088 7.07 3.61 13.71
1/14/2021 11:30:00 AM 1.42 34.556 0.088 7.08 3.32 13.7
1/14/2021 11:45:00 AM 1.48 34.664 0.088 7.08 3.41 13.68
1/14/2021 12:00:00 PM 1.54 34.772 0.088 7.08 3.82 13.66
1/14/2021 12:15:00 PM 1.58 34.844 0.089 7.08 3.5 13.64
1/14/2021 12:30:00 PM 1.64 34.952 0.089 7.08 3.66 13.57
1/14/2021 12:45:00 PM 1.7 35.06 0.089 7.08 3.28 13.59
1/14/2021 1:00:00 PM 1.77 35.186 0.089 7.09 3.84 13.57
1/14/2021 1:15:00 PM 1.82 35.276 0.089 7.08 3.55 13.55
1/14/2021 1:30:00 PM 1.85 35.33 0.089 7.09 3.54 13.52
1/14/2021 1:45:00 PM 1.89 35.402 0.088 7.09 3.69 13.51
1/14/2021 2:00:00 PM 1.93 35.474 0.088 7.09 3.82 13.5
1/14/2021 2:15:00 PM 1.96 35.528 0.088 7.09 4.07 13.49
1/14/2021 2:30:00 PM 1.99 35.582 0.088 7.09 4.01 13.48
1/14/2021 2:45:00 PM 2.01 35.618 0.088 7.09 4.19 13.46
1/14/2021 3:00:00 PM 2.03 35.654 0.088 7.1 4.27 13.46
1/14/2021 3:15:00 PM 2.06 35.708 0.088 7.1 4.04 13.44
1/14/2021 3:30:00 PM 2.09 35.762 0.088 7.1 4.21 13.42
1/14/2021 3:45:00 PM 2.11 35.798 0.087 7.1 4.25 13.42
1/14/2021 4:00:00 PM 2.12 35.816 0.088 7.1 4.15 13.38
1/14/2021 4:15:00 PM 2.11 35.798 0.088 7.09 4.41 13.38
1/14/2021 4:30:00 PM 2.1 35.78 0.088 7.09 5.07 13.37
1/14/2021 4:45:00 PM 2.08 35.744 0.088 7.09 4.4 13.37
1/14/2021 5:00:00 PM 2.07 35.726 0.087 7.09 4.38 13.36
1/14/2021 5:15:00 PM 2.05 35.69 0.087 7.08 4.36 13.33
1/14/2021 5:30:00 PM 2.04 35.672 0.087 7.08 4.35 13.34
1/14/2021 5:45:00 PM 2.02 35.636 0.087 7.08 4.65 13.34
1/14/2021 6:00:00 PM 2 35.6 0.087 7.07 4.18 13.34
1/14/2021 6:15:00 PM 1.99 35.582 0.087 7.08 4.37 13.33
1/14/2021 6:30:00 PM 1.97 35.546 0.087 7.07 4.81 13.35
1/14/2021 6:45:00 PM 1.96 35.528 0.087 7.07 4.34 13.34
1/14/2021 7:00:00 PM 1.94 35.492 0.087 7.07 5.47 13.35
1/14/2021 7:15:00 PM 1.93 35.474 0.087 7.07 4.53 13.34
1/14/2021 7:30:00 PM 1.92 35.456 0.087 7.07 4.54 13.35
1/14/2021 7:45:00 PM 1.91 35.438 0.087 7.07 4.81 13.34
1/14/2021 8:00:00 PM 1.9 35.42 0.087 7.06 4.56 13.35
1/14/2021 8:15:00 PM 1.89 35.402 0.087 7.06 4.51 13.36
1/14/2021 8:30:00 PM 1.88 35.384 0.088 7.06 4.57 13.37
1/14/2021 8:45:00 PM 1.87 35.366 0.088 7.06 4.59 13.37
1/14/2021 9:00:00 PM 1.87 35.366 0.088 7.06 4.38 13.38
1/14/2021 9:15:00 PM 1.86 35.348 0.087 7.06 4.34 13.39
1/14/2021 9:30:00 PM 1.85 35.33 0.088 7.06 4.98 13.39
1/14/2021 9:45:00 PM 1.84 35.312 0.088 7.06 4.74 13.39
1/14/2021 10:00:00 PM 1.84 35.312 0.088 7.06 5.23 13.39
1/14/2021 10:15:00 PM 1.83 35.294 0.088 7.06 4.68 13.4
1/14/2021 10:30:00 PM 1.82 35.276 0.088 7.06 4.45 13.4
1/14/2021 10:45:00 PM 1.81 35.258 0.088 7.05 4.75 13.4
1/14/2021 11:00:00 PM 1.81 35.258 0.088 7.05 4.81 13.41
1/14/2021 11:15:00 PM 1.8 35.24 0.088 7.05 5.11 13.41
1/14/2021 11:30:00 PM 1.79 35.222 0.088 7.05 5.03 13.4
1/14/2021 11:45:00 PM 1.79 35.222 0.088 7.05 4.52 13.42
1/15/2021 12:00:00 AM 1.78 35.204 0.088 7.05 5.01 13.42
1/15/2021 12:15:00 AM 1.78 35.204 0.088 7.05 4.48 13.43
1/15/2021 12:30:00 AM 1.77 35.186 0.088 7.05 5.22 13.43
1/15/2021 12:45:00 AM 1.77 35.186 0.088 7.05 4.52 13.43
1/15/2021 1:00:00 AM 1.76 35.168 0.088 7.05 5.17 13.43
1/15/2021 1:15:00 AM 1.76 35.168 0.088 7.05 4.55 13.42
1/15/2021 1:30:00 AM 1.75 35.15 0.088 7.05 4.67 13.44
1/15/2021 1:45:00 AM 1.75 35.15 0.088 7.05 4.94 13.44
1/15/2021 2:00:00 AM 1.74 35.132 0.088 7.05 4.36 13.44
1/15/2021 2:15:00 AM 1.74 35.132 0.088 7.05 4.52 13.44
1/15/2021 2:30:00 AM 1.74 35.132 0.088 7.04 5.15 13.44
1/15/2021 2:45:00 AM 1.73 35.114 0.088 7.05 4.6 13.43
1/15/2021 3:00:00 AM 1.73 35.114 0.088 7.05 4.58 13.44
1/15/2021 3:15:00 AM 1.72 35.096 0.089 7.05 4.29 13.44
1/15/2021 3:30:00 AM 1.71 35.078 0.088 7.05 4.37 13.42
1/15/2021 3:45:00 AM 1.7 35.06 0.088 7.05 4.36 13.45
1/15/2021 4:00:00 AM 1.67 35.006 0.089 7.05 4.33 13.45
1/15/2021 4:15:00 AM 1.64 34.952 0.088 7.05 4.45 13.46
1/15/2021 4:30:00 AM 1.63 34.934 0.088 7.05 4.5 13.46
1/15/2021 4:45:00 AM 1.61 34.898 0.089 7.05 4.39 13.48
1/15/2021 5:00:00 AM 1.59 34.862 0.088 7.05 4.1 13.49
1/15/2021 5:15:00 AM 1.57 34.826 0.089 7.05 4.24 13.5
1/15/2021 5:30:00 AM 1.56 34.808 0.089 7.05 4.16 13.49
1/15/2021 5:45:00 AM 1.55 34.79 0.089 7.05 4.56 13.49
1/15/2021 6:00:00 AM 1.53 34.754 0.089 7.05 4.24 13.5
1/15/2021 6:15:00 AM 1.51 34.718 0.089 7.05 4.72 13.5
1/15/2021 6:30:00 AM 1.49 34.682 0.09 7.05 4.16 13.51
1/15/2021 6:45:00 AM 1.46 34.628 0.089 7.05 4.56 13.52
1/15/2021 7:00:00 AM 1.44 34.592 0.089 7.05 4.05 13.53
1/15/2021 7:15:00 AM 1.4 34.52 0.089 7.04 4.7 13.54
1/15/2021 7:30:00 AM 1.37 34.466 0.089 7.05 4.36 13.55
1/15/2021 7:45:00 AM 1.34 34.412 0.089 7.05 4.33 13.56
1/15/2021 8:00:00 AM 1.31 34.358 0.089 7.05 4.21 13.57
1/15/2021 8:15:00 AM 1.28 34.304 0.089 7.05 4.1 13.6
1/15/2021 8:30:00 AM 1.27 34.286 0.089 7.05 4.07 13.62
1/15/2021 8:45:00 AM 1.27 34.286 0.089 7.05 3.99 13.64
1/15/2021 9:00:00 AM 1.27 34.286 0.09 7.05 4.07 13.65
1/15/2021 9:15:00 AM 1.29 34.322 0.09 7.05 4.1 13.64
1/15/2021 9:30:00 AM 1.31 34.358 0.089 7.06 4.12 13.66
1/15/2021 9:45:00 AM 1.33 34.394 0.089 7.06 3.93 13.68
1/15/2021 10:00:00 AM 1.36 34.448 0.089 7.06 3.94 13.69
1/15/2021 10:15:00 AM 1.39 34.502 0.089 7.06 3.87 13.7
1/15/2021 10:30:00 AM 1.44 34.592 0.089 7.07 3.96 13.7
1/15/2021 10:45:00 AM 1.49 34.682 0.09 7.07 3.84 13.7
1/15/2021 11:00:00 AM 1.56 34.808 0.089 7.07 4.42 13.69
1/15/2021 11:15:00 AM 1.62 34.916 0.089 7.08 4.1 13.68
1/15/2021 11:30:00 AM 1.69 35.042 0.089 7.09 4.17 13.66
1/15/2021 11:45:00 AM 1.78 35.204 0.089 7.09 3.83 13.64
1/15/2021 12:00:00 PM 1.89 35.402 0.089 7.09 3.92 13.62
1/15/2021 12:15:00 PM 1.99 35.582 0.089 7.1 4.04 13.59
1/15/2021 12:30:00 PM 2.05 35.69 0.089 7.1 4.16 13.57
1/15/2021 12:45:00 PM 2.08 35.744 0.089 7.1 3.9 13.54
1/15/2021 1:00:00 PM 2.11 35.798 0.09 7.09 3.8 13.52
1/15/2021 1:15:00 PM 2.15 35.87 0.09 7.1 4.02 13.48
1/15/2021 1:30:00 PM 2.19 35.942 0.089 7.1 4.66 13.46
1/15/2021 1:45:00 PM 2.2 35.96 0.089 7.1 4.6 13.45
1/15/2021 2:00:00 PM 2.2 35.96 0.089 7.1 4.49 13.42
1/15/2021 2:15:00 PM 2.19 35.942 0.089 7.1 4.88 13.42
1/15/2021 2:30:00 PM 2.19 35.942 0.089 7.1 4.43 13.4
1/15/2021 2:45:00 PM 2.2 35.96 0.09 7.1 4.41 13.37
1/15/2021 3:00:00 PM 2.21 35.978 0.089 7.1 4.48 13.37
1/15/2021 3:15:00 PM 2.21 35.978 0.089 7.1 5.11 13.37
1/15/2021 3:30:00 PM 2.21 35.978 0.089 7.09 4.21 13.36
1/15/2021 3:45:00 PM 2.21 35.978 0.089 7.09 4.44 13.35
1/15/2021 4:00:00 PM 2.2 35.96 0.089 7.09 5.03 13.34
1/15/2021 4:15:00 PM 2.19 35.942 0.089 7.09 4.86 13.33
1/15/2021 4:30:00 PM 2.18 35.924 0.089 7.09 4.79 13.32
1/15/2021 4:45:00 PM 2.17 35.906 0.089 7.09 5.17 13.32
1/15/2021 5:00:00 PM 2.17 35.906 0.089 7.08 5.31 13.31
1/15/2021 5:15:00 PM 2.16 35.888 0.089 7.08 5.23 13.29
1/15/2021 5:30:00 PM 2.15 35.87 0.089 7.08 5.25 13.28
1/15/2021 5:45:00 PM 2.15 35.87 0.089 7.08 5.29 13.29
1/15/2021 6:00:00 PM 2.15 35.87 0.089 7.08 5.34 13.28
1/15/2021 6:15:00 PM 2.15 35.87 0.089 7.07 5.57 13.27
1/15/2021 6:30:00 PM 2.15 35.87 0.089 7.08 5.6 13.27
1/15/2021 6:45:00 PM 2.16 35.888 0.089 7.07 5.46 13.27
1/15/2021 7:00:00 PM 2.16 35.888 0.089 7.08 6.05 13.27
1/15/2021 7:15:00 PM 2.16 35.888 0.089 7.08 5.32 13.26
1/15/2021 7:30:00 PM 2.16 35.888 0.089 7.08 5.42 13.26
1/15/2021 7:45:00 PM 2.16 35.888 0.089 7.07 5.97 13.25
1/15/2021 8:00:00 PM 2.17 35.906 0.089 7.08 5.88 13.26
1/15/2021 8:15:00 PM 2.17 35.906 0.089 7.08 6.82 13.26
1/15/2021 8:30:00 PM 2.17 35.906 0.089 7.07 6.38 13.25
1/15/2021 8:45:00 PM 2.18 35.924 0.089 7.08 6.42 13.23
1/15/2021 9:00:00 PM 2.18 35.924 0.089 7.08 7.33 13.24
1/15/2021 9:15:00 PM 2.18 35.924 0.089 7.07 6.71 13.24
1/15/2021 9:30:00 PM 2.19 35.942 0.089 7.08 6.52 13.24
1/15/2021 9:45:00 PM 2.19 35.942 0.089 7.08 7.91 13.23
1/15/2021 10:00:00 PM 2.19 35.942 0.089 7.08 6.8 13.23
1/15/2021 10:15:00 PM 2.2 35.96 0.089 7.08 7.03 13.22
1/15/2021 10:30:00 PM 2.2 35.96 0.089 7.08 7.62 13.22
1/15/2021 10:45:00 PM 2.2 35.96 0.089 7.08 7.42 13.23
1/15/2021 11:00:00 PM 2.2 35.96 0.089 7.08 7.64 13.22
1/15/2021 11:15:00 PM 2.2 35.96 0.089 7.08 8.16 13.22
1/15/2021 11:30:00 PM 2.2 35.96 0.089 7.08 9.49 13.22
1/15/2021 11:45:00 PM 2.19 35.942 0.089 7.08 8.74 13.23
1/16/2021 12:00:00 AM 2.19 35.942 0.089 7.08 8.94 13.23
1/16/2021 12:15:00 AM 2.19 35.942 0.089 7.09 13.36 13.22
1/16/2021 12:30:00 AM 2.18 35.924 0.089 7.08 13.35 13.23
1/16/2021 12:45:00 AM 2.17 35.906 0.089 7.09 15.83 13.22
1/16/2021 1:00:00 AM 2.16 35.888 0.089 7.09 14.84 13.23
1/16/2021 1:15:00 AM 2.15 35.87 0.089 7.09 23.96 13.23
1/16/2021 1:30:00 AM 2.14 35.852 0.088 7.09 22.99 13.24
1/16/2021 1:45:00 AM 2.12 35.816 0.089 7.09 22.53 13.24
1/16/2021 2:00:00 AM 2.1 35.78 0.089 7.09 30.87 13.24
1/16/2021 2:15:00 AM 2.08 35.744 0.089 7.09 21.5 13.25
1/16/2021 2:30:00 AM 2.06 35.708 0.089 7.1 29.03 13.26
1/16/2021 2:45:00 AM 2.04 35.672 0.089 7.1 25.48 13.27
1/16/2021 3:00:00 AM 2.01 35.618 0.09 7.1 27.43 13.28
1/16/2021 3:15:00 AM 1.99 35.582 0.09 7.11 29.35 13.3
1/16/2021 3:30:00 AM 1.96 35.528 0.09 7.11 47.96 13.3
1/16/2021 3:45:00 AM 1.92 35.456 0.091 7.11 30.63 13.32
1/16/2021 4:00:00 AM 1.87 35.366 0.091 7.11 51.5 13.32
1/16/2021 4:15:00 AM 1.82 35.276 0.092 7.1 49.33 13.33
1/16/2021 4:30:00 AM 1.74 35.132 0.091 7.09 75.32 13.34
1/16/2021 4:45:00 AM 1.65 34.97 0.091 7.09 33.16 13.36
1/16/2021 5:00:00 AM 1.55 34.79 0.091 7.09 68.91 13.38
1/16/2021 5:15:00 AM 1.43 34.574 0.091 7.1 85.92 13.41
1/16/2021 5:30:00 AM 1.34 34.412 0.09 7.1 35.72 13.44
1/16/2021 5:45:00 AM 1.3 34.34 0.091 7.09 37.6 13.47
1/16/2021 6:00:00 AM 1.29 34.322 0.091 7.1 32.37 13.49
1/16/2021 6:15:00 AM 1.27 34.286 0.091 7.09 21.41 13.52
1/16/2021 6:30:00 AM 1.26 34.268 0.092 7.09 23.79 13.53
1/16/2021 6:45:00 AM 1.26 34.268 0.092 7.09 55.63 13.54
1/16/2021 7:00:00 AM 1.27 34.286 0.092 7.08 22.07 13.54
1/16/2021 7:15:00 AM 1.27 34.286 0.093 7.09 32.51 13.54
1/16/2021 7:30:00 AM 1.27 34.286 0.094 7.09 40.3 13.54
1/16/2021 7:45:00 AM 1.28 34.304 0.094 7.08 27.21 13.54
1/16/2021 8:00:00 AM 1.29 34.322 0.094 7.08 22.4 13.54
1/16/2021 8:15:00 AM 1.3 34.34 0.094 7.08 20.76 13.54
1/16/2021 8:30:00 AM 1.32 34.376 0.094 7.08 29.06 13.54
1/16/2021 8:45:00 AM 1.35 34.43 0.094 7.08 22.79 13.53
1/16/2021 9:00:00 AM 1.37 34.466 0.094 7.08 21.7 13.53
1/16/2021 9:15:00 AM 1.4 34.52 0.094 7.08 18.54 13.53
1/16/2021 9:30:00 AM 1.43 34.574 0.095 7.09 17.77 13.52
1/16/2021 9:45:00 AM 1.47 34.646 0.095 7.08 22.55 13.51
1/16/2021 10:00:00 AM 1.51 34.718 0.094 7.09 21.41 13.51
1/16/2021 10:15:00 AM 1.55 34.79 0.094 7.09 20.19 13.5
1/16/2021 10:30:00 AM 1.58 34.844 0.094 7.09 48.2 13.49
1/16/2021 10:45:00 AM 1.61 34.898 0.093 7.1 16.04 13.48
1/16/2021 11:00:00 AM 1.63 34.934 0.093 7.1 26.84 13.46
1/16/2021 11:15:00 AM 1.65 34.97 0.093 7.1 24.76 13.45
1/16/2021 11:30:00 AM 1.68 35.024 0.093 7.1 19.78 13.43
1/16/2021 11:45:00 AM 1.71 35.078 0.093 7.1 17.81 13.43
1/16/2021 12:00:00 PM 1.73 35.114 0.093 7.1 29.14 13.42
1/16/2021 12:15:00 PM 1.76 35.168 0.093 7.1 20.96 13.41
1/16/2021 12:30:00 PM 1.78 35.204 0.093 7.1 25.13 13.39
1/16/2021 12:45:00 PM 1.81 35.258 0.093 7.11 42.91 13.39
1/16/2021 1:00:00 PM 1.83 35.294 0.093 7.11 36.51 13.37
1/16/2021 1:15:00 PM 1.85 35.33 0.093 7.11 24.57 13.37
1/16/2021 1:30:00 PM 1.87 35.366 0.093 7.11 34.33 13.35
1/16/2021 1:45:00 PM 1.89 35.402 0.093 7.11 20.43 13.35
1/16/2021 2:00:00 PM 1.94 35.492 0.093 7.11 17.79 13.34
1/16/2021 2:15:00 PM 2.02 35.636 0.093 7.12 18.73 13.34
1/16/2021 2:30:00 PM 2.06 35.708 0.093 7.12 18.48 13.32
1/16/2021 2:45:00 PM 2.1 35.78 0.093 7.12 19.1 13.31
1/16/2021 3:00:00 PM 2.14 35.852 0.093 7.12 19.37 13.29
1/16/2021 3:15:00 PM 2.15 35.87 0.093 7.12 28.72 13.28
1/16/2021 3:30:00 PM 2.17 35.906 0.093 7.12 31.36 13.27
1/16/2021 3:45:00 PM 2.18 35.924 0.093 7.12 28.14 13.25
1/16/2021 4:00:00 PM 2.17 35.906 0.093 7.12 39.93 13.25
1/16/2021 4:15:00 PM 2.16 35.888 0.094 7.11 18.34 13.24
1/16/2021 4:30:00 PM 2.15 35.87 0.094 7.12 18.81 13.24
1/16/2021 4:45:00 PM 2.12 35.816 0.094 7.11 17.34 13.24
1/16/2021 5:00:00 PM 2.1 35.78 0.095 7.11 19.39 13.22
1/16/2021 5:15:00 PM 2.07 35.726 0.095 7.11 16.42 13.22
1/16/2021 5:30:00 PM 2.05 35.69 0.094 7.1 15.26 13.22
1/16/2021 5:45:00 PM 2.03 35.654 0.094 7.1 33.18 13.22
1/16/2021 6:00:00 PM 2 35.6 0.094 7.09 32.07 13.22
1/16/2021 6:15:00 PM 1.98 35.564 0.094 7.09 16.49 13.22
1/16/2021 6:30:00 PM 1.97 35.546 0.094 7.09 21.29 13.21
1/16/2021 6:45:00 PM 1.93 35.474 0.094 7.08 19.85 13.23
1/16/2021 7:00:00 PM 1.9 35.42 0.094 7.08 22.79 13.23
1/16/2021 7:15:00 PM 1.87 35.366 0.095 7.08 19.41 13.24
1/16/2021 7:30:00 PM 1.83 35.294 0.095 7.08 23.83 13.25
1/16/2021 7:45:00 PM 1.8 35.24 0.095 7.08 14.52 13.26
1/16/2021 8:00:00 PM 1.76 35.168 0.095 7.07 32.37 13.27
1/16/2021 8:15:00 PM 1.73 35.114 0.095 7.08 13.74 13.28
1/16/2021 8:30:00 PM 1.69 35.042 0.095 7.08 27.28 13.29
1/16/2021 8:45:00 PM 1.66 34.988 0.095 7.07 15.23 13.3
1/16/2021 9:00:00 PM 1.62 34.916 0.095 7.07 16.53 13.31
1/16/2021 9:15:00 PM 1.58 34.844 0.095 7.07 14.27 13.33
1/16/2021 9:30:00 PM 1.55 34.79 0.095 7.07 12.57 13.34
1/16/2021 9:45:00 PM 1.52 34.736 0.096 7.07 13.51 13.35
1/16/2021 10:00:00 PM 1.49 34.682 0.096 7.07 13.67 13.36
1/16/2021 10:15:00 PM 1.46 34.628 0.096 7.07 13.38 13.37
1/16/2021 10:30:00 PM 1.44 34.592 0.096 7.07 14.81 13.38
1/16/2021 10:45:00 PM 1.41 34.538 0.096 7.07 13.16 13.39
1/16/2021 11:00:00 PM 1.39 34.502 0.096 7.07 10.46 13.4
1/16/2021 11:15:00 PM 1.38 34.484 0.095 7.07 11.63 13.41
1/16/2021 11:30:00 PM 1.37 34.466 0.096 7.07 10.94 13.41
1/16/2021 11:45:00 PM 1.36 34.448 0.096 7.07 10.94 13.43
1/17/2021 12:00:00 AM 1.35 34.43 0.096 7.07 10.61 13.42
1/17/2021 12:15:00 AM 1.35 34.43 0.096 7.07 9.86 13.44
1/17/2021 12:30:00 AM 1.34 34.412 0.096 7.07 11.02 13.44
1/17/2021 12:45:00 AM 1.33 34.394 0.096 7.07 11.2 13.44
1/17/2021 1:00:00 AM 1.33 34.394 0.096 7.07 10.47 13.44
1/17/2021 1:15:00 AM 1.32 34.376 0.096 7.07 8.96 13.44
1/17/2021 1:30:00 AM 1.32 34.376 0.096 7.07 10 13.45
1/17/2021 1:45:00 AM 1.32 34.376 0.096 7.07 8.54 13.45
1/17/2021 2:00:00 AM 1.31 34.358 0.096 7.07 9.59 13.45
1/17/2021 2:15:00 AM 1.31 34.358 0.095 7.07 10.23 13.45
1/17/2021 2:30:00 AM 1.3 34.34 0.096 7.07 8.87 13.45
1/17/2021 2:45:00 AM 1.29 34.322 0.096 7.07 7.88 13.45
1/17/2021 3:00:00 AM 1.29 34.322 0.096 7.07 8.08 13.46
1/17/2021 3:15:00 AM 1.28 34.304 0.096 7.07 7.72 13.46
1/17/2021 3:30:00 AM 1.28 34.304 0.096 7.07 8.26 13.46
1/17/2021 3:45:00 AM 1.27 34.286 0.096 7.07 7.7 13.46
1/17/2021 4:00:00 AM 1.26 34.268 0.095 7.07 8.09 13.47
1/17/2021 4:15:00 AM 1.26 34.268 0.095 7.07 6.91 13.47
1/17/2021 4:30:00 AM 1.25 34.25 0.096 7.07 6.97 13.47
1/17/2021 4:45:00 AM 1.24 34.232 0.096 7.07 7.13 13.48
1/17/2021 5:00:00 AM 1.24 34.232 0.095 7.07 8.45 13.48
1/17/2021 5:15:00 AM 1.23 34.214 0.095 7.07 7.13 13.49
1/17/2021 5:30:00 AM 1.22 34.196 0.095 7.07 7.02 13.49
1/17/2021 5:45:00 AM 1.22 34.196 0.096 7.07 7.86 13.49
1/17/2021 6:00:00 AM 1.21 34.178 0.095 7.07 7.24 13.5
1/17/2021 6:15:00 AM 1.21 34.178 0.095 7.07 7.67 13.5
1/17/2021 6:30:00 AM 1.2 34.16 0.095 7.07 7.06 13.5
1/17/2021 6:45:00 AM 1.19 34.142 0.095 7.07 6.95 13.5
1/17/2021 7:00:00 AM 1.18 34.124 0.095 7.07 7.4 13.51
1/17/2021 7:15:00 AM 1.17 34.106 0.095 7.06 6.93 13.51
1/17/2021 7:30:00 AM 1.15 34.07 0.095 7.07 7.9 13.52
1/17/2021 7:45:00 AM 1.13 34.034 0.095 7.06 7.63 13.53
1/17/2021 8:00:00 AM 1.11 33.998 0.095 7.07 6.23 13.53
1/17/2021 8:15:00 AM 1.11 33.998 0.095 7.07 6.64 13.55
1/17/2021 8:30:00 AM 1.12 34.016 0.095 7.07 6.71 13.55
1/17/2021 8:45:00 AM 1.14 34.052 0.094 7.08 6.13 13.57
1/17/2021 9:00:00 AM 1.16 34.088 0.094 7.08 6.61 13.59
1/17/2021 9:15:00 AM 1.19 34.142 0.095 7.08 7.04 13.6
1/17/2021 9:30:00 AM 1.21 34.178 0.095 7.08 6.02 13.6
1/17/2021 9:45:00 AM 1.22 34.196 0.095 7.08 5.93 13.61
1/17/2021 10:00:00 AM 1.23 34.214 0.095 7.09 5.69 13.61
1/17/2021 10:15:00 AM 1.25 34.25 0.094 7.09 6.3 13.61
1/17/2021 10:30:00 AM 1.28 34.304 0.094 7.09 6.06 13.61
1/17/2021 10:45:00 AM 1.32 34.376 0.094 7.09 6.66 13.61
1/17/2021 11:00:00 AM 1.35 34.43 0.094 7.09 6.27 13.61
1/17/2021 11:15:00 AM 1.38 34.484 0.094 7.1 5.99 13.61
1/17/2021 11:30:00 AM 1.4 34.52 0.094 7.09 5.99 13.6
1/17/2021 11:45:00 AM 1.41 34.538 0.094 7.09 5.83 13.59
1/17/2021 12:00:00 PM 1.44 34.592 0.094 7.09 6.05 13.58
1/17/2021 12:15:00 PM 1.46 34.628 0.094 7.1 5.76 13.58
1/17/2021 12:30:00 PM 1.52 34.736 0.094 7.1 5.47 13.57
1/17/2021 12:45:00 PM 1.57 34.826 0.094 7.1 5.93 13.56
1/17/2021 1:00:00 PM 1.62 34.916 0.094 7.1 5.77 13.55
1/17/2021 1:15:00 PM 1.65 34.97 0.094 7.1 6.06 13.54
1/17/2021 1:30:00 PM 1.68 35.024 0.093 7.1 5.98 13.52
1/17/2021 1:45:00 PM 1.73 35.114 0.093 7.1 6.17 13.51
1/17/2021 2:00:00 PM 1.77 35.186 0.094 7.1 6.15 13.5
1/17/2021 2:15:00 PM 1.81 35.258 0.093 7.1 6.16 13.49
1/17/2021 2:30:00 PM 1.86 35.348 0.094 7.1 5.82 13.47
1/17/2021 2:45:00 PM 1.89 35.402 0.093 7.11 5.83 13.45
1/17/2021 3:00:00 PM 1.91 35.438 0.093 7.1 6.13 13.43
1/17/2021 3:15:00 PM 1.93 35.474 0.093 7.1 6.15 13.41
1/17/2021 3:30:00 PM 1.95 35.51 0.093 7.11 6.02 13.4
1/17/2021 3:45:00 PM 1.97 35.546 0.093 7.1 6.15 13.38
1/17/2021 4:00:00 PM 1.98 35.564 0.093 7.1 6.64 13.36
1/17/2021 4:15:00 PM 1.99 35.582 0.093 7.1 6.04 13.37
1/17/2021 4:30:00 PM 1.99 35.582 0.093 7.1 6.17 13.35
1/17/2021 4:45:00 PM 1.98 35.564 0.093 7.09 5.85 13.33
1/17/2021 5:00:00 PM 1.97 35.546 0.093 7.09 5.8 13.32
1/17/2021 5:15:00 PM 1.97 35.546 0.093 7.09 5.92 13.3
1/17/2021 5:30:00 PM 1.96 35.528 0.093 7.08 5.72 13.3
1/17/2021 5:45:00 PM 1.95 35.51 0.093 7.08 6.28 13.29
1/17/2021 6:00:00 PM 1.94 35.492 0.092 7.08 6.15 13.29
1/17/2021 6:15:00 PM 1.94 35.492 0.093 7.08 6.16 13.29
1/17/2021 6:30:00 PM 1.93 35.474 0.093 7.07 5.76 13.28
1/17/2021 6:45:00 PM 1.92 35.456 0.092 7.07 6.54 13.28
1/17/2021 7:00:00 PM 1.91 35.438 0.092 7.07 6.55 13.28
1/17/2021 7:15:00 PM 1.9 35.42 0.093 7.07 6.8 13.29
1/17/2021 7:30:00 PM 1.9 35.42 0.093 7.07 6.28 13.28
1/17/2021 7:45:00 PM 1.89 35.402 0.092 7.06 6.02 13.28
1/17/2021 8:00:00 PM 1.88 35.384 0.093 7.06 5.84 13.29
1/17/2021 8:15:00 PM 1.87 35.366 0.092 7.06 6.39 13.3
1/17/2021 8:30:00 PM 1.86 35.348 0.093 7.06 6.67 13.3
1/17/2021 8:45:00 PM 1.85 35.33 0.092 7.06 6.65 13.3
1/17/2021 9:00:00 PM 1.84 35.312 0.092 7.06 5.95 13.3
1/17/2021 9:15:00 PM 1.83 35.294 0.093 7.06 6.45 13.3
1/17/2021 9:30:00 PM 1.83 35.294 0.093 7.06 5.67 13.31
1/17/2021 9:45:00 PM 1.82 35.276 0.093 7.06 5.82 13.28
1/17/2021 10:00:00 PM 1.81 35.258 0.093 7.06 6.02 13.29
1/17/2021 10:15:00 PM 1.8 35.24 0.093 7.06 5.84 13.3
1/17/2021 10:30:00 PM 1.8 35.24 0.093 7.06 5.51 13.3
1/17/2021 10:45:00 PM 1.79 35.222 0.093 7.06 5.9 13.32
1/17/2021 11:00:00 PM 1.78 35.204 0.092 7.06 6.19 13.32
1/17/2021 11:15:00 PM 1.77 35.186 0.092 7.06 5.81 13.32
1/17/2021 11:30:00 PM 1.76 35.168 0.092 7.06 5.65 13.3
1/17/2021 11:45:00 PM 1.76 35.168 0.093 7.06 5.79 13.3
1/18/2021 12:00:00 AM 1.75 35.15 0.093 7.06 5.66 13.3
1/18/2021 12:15:00 AM 1.74 35.132 0.093 7.05 5.7 13.3
1/18/2021 12:30:00 AM 1.72 35.096 0.092 7.06 5.5 13.32
1/18/2021 12:45:00 AM 1.71 35.078 0.092 7.06 5.6 13.31
1/18/2021 1:00:00 AM 1.69 35.042 0.092 7.06 5.5 13.31
1/18/2021 1:15:00 AM 1.68 35.024 0.092 7.05 5.51 13.32
1/18/2021 1:30:00 AM 1.67 35.006 0.092 7.06 5.85 13.33
1/18/2021 1:45:00 AM 1.66 34.988 0.092 7.06 5.86 13.33
1/18/2021 2:00:00 AM 1.64 34.952 0.092 7.06 6.03 13.33
1/18/2021 2:15:00 AM 1.63 34.934 0.092 7.05 5.36 13.34
1/18/2021 2:30:00 AM 1.61 34.898 0.092 7.05 5.26 13.35
1/18/2021 2:45:00 AM 1.6 34.88 0.092 7.05 5.91 13.36
1/18/2021 3:00:00 AM 1.59 34.862 0.092 7.05 5.85 13.34
1/18/2021 3:15:00 AM 1.57 34.826 0.092 7.05 5.7 13.36
1/18/2021 3:30:00 AM 1.56 34.808 0.092 7.05 5.5 13.37
1/18/2021 3:45:00 AM 1.55 34.79 0.092 7.05 5.42 13.34
1/18/2021 4:00:00 AM 1.54 34.772 0.092 7.05 5.66 13.37
1/18/2021 4:15:00 AM 1.54 34.772 0.092 7.05 5.9 13.35
1/18/2021 4:30:00 AM 1.53 34.754 0.093 7.05 5.28 13.36
1/18/2021 4:45:00 AM 1.52 34.736 0.093 7.05 5.52 13.36
1/18/2021 5:00:00 AM 1.5 34.7 0.093 7.05 5.78 13.39
1/18/2021 5:15:00 AM 1.48 34.664 0.093 7.05 5.54 13.39
1/18/2021 5:30:00 AM 1.47 34.646 0.093 7.05 5.17 13.41
1/18/2021 5:45:00 AM 1.46 34.628 0.093 7.05 5.15 13.41
1/18/2021 6:00:00 AM 1.44 34.592 0.093 7.05 5.39 13.42
1/18/2021 6:15:00 AM 1.42 34.556 0.093 7.05 5.32 13.41
1/18/2021 6:30:00 AM 1.41 34.538 0.093 7.05 5.07 13.42
1/18/2021 6:45:00 AM 1.4 34.52 0.092 7.05 5.32 13.43
1/18/2021 7:00:00 AM 1.39 34.502 0.093 7.04 5.76 13.43
1/18/2021 7:15:00 AM 1.38 34.484 0.093 7.04 5.12 13.45
1/18/2021 7:30:00 AM 1.37 34.466 0.093 7.04 5.84 13.4
1/18/2021 7:45:00 AM 1.37 34.466 0.093 7.05 5.05 13.47
1/18/2021 8:00:00 AM 1.37 34.466 0.093 7.05 5.65 13.47
1/18/2021 8:15:00 AM 1.38 34.484 0.093 7.05 5.36 13.49
1/18/2021 8:30:00 AM 1.39 34.502 0.093 7.06 5.35 13.51
1/18/2021 8:45:00 AM 1.4 34.52 0.093 7.06 5.18 13.52
1/18/2021 9:00:00 AM 1.41 34.538 0.093 7.06 5.51 13.54
1/18/2021 9:15:00 AM 1.42 34.556 0.093 7.06 5.62 13.55
1/18/2021 9:30:00 AM 1.45 34.61 0.093 7.07 6.18 13.49
1/18/2021 9:45:00 AM 1.49 34.682 0.093 7.07 4.82 13.45
1/18/2021 10:00:00 AM 1.53 34.754 0.093 7.08 5.48 13.44
1/18/2021 10:15:00 AM 1.56 34.808 0.093 7.08 5.11 13.44
1/18/2021 10:30:00 AM 1.59 34.862 0.092 7.08 5.28 13.44
1/18/2021 10:45:00 AM 1.64 34.952 0.092 7.08 5.51 13.43
1/18/2021 11:00:00 AM 1.71 35.078 0.093 7.09 5.19 13.43
1/18/2021 11:15:00 AM 1.75 35.15 0.093 7.09 5.49 13.41
1/18/2021 11:30:00 AM 1.83 35.294 0.092 7.09 5.47 13.41
1/18/2021 11:45:00 AM 1.89 35.402 0.092 7.1 5.07 13.49
1/18/2021 12:00:00 PM 1.96 35.528 0.092 7.09 5.15 13.48
1/18/2021 12:15:00 PM 1.97 35.546 0.092 7.1 5.12 13.48
1/18/2021 12:30:00 PM 2.03 35.654 0.092 7.1 7.12 13.38
1/18/2021 12:45:00 PM 2.13 35.834 0.092 7.1 5.68 13.35
1/18/2021 1:00:00 PM 2.19 35.942 0.092 7.1 5.69 13.35
1/18/2021 1:15:00 PM 2.24 36.032 0.092 7.11 5.93 13.29
1/18/2021 1:30:00 PM 2.3 36.14 0.092 7.11 6.11 13.34
1/18/2021 1:45:00 PM 2.38 36.284 0.092 7.11 7.13 13.32
1/18/2021 2:00:00 PM 2.43 36.374 0.092 7.11 8.26 13.27
1/18/2021 2:15:00 PM 2.46 36.428 0.092 7.11 6.58 13.27
1/18/2021 2:30:00 PM 2.49 36.482 0.092 7.11 7.55 13.27
1/18/2021 2:45:00 PM 2.51 36.518 0.092 7.11 8.18 13.28
1/18/2021 3:00:00 PM 2.53 36.554 0.092 7.11 7.1 13.26
1/18/2021 3:15:00 PM 2.54 36.572 0.092 7.11 7.04 13.25
1/18/2021 3:30:00 PM 2.52 36.536 0.092 7.11 8.14 13.24
1/18/2021 3:45:00 PM 2.48 36.464 0.092 7.11 8.66 13.22
1/18/2021 4:00:00 PM 2.44 36.392 0.092 7.11 9.74 13.19
1/18/2021 4:15:00 PM 2.38 36.284 0.092 7.1 8.44 13.2
1/18/2021 4:30:00 PM 2.33 36.194 0.092 7.1 9.57 13.21
1/18/2021 4:45:00 PM 2.27 36.086 0.092 7.1 9.65 13.22
1/18/2021 5:00:00 PM 2.22 35.996 0.092 7.09 8.25 13.23
1/18/2021 5:15:00 PM 2.18 35.924 0.092 7.09 7.14 13.22
1/18/2021 5:30:00 PM 2.14 35.852 0.092 7.08 7.86 13.22
1/18/2021 5:45:00 PM 2.11 35.798 0.092 7.08 9.35 13.23
1/18/2021 6:00:00 PM 2.08 35.744 0.092 7.07 7.03 13.23
1/18/2021 6:15:00 PM 2.05 35.69 0.092 7.07 9.82 13.24
1/18/2021 6:30:00 PM 2.02 35.636 0.092 7.07 7.22 13.24
1/18/2021 6:45:00 PM 2 35.6 0.092 7.06 6.6 13.25
1/18/2021 7:00:00 PM 1.97 35.546 0.092 7.06 6.79 13.25
1/18/2021 7:15:00 PM 1.94 35.492 0.092 7.06 6.31 13.28
1/18/2021 7:30:00 PM 1.92 35.456 0.092 7.06 7.47 13.28
1/18/2021 7:45:00 PM 1.9 35.42 0.092 7.06 7.07 13.29
1/18/2021 8:00:00 PM 1.88 35.384 0.092 7.05 8.38 13.29
1/18/2021 8:15:00 PM 1.87 35.366 0.092 7.05 5.88 13.3
1/18/2021 8:30:00 PM 1.85 35.33 0.092 7.05 6.15 13.31
1/18/2021 8:45:00 PM 1.84 35.312 0.092 7.05 6.42 13.33
1/18/2021 9:00:00 PM 1.82 35.276 0.092 7.05 6.08 13.36
1/18/2021 9:15:00 PM 1.8 35.24 0.092 7.05 6.51 13.36
1/18/2021 9:30:00 PM 1.78 35.204 0.092 7.05 6.19 13.37
1/18/2021 9:45:00 PM 1.7 35.06 0.092 7.05 5.91 13.38
1/18/2021 10:00:00 PM 1.6 34.88 0.092 7.04 5.45 13.38
1/18/2021 10:15:00 PM 1.52 34.736 0.092 7.05 5.69 13.39
1/18/2021 10:30:00 PM 1.44 34.592 0.092 7.04 7.18 13.41
1/18/2021 10:45:00 PM 1.39 34.502 0.092 7.04 5.82 13.45
1/18/2021 11:00:00 PM 1.35 34.43 0.092 7.04 5.19 13.46
1/18/2021 11:15:00 PM 1.31 34.358 0.092 7.04 6.43 13.48
1/18/2021 11:30:00 PM 1.28 34.304 0.092 7.04 5.44 13.51
1/18/2021 11:45:00 PM 1.25 34.25 0.092 7.04 6.05 13.54
1/19/2021 12:00:00 AM 1.22 34.196 0.092 7.04 4.83 13.56
1/19/2021 12:15:00 AM 1.22 34.196 0.092 7.04 5.31 13.57
1/19/2021 12:30:00 AM 1.23 34.214 0.093 7.04 5 13.58
1/19/2021 12:45:00 AM 1.23 34.214 0.092 7.04 6.08 13.58
1/19/2021 1:00:00 AM 1.24 34.232 0.092 7.04 5.29 13.58
1/19/2021 1:15:00 AM 1.26 34.268 0.092 7.04 5.14 13.58
1/19/2021 1:30:00 AM 1.28 34.304 0.092 7.04 5.89 13.58
1/19/2021 1:45:00 AM 1.29 34.322 0.092 7.04 5.34 13.58
1/19/2021 2:00:00 AM 1.3 34.34 0.092 7.04 5.72 13.55
1/19/2021 2:15:00 AM 1.3 34.34 0.092 7.04 5.63 13.55
1/19/2021 2:30:00 AM 1.3 34.34 0.092 7.04 6.19 13.55
1/19/2021 2:45:00 AM 1.3 34.34 0.092 7.04 5.08 13.57
1/19/2021 3:00:00 AM 1.3 34.34 0.093 7.04 5.5 13.57
1/19/2021 3:15:00 AM 1.3 34.34 0.092 7.04 5.13 13.58
1/19/2021 3:30:00 AM 1.31 34.358 0.092 7.04 5.87 13.56
1/19/2021 3:45:00 AM 1.31 34.358 0.092 7.04 5.32 13.56
1/19/2021 4:00:00 AM 1.31 34.358 0.093 7.04 5.13 13.58
1/19/2021 4:15:00 AM 1.31 34.358 0.092 7.04 5.57 13.57
1/19/2021 4:30:00 AM 1.31 34.358 0.093 7.04 4.46 13.57
1/19/2021 4:45:00 AM 1.31 34.358 0.092 7.04 4.84 13.54
1/19/2021 5:00:00 AM 1.31 34.358 0.093 7.04 4.83 13.57
1/19/2021 5:15:00 AM 1.31 34.358 0.093 7.04 5.24 13.59
1/19/2021 5:30:00 AM 1.3 34.34 0.093 7.04 4.47 13.57
1/19/2021 5:45:00 AM 1.3 34.34 0.093 7.04 4.59 13.53
1/19/2021 6:00:00 AM 1.3 34.34 0.093 7.04 4.69 13.55
1/19/2021 6:15:00 AM 1.29 34.322 0.093 7.04 4.89 13.57
1/19/2021 6:30:00 AM 1.28 34.304 0.093 7.04 5.03 13.58
1/19/2021 6:45:00 AM 1.27 34.286 0.093 7.05 4.5 13.6
1/19/2021 7:00:00 AM 1.26 34.268 0.093 7.04 4.66 13.6
1/19/2021 7:15:00 AM 1.24 34.232 0.093 7.04 5.69 13.62
1/19/2021 7:30:00 AM 1.22 34.196 0.093 7.04 4.95 13.62
1/19/2021 7:45:00 AM 1.21 34.178 0.093 7.05 4.73 13.63
1/19/2021 8:00:00 AM 1.21 34.178 0.093 7.05 4.35 13.64
1/19/2021 8:15:00 AM 1.21 34.178 0.093 7.05 4.65 13.66
1/19/2021 8:30:00 AM 1.21 34.178 0.093 7.06 4.4 13.67
1/19/2021 8:45:00 AM 1.21 34.178 0.093 7.06 4.47 13.69
1/19/2021 9:00:00 AM 1.22 34.196 0.093 7.06 4.47 13.71
1/19/2021 9:15:00 AM 1.24 34.232 0.093 7.07 5.12 13.73
1/19/2021 9:30:00 AM 1.26 34.268 0.092 7.07 4.25 13.75
1/19/2021 9:45:00 AM 1.29 34.322 0.093 7.08 4.45 13.76
1/19/2021 10:00:00 AM 1.33 34.394 0.093 7.08 4.13 13.77
1/19/2021 10:15:00 AM 1.36 34.448 0.093 7.08 4.15 13.78
1/19/2021 10:30:00 AM 1.41 34.538 0.093 7.09 4.12 13.78
1/19/2021 10:45:00 AM 1.47 34.646 0.092 7.09 4.49 13.77
1/19/2021 11:00:00 AM 1.53 34.754 0.093 7.09 4.38 13.77
1/19/2021 11:15:00 AM 1.58 34.844 0.092 7.1 4.44 13.75
1/19/2021 11:30:00 AM 1.63 34.934 0.093 7.1 4.12 13.75
1/19/2021 11:45:00 AM 1.68 35.024 0.093 7.1 4.36 13.73
1/19/2021 12:00:00 PM 1.73 35.114 0.094 7.11 4.07 13.71
1/19/2021 12:15:00 PM 1.79 35.222 0.094 7.11 4.5 13.7
1/19/2021 12:30:00 PM 1.85 35.33 0.093 7.11 4.73 13.68
1/19/2021 12:45:00 PM 1.9 35.42 0.093 7.11 4.6 13.67
1/19/2021 1:00:00 PM 1.95 35.51 0.093 7.11 4.51 13.66
1/19/2021 1:15:00 PM 2.01 35.618 0.093 7.11 4.67 13.64
1/19/2021 1:30:00 PM 2.08 35.744 0.093 7.11 5.39 13.6
1/19/2021 1:45:00 PM 2.12 35.816 0.093 7.11 5.06 13.59
1/19/2021 2:00:00 PM 2.14 35.852 0.093 7.11 5.25 13.56
1/19/2021 2:15:00 PM 2.18 35.924 0.093 7.11 5.08 13.54
1/19/2021 2:30:00 PM 2.23 36.014 0.093 7.12 5.19 13.53
1/19/2021 2:45:00 PM 2.27 36.086 0.092 7.12 5.54 13.51
1/19/2021 3:00:00 PM 2.32 36.176 0.093 7.12 6.18 13.5
1/19/2021 3:15:00 PM 2.36 36.248 0.093 7.12 5.29 13.48
1/19/2021 3:30:00 PM 2.38 36.284 0.092 7.12 5.92 13.46
1/19/2021 3:45:00 PM 2.38 36.284 0.092 7.12 6.83 13.45
1/19/2021 4:00:00 PM 2.35 36.23 0.093 7.12 6.24 13.43
1/19/2021 4:15:00 PM 2.3 36.14 0.093 7.12 7.16 13.43
1/19/2021 4:30:00 PM 2.24 36.032 0.092 7.11 6.16 13.46
1/19/2021 4:45:00 PM 2.19 35.942 0.092 7.1 6.5 13.43
1/19/2021 5:00:00 PM 2.13 35.834 0.092 7.1 6.04 13.42
1/19/2021 5:15:00 PM 2.07 35.726 0.093 7.09 5.98 13.41
1/19/2021 5:30:00 PM 2.02 35.636 0.092 7.09 6.08 13.42
1/19/2021 5:45:00 PM 1.98 35.564 0.092 7.08 6.51 13.43
1/19/2021 6:00:00 PM 1.93 35.474 0.092 7.08 5.94 13.43
1/19/2021 6:15:00 PM 1.89 35.402 0.092 7.07 5.05 13.42
1/19/2021 6:30:00 PM 1.84 35.312 0.092 7.07 5.65 13.43
1/19/2021 6:45:00 PM 1.8 35.24 0.092 7.07 5.35 13.43
1/19/2021 7:00:00 PM 1.77 35.186 0.093 7.06 4.83 13.43
1/19/2021 7:15:00 PM 1.76 35.168 0.093 7.06 5.02 13.45
1/19/2021 7:30:00 PM 1.74 35.132 0.092 7.06 5.03 13.45
1/19/2021 7:45:00 PM 1.72 35.096 0.093 7.06 4.82 13.46
1/19/2021 8:00:00 PM 1.69 35.042 0.092 7.05 4.73 13.46
1/19/2021 8:15:00 PM 1.67 35.006 0.092 7.05 4.6 13.47
1/19/2021 8:30:00 PM 1.64 34.952 0.093 7.05 5.28 13.48
1/19/2021 8:45:00 PM 1.61 34.898 0.093 7.05 4.96 13.46
1/19/2021 9:00:00 PM 1.59 34.862 0.093 7.05 4.65 13.45
1/19/2021 9:15:00 PM 1.58 34.844 0.093 7.05 4.44 13.48
1/19/2021 9:30:00 PM 1.56 34.808 0.093 7.05 4.58 13.51
1/19/2021 9:45:00 PM 1.55 34.79 0.093 7.05 4.89 13.48
1/19/2021 10:00:00 PM 1.53 34.754 0.093 7.05 4.48 13.51
1/19/2021 10:15:00 PM 1.52 34.736 0.093 7.05 4.26 13.51
1/19/2021 10:30:00 PM 1.51 34.718 0.093 7.05 4.14 13.51
1/19/2021 10:45:00 PM 1.5 34.7 0.093 7.05 4.06 13.53
1/19/2021 11:00:00 PM 1.49 34.682 0.093 7.05 4.13 13.54
1/19/2021 11:15:00 PM 1.48 34.664 0.093 7.05 4.24 13.53
1/19/2021 11:30:00 PM 1.46 34.628 0.093 7.05 4.85 13.53
1/19/2021 11:45:00 PM 1.45 34.61 0.093 7.05 4.07 13.53
1/20/2021 12:00:00 AM 1.44 34.592 0.093 7.05 4.3 13.53
1/20/2021 12:15:00 AM 1.42 34.556 0.093 7.05 4.31 13.52
1/20/2021 12:30:00 AM 1.41 34.538 0.093 7.05 4.25 13.52
1/20/2021 12:45:00 AM 1.4 34.52 0.093 7.05 4.02 13.52
1/20/2021 1:00:00 AM 1.39 34.502 0.093 7.05 3.95 13.52
1/20/2021 1:15:00 AM 1.38 34.484 0.093 7.05 3.87 13.52
1/20/2021 1:30:00 AM 1.37 34.466 0.093 7.05 3.89 13.52
1/20/2021 1:45:00 AM 1.36 34.448 0.093 7.05 3.84 13.52
1/20/2021 2:00:00 AM 1.35 34.43 0.093 7.05 3.99 13.53
1/20/2021 2:15:00 AM 1.34 34.412 0.093 7.05 3.9 13.54
1/20/2021 2:30:00 AM 1.33 34.394 0.093 7.05 4.18 13.54
1/20/2021 2:45:00 AM 1.32 34.376 0.093 7.05 3.71 13.56
1/20/2021 3:00:00 AM 1.31 34.358 0.093 7.05 3.77 13.56
1/20/2021 3:15:00 AM 1.3 34.34 0.093 7.05 4.1 13.57
1/20/2021 3:30:00 AM 1.28 34.304 0.093 7.05 4.44 13.56
1/20/2021 3:45:00 AM 1.27 34.286 0.093 7.05 3.92 13.56
1/20/2021 4:00:00 AM 1.26 34.268 0.093 7.05 4 13.55
1/20/2021 4:15:00 AM 1.25 34.25 0.093 7.05 3.84 13.57
1/20/2021 4:30:00 AM 1.24 34.232 0.093 7.05 3.81 13.56
1/20/2021 4:45:00 AM 1.23 34.214 0.093 7.05 3.77 13.57
1/20/2021 5:00:00 AM 1.21 34.178 0.093 7.05 4.05 13.57
1/20/2021 5:15:00 AM 1.2 34.16 0.093 7.05 4.09 13.57
1/20/2021 5:30:00 AM 1.18 34.124 0.094 7.05 3.8 13.56
1/20/2021 5:45:00 AM 1.16 34.088 0.093 7.05 5.12 13.52
1/20/2021 6:00:00 AM 1.15 34.07 0.093 7.05 4.16 13.56
1/20/2021 6:15:00 AM 1.14 34.052 0.093 7.05 4.49 13.59
1/20/2021 6:30:00 AM 1.13 34.034 0.093 7.05 4.3 13.61
1/20/2021 6:45:00 AM 1.12 34.016 0.093 7.05 3.79 13.6
1/20/2021 7:00:00 AM 1.1 33.98 0.093 7.05 3.93 13.6
1/20/2021 7:15:00 AM 1.05 33.89 0.093 7.05 4.03 13.6
1/20/2021 7:30:00 AM 1.01 33.818 0.093 7.05 3.83 13.59
1/20/2021 7:45:00 AM 0.98 33.764 0.093 7.05 4.2 13.63
1/20/2021 8:00:00 AM 0.97 33.746 0.093 7.05 5.05 13.65
1/20/2021 8:15:00 AM 0.96 33.728 0.093 7.06 3.94 13.67
1/20/2021 8:30:00 AM 0.96 33.728 0.093 7.06 3.77 13.67
1/20/2021 8:45:00 AM 0.96 33.728 0.093 7.06 3.69 13.64
1/20/2021 9:00:00 AM 0.95 33.71 0.093 7.07 3.86 13.66
1/20/2021 9:15:00 AM 0.96 33.728 0.093 7.07 3.73 13.69
1/20/2021 9:30:00 AM 0.97 33.746 0.092 7.08 3.63 13.71
1/20/2021 9:45:00 AM 0.99 33.782 0.093 7.08 3.77 13.75
1/20/2021 10:00:00 AM 1.02 33.836 0.092 7.09 3.6 13.76
1/20/2021 10:15:00 AM 1.05 33.89 0.093 7.09 3.96 13.78
1/20/2021 10:30:00 AM 1.06 33.908 0.093 7.09 3.8 13.82
1/20/2021 10:45:00 AM 1.06 33.908 0.092 7.1 4.24 13.83
1/20/2021 11:00:00 AM 1.06 33.908 0.092 7.1 3.64 13.88
1/20/2021 11:15:00 AM 1.06 33.908 0.093 7.1 3.51 13.86
1/20/2021 11:30:00 AM 1.05 33.89 0.093 7.1 3.78 13.85
1/20/2021 11:45:00 AM 1.05 33.89 0.093 7.1 3.5 13.85
1/20/2021 12:00:00 PM 1.06 33.908 0.093 7.11 3.6 13.84
1/20/2021 12:15:00 PM 1.05 33.89 0.093 7.11 3.54 13.83
1/20/2021 12:30:00 PM 1.04 33.872 0.093 7.11 3.6 13.81
1/20/2021 12:45:00 PM 1.1 33.98 0.092 7.11 3.95 13.82
1/20/2021 1:00:00 PM 1.12 34.016 0.092 7.11 3.47 13.84
1/20/2021 1:15:00 PM 1.13 34.034 0.092 7.11 4.1 13.8
1/20/2021 1:30:00 PM 1.16 34.088 0.092 7.11 3.58 13.83
1/20/2021 1:45:00 PM 1.19 34.142 0.092 7.11 3.72 13.82
1/20/2021 2:00:00 PM 1.2 34.16 0.093 7.11 3.54 13.82
1/20/2021 2:15:00 PM 1.2 34.16 0.093 7.11 3.69 13.81
1/20/2021 2:30:00 PM 1.18 34.124 0.093 7.11 3.61 13.81
1/20/2021 2:45:00 PM 1.16 34.088 0.093 7.11 3.66 13.84
1/20/2021 3:00:00 PM 1.11 33.998 0.092 7.11 4.46 13.86
1/20/2021 3:15:00 PM 1.08 33.944 0.092 7.11 3.49 13.89
1/20/2021 3:30:00 PM 1.05 33.89 0.092 7.11 3.53 13.89
1/20/2021 3:45:00 PM 1.02 33.836 0.092 7.11 3.86 13.88
1/20/2021 4:00:00 PM 0.99 33.782 0.092 7.11 3.97 13.93
1/20/2021 4:15:00 PM 0.96 33.728 0.092 7.11 3.83 13.91
1/20/2021 4:30:00 PM 0.94 33.692 0.093 7.11 4.09 13.93
1/20/2021 4:45:00 PM 0.91 33.638 0.092 7.1 4.17 13.93
1/20/2021 5:00:00 PM 0.85 33.53 0.092 7.1 3.66 13.93
1/20/2021 5:15:00 PM 0.78 33.404 0.093 7.1 3.9 13.92
1/20/2021 5:30:00 PM 0.73 33.314 0.092 7.09 3.7 13.92
1/20/2021 5:45:00 PM 0.68 33.224 0.092 7.08 3.7 13.89
1/20/2021 6:00:00 PM 0.62 33.116 0.093 7.07 3.53 13.9
1/20/2021 6:15:00 PM 0.57 33.026 0.093 7.07 3.73 13.89
1/20/2021 6:30:00 PM 0.52 32.936 0.093 7.07 3.54 13.89
1/20/2021 6:45:00 PM 0.48 32.864 0.093 7.06 3.5 13.9
1/20/2021 7:00:00 PM 0.44 32.792 0.093 7.06 3.51 13.9
1/20/2021 7:15:00 PM 0.39 32.702 0.093 7.05 3.43 13.9
1/20/2021 7:30:00 PM 0.35 32.63 0.093 7.05 3.37 13.93
1/20/2021 7:45:00 PM 0.31 32.558 0.093 7.05 3.59 13.95
1/20/2021 8:00:00 PM 0.27 32.486 0.093 7.04 3.94 13.94
1/20/2021 8:15:00 PM 0.24 32.432 0.094 7.04 3.49 13.98
1/20/2021 8:30:00 PM 0.2 32.36 0.094 7.04 3.5 13.98
1/20/2021 8:45:00 PM 0.17 32.306 0.094 7.04 3.4 14.01
1/20/2021 9:00:00 PM 0.14 32.252 0.094 7.04 3.44 14.02
1/20/2021 9:15:00 PM 0.12 32.216 0.094 7.03 3.53 14.01
1/20/2021 9:30:00 PM 0.1 32.18 0.094 7.03 3.8 14.02
1/20/2021 9:45:00 PM 0.08 32.144 0.094 7.04 3.49 14.01
1/20/2021 10:00:00 PM 0.06 32.108 0.095 7.03 3.45 14.05
1/20/2021 10:15:00 PM 0.05 32.09 0.095 7.04 3.46 14.05
1/20/2021 10:30:00 PM 0.05 32.09 0.095 7.03 3.49 14.04
1/20/2021 10:45:00 PM 0.04 32.072 0.095 7.03 3.48 14.07
1/20/2021 11:00:00 PM 0.04 32.072 0.095 7.03 3.47 14.06
1/20/2021 11:15:00 PM 0.04 32.072 0.095 7.03 3.47 14.07
1/20/2021 11:30:00 PM 0.04 32.072 0.095 7.03 3.46 14.07
1/20/2021 11:45:00 PM 0.04 32.072 0.095 7.03 3.9 14.06
1/21/2021 12:00:00 AM 0.03 32.054 0.096 7.03 3.6 14.06
1/21/2021 12:15:00 AM 0.03 32.054 0.096 7.02 3.26 14.06
1/21/2021 12:30:00 AM 0.03 32.054 0.096 7.03 3.39 14.07
1/21/2021 12:45:00 AM 0.03 32.054 0.096 7.02 3.45 14.06
1/21/2021 1:00:00 AM 0.02 32.036 0.096 7.02 3.28 14.05
1/21/2021 1:15:00 AM 0.02 32.036 0.097 7.02 3.35 14.05
1/21/2021 1:30:00 AM 0.02 32.036 0.097 7.02 3.51 14.05
1/21/2021 1:45:00 AM 0.01 32.018 0.097 7.02 3.69 14.05
1/21/2021 2:00:00 AM 0 32 0.097 7.02 3.45 14.05
1/21/2021 2:15:00 AM -0.01 31.982 0.097 7.02 3.57 14.06
1/21/2021 2:30:00 AM -0.01 31.982 0.097 7.02 3.45 14.05
1/21/2021 2:45:00 AM -0.01 31.982 0.097 7.01 3.51 14.04
1/21/2021 3:00:00 AM -0.01 31.982 0.097 7.01 3.35 14.03
1/21/2021 3:15:00 AM -0.01 31.982 0.097 7.01 3.58 14.03
1/21/2021 3:30:00 AM -0.01 31.982 0.097 7.01 3.33 14.02
1/21/2021 3:45:00 AM -0.01 31.982 0.098 7 3.86 14.03
1/21/2021 4:00:00 AM -0.01 31.982 0.098 7 3.96 14.01
1/21/2021 4:15:00 AM -0.01 31.982 0.098 7 4.04 14.01
1/21/2021 4:30:00 AM -0.01 31.982 0.098 7 3.42 13.98
1/21/2021 4:45:00 AM -0.01 31.982 0.098 6.99 3.31 13.98
1/21/2021 5:00:00 AM 0 32 0.098 6.99 4.02 13.96
1/21/2021 5:15:00 AM 0 32 0.098 6.98 3.36 13.95
1/21/2021 5:30:00 AM 0.01 32.018 0.098 6.98 3.56 13.95
1/21/2021 5:45:00 AM 0.02 32.036 0.098 6.97 3.46 13.93
1/21/2021 6:00:00 AM 0.03 32.054 0.099 6.98 3.69 13.91
1/21/2021 6:15:00 AM 0.04 32.072 0.099 6.97 3.27 13.9
1/21/2021 6:30:00 AM 0.06 32.108 0.099 6.97 3.19 13.9
1/21/2021 6:45:00 AM 0.07 32.126 0.098 6.97 3.41 13.88
1/21/2021 7:00:00 AM 0.08 32.144 0.098 6.97 3.26 13.87
1/21/2021 7:15:00 AM 0.08 32.144 0.099 6.97 3.12 13.84
1/21/2021 7:30:00 AM 0.09 32.162 0.099 6.97 3.26 13.84
1/21/2021 7:45:00 AM 0.09 32.162 0.099 6.97 3.44 13.84
1/21/2021 8:00:00 AM 0.1 32.18 0.099 6.97 3.77 13.86
1/21/2021 8:15:00 AM 0.1 32.18 0.099 6.98 3.25 13.87
1/21/2021 8:30:00 AM 0.11 32.198 0.1 6.98 3.35 13.88
1/21/2021 8:45:00 AM 0.12 32.216 0.1 6.99 3.18 13.9
1/21/2021 9:00:00 AM 0.13 32.234 0.1 7 3.14 13.91
1/21/2021 9:15:00 AM 0.14 32.252 0.1 7 3.67 13.9
1/21/2021 9:30:00 AM 0.14 32.252 0.1 7.01 3.14 13.92
1/21/2021 9:45:00 AM 0.13 32.234 0.1 7.02 3.33 13.95
1/21/2021 10:00:00 AM 0.13 32.234 0.099 7.03 3.17 13.97
1/21/2021 10:15:00 AM 0.13 32.234 0.1 7.04 3.55 14
1/21/2021 10:30:00 AM 0.13 32.234 0.1 7.05 3.25 14.02
1/21/2021 10:45:00 AM 0.14 32.252 0.099 7.06 3.48 14.05
1/21/2021 11:00:00 AM 0.15 32.27 0.099 7.07 3.53 14.07
1/21/2021 11:15:00 AM 0.16 32.288 0.099 7.08 3.25 14.09
1/21/2021 11:30:00 AM 0.15 32.27 0.099 7.09 3.76 14.1
1/21/2021 11:45:00 AM 0.14 32.252 0.099 7.1 3.63 14.11
1/21/2021 12:00:00 PM 0.13 32.234 0.098 7.11 3.82 14.13
1/21/2021 12:15:00 PM 0.13 32.234 0.098 7.12 3.82 14.14
1/21/2021 12:30:00 PM 0.12 32.216 0.097 7.13 3.5 14.15
1/21/2021 12:45:00 PM 0.11 32.198 0.097 7.13 3.57 14.15
1/21/2021 1:00:00 PM 0.09 32.162 0.097 7.14 3.91 14.14
1/21/2021 1:15:00 PM 0.08 32.144 0.097 7.13 4.28 14.14
1/21/2021 1:30:00 PM 0.07 32.126 0.096 7.13 4.25 14.13
1/21/2021 1:45:00 PM 0.06 32.108 0.097 7.13 3.78 14.13
1/21/2021 2:00:00 PM 0.06 32.108 0.096 7.13 4.23 14.13
1/21/2021 2:15:00 PM 0.06 32.108 0.095 7.13 19.34 14.11
1/21/2021 2:30:00 PM 0.06 32.108 0.095 7.14 4.37 14.08
1/21/2021 2:45:00 PM 0.06 32.108 0.095 7.14 4.86 14.07
1/21/2021 3:00:00 PM 0.06 32.108 0.095 7.15 4.07 14.09
1/21/2021 3:15:00 PM 0.11 32.198 0.094 7.15 4.31 14.12
1/21/2021 3:30:00 PM 0.18 32.324 0.093 7.15 4.53 14.1
1/21/2021 3:45:00 PM 0.22 32.396 0.093 7.15 4.67 14.08
1/21/2021 4:00:00 PM 0.23 32.414 0.093 7.15 5.04 14.09
1/21/2021 4:15:00 PM 0.22 32.396 0.093 7.14 4.46 14.08
1/21/2021 4:30:00 PM 0.2 32.36 0.093 7.14 4.31 14.07
1/21/2021 4:45:00 PM 0.18 32.324 0.093 7.13 4.77 14.06
1/21/2021 5:00:00 PM 0.16 32.288 0.093 7.13 4.6 14.05
1/21/2021 5:15:00 PM 0.16 32.288 0.093 7.12 4.65 14.03
1/21/2021 5:30:00 PM 0.16 32.288 0.093 7.11 4.42 14.01
1/21/2021 5:45:00 PM 0.16 32.288 0.093 7.1 4.73 13.96
1/21/2021 6:00:00 PM 0.17 32.306 0.093 7.09 4.41 13.92
1/21/2021 6:15:00 PM 0.17 32.306 0.093 7.09 5.42 13.94
1/21/2021 6:30:00 PM 0.18 32.324 0.094 7.08 4.2 13.93
1/21/2021 6:45:00 PM 0.19 32.342 0.093 7.08 4.44 13.91
1/21/2021 7:00:00 PM 0.19 32.342 0.093 7.08 4.92 13.9
1/21/2021 7:15:00 PM 0.2 32.36 0.093 7.08 5.17 13.88
1/21/2021 7:30:00 PM 0.21 32.378 0.094 7.08 5.1 13.87
1/21/2021 7:45:00 PM 0.22 32.396 0.094 7.08 4.24 13.83
1/21/2021 8:00:00 PM 0.23 32.414 0.094 7.07 4.48 13.82
1/21/2021 8:15:00 PM 0.24 32.432 0.094 7.07 4.45 13.82
1/21/2021 8:30:00 PM 0.24 32.432 0.094 7.07 4.52 13.81
1/21/2021 8:45:00 PM 0.25 32.45 0.093 7.07 5.36 13.82
1/21/2021 9:00:00 PM 0.26 32.468 0.093 7.07 5.34 13.82
1/21/2021 9:15:00 PM 0.26 32.468 0.093 7.06 6.02 13.81
1/21/2021 9:30:00 PM 0.27 32.486 0.093 7.06 5.84 13.77
1/21/2021 9:45:00 PM 0.27 32.486 0.093 7.06 5.4 13.82
1/21/2021 10:00:00 PM 0.28 32.504 0.093 7.06 6.23 13.81
1/21/2021 10:15:00 PM 0.28 32.504 0.093 7.06 5.69 13.82
1/21/2021 10:30:00 PM 0.29 32.522 0.093 7.06 5.96 13.83
1/21/2021 10:45:00 PM 0.29 32.522 0.093 7.06 5.48 13.83
1/21/2021 11:00:00 PM 0.3 32.54 0.093 7.06 5.72 13.83
1/21/2021 11:15:00 PM 0.3 32.54 0.093 7.06 5.86 13.82
1/21/2021 11:30:00 PM 0.31 32.558 0.092 7.06 5.29 13.82
1/21/2021 11:45:00 PM 0.32 32.576 0.092 7.06 5.32 13.82
1/22/2021 12:00:00 AM 0.32 32.576 0.092 7.06 5.33 13.82
1/22/2021 12:15:00 AM 0.33 32.594 0.092 7.06 4.95 13.82
1/22/2021 12:30:00 AM 0.32 32.576 0.092 7.06 5.42 13.82
1/22/2021 12:45:00 AM 0.32 32.576 0.092 7.06 4.88 13.82
1/22/2021 1:00:00 AM 0.31 32.558 0.093 7.06 4.76 13.81
1/22/2021 1:15:00 AM 0.3 32.54 0.092 7.06 4.82 13.82
1/22/2021 1:30:00 AM 0.29 32.522 0.092 7.06 4.66 13.8
1/22/2021 1:45:00 AM 0.28 32.504 0.092 7.06 4.39 13.82
1/22/2021 2:00:00 AM 0.28 32.504 0.092 7.06 4.85 13.82
1/22/2021 2:15:00 AM 0.28 32.504 0.092 7.06 4.74 13.83
1/22/2021 2:30:00 AM 0.29 32.522 0.092 7.06 4.84 13.82
1/22/2021 2:45:00 AM 0.29 32.522 0.092 7.06 4.73 13.83
1/22/2021 3:00:00 AM 0.28 32.504 0.092 7.06 4.73 13.83
1/22/2021 3:15:00 AM 0.29 32.522 0.092 7.06 4.3 13.83
1/22/2021 3:30:00 AM 0.29 32.522 0.093 7.06 4.57 13.83
1/22/2021 3:45:00 AM 0.31 32.558 0.092 7.07 4.13 13.83
1/22/2021 4:00:00 AM 0.31 32.558 0.092 7.07 4.18 13.83
1/22/2021 4:15:00 AM 0.31 32.558 0.092 7.07 4.07 13.83
1/22/2021 4:30:00 AM 0.31 32.558 0.093 7.06 3.98 13.82
1/22/2021 4:45:00 AM 0.3 32.54 0.093 7.06 4.07 13.81
1/22/2021 5:00:00 AM 0.3 32.54 0.092 7.06 4.09 13.83
1/22/2021 5:15:00 AM 0.3 32.54 0.092 7.06 4.72 13.81
1/22/2021 5:30:00 AM 0.3 32.54 0.092 7.06 4.21 13.83
1/22/2021 5:45:00 AM 0.31 32.558 0.092 7.06 4.18 13.82
1/22/2021 6:00:00 AM 0.31 32.558 0.092 7.06 4.21 13.82
1/22/2021 6:15:00 AM 0.32 32.576 0.092 7.07 3.96 13.82
1/22/2021 6:30:00 AM 0.32 32.576 0.092 7.07 4.19 13.82
1/22/2021 6:45:00 AM 0.33 32.594 0.092 7.07 3.98 13.83
1/22/2021 7:00:00 AM 0.33 32.594 0.092 7.07 3.83 13.82
1/22/2021 7:15:00 AM 0.33 32.594 0.092 7.07 3.9 13.82
1/22/2021 7:30:00 AM 0.34 32.612 0.092 7.06 3.94 13.81
1/22/2021 7:45:00 AM 0.34 32.612 0.092 7.07 3.71 13.81
1/22/2021 8:00:00 AM 0.34 32.612 0.092 7.07 4.12 13.82
1/22/2021 8:15:00 AM 0.34 32.612 0.092 7.07 3.96 13.85
1/22/2021 8:30:00 AM 0.35 32.63 0.092 7.08 4.33 13.88
1/22/2021 8:45:00 AM 0.37 32.666 0.092 7.09 3.93 13.9
1/22/2021 9:00:00 AM 0.39 32.702 0.092 7.09 3.92 13.93
1/22/2021 9:15:00 AM 0.42 32.756 0.092 7.1 3.78 13.94
1/22/2021 9:30:00 AM 0.45 32.81 0.091 7.1 3.84 13.96
1/22/2021 9:45:00 AM 0.49 32.882 0.092 7.11 3.77 13.98
1/22/2021 10:00:00 AM 0.53 32.954 0.092 7.11 3.73 13.99
1/22/2021 10:15:00 AM 0.57 33.026 0.092 7.12 3.97 13.99
1/22/2021 10:30:00 AM 0.61 33.098 0.092 7.12 3.58 14
1/22/2021 10:45:00 AM 0.65 33.17 0.092 7.13 3.87 13.98
1/22/2021 11:00:00 AM 0.7 33.26 0.091 7.13 3.76 13.98
1/22/2021 11:15:00 AM 0.74 33.332 0.092 7.13 3.66 13.98
1/22/2021 11:30:00 AM 0.79 33.422 0.092 7.14 3.68 13.96
1/22/2021 11:45:00 AM 0.83 33.494 0.092 7.14 3.74 13.95
1/22/2021 12:00:00 PM 0.87 33.566 0.092 7.14 3.65 13.93
1/22/2021 12:15:00 PM 0.92 33.656 0.092 7.14 3.62 13.91
1/22/2021 12:30:00 PM 1 33.8 0.091 7.14 3.81 13.89
1/22/2021 12:45:00 PM 1.07 33.926 0.091 7.14 3.88 13.91
1/22/2021 1:00:00 PM 1.12 34.016 0.092 7.14 3.61 13.88
1/22/2021 1:15:00 PM 1.16 34.088 0.091 7.15 3.53 13.88
1/22/2021 1:30:00 PM 1.2 34.16 0.091 7.15 3.77 13.86
1/22/2021 1:45:00 PM 1.23 34.214 0.092 7.15 3.7 13.85
1/22/2021 2:00:00 PM 1.28 34.304 0.091 7.15 3.96 13.83
1/22/2021 2:15:00 PM 1.33 34.394 0.091 7.15 3.68 13.81
1/22/2021 2:30:00 PM 1.32 34.376 0.091 7.15 3.83 13.79
1/22/2021 2:45:00 PM 1.32 34.376 0.091 7.15 3.66 13.78
1/22/2021 3:00:00 PM 1.3 34.34 0.091 7.14 3.79 13.77
1/22/2021 3:15:00 PM 1.31 34.358 0.091 7.15 3.73 13.76
1/22/2021 3:30:00 PM 1.33 34.394 0.091 7.14 3.78 13.7
1/22/2021 3:45:00 PM 1.34 34.412 0.091 7.15 3.69 13.75
1/22/2021 4:00:00 PM 1.35 34.43 0.091 7.14 3.76 13.74
1/22/2021 4:15:00 PM 1.35 34.43 0.091 7.14 3.6 13.74
1/22/2021 4:30:00 PM 1.32 34.376 0.091 7.14 3.84 13.74
1/22/2021 4:45:00 PM 1.26 34.268 0.091 7.13 3.84 13.71
1/22/2021 5:00:00 PM 1.23 34.214 0.091 7.13 4.05 13.71
1/22/2021 5:15:00 PM 1.2 34.16 0.092 7.12 3.67 13.67
1/22/2021 5:30:00 PM 1.17 34.106 0.091 7.11 4 13.6
1/22/2021 5:45:00 PM 1.14 34.052 0.091 7.11 3.71 13.62
1/22/2021 6:00:00 PM 1.11 33.998 0.092 7.1 4.17 13.61
1/22/2021 6:15:00 PM 1.08 33.944 0.092 7.1 3.57 13.6
1/22/2021 6:30:00 PM 1.06 33.908 0.092 7.09 3.61 13.59
1/22/2021 6:45:00 PM 1.03 33.854 0.092 7.09 3.56 13.65
1/22/2021 7:00:00 PM 1 33.8 0.092 7.08 3.64 13.64
1/22/2021 7:15:00 PM 0.98 33.764 0.092 7.08 3.71 13.64
1/22/2021 7:30:00 PM 0.95 33.71 0.092 7.08 3.58 13.67
1/22/2021 7:45:00 PM 0.93 33.674 0.093 7.08 3.45 13.65
1/22/2021 8:00:00 PM 0.91 33.638 0.093 7.08 3.67 13.66
1/22/2021 8:15:00 PM 0.89 33.602 0.093 7.08 3.61 13.66
1/22/2021 8:30:00 PM 0.86 33.548 0.093 7.08 3.45 13.67
1/22/2021 8:45:00 PM 0.83 33.494 0.093 7.07 3.96 13.68
1/22/2021 9:00:00 PM 0.79 33.422 0.093 7.07 3.49 13.69
1/22/2021 9:15:00 PM 0.76 33.368 0.093 7.07 3.61 13.7
1/22/2021 9:30:00 PM 0.73 33.314 0.092 7.07 3.49 13.72
1/22/2021 9:45:00 PM 0.69 33.242 0.093 7.07 3.55 13.74
1/22/2021 10:00:00 PM 0.65 33.17 0.093 7.07 3.54 13.75
1/22/2021 10:15:00 PM 0.6 33.08 0.093 7.07 3.58 13.76
1/22/2021 10:30:00 PM 0.57 33.026 0.093 7.07 3.4 13.77
1/22/2021 10:45:00 PM 0.52 32.936 0.093 7.07 3.65 13.8
1/22/2021 11:00:00 PM 0.47 32.846 0.092 7.07 3.59 13.82
1/22/2021 11:15:00 PM 0.43 32.774 0.093 7.07 3.82 13.84
1/22/2021 11:30:00 PM 0.39 32.702 0.093 7.06 3.66 13.85
1/22/2021 11:45:00 PM 0.34 32.612 0.093 7.06 3.74 13.86
1/23/2021 12:00:00 AM 0.31 32.558 0.093 7.06 3.54 13.89
1/23/2021 12:15:00 AM 0.27 32.486 0.093 7.06 3.64 13.92
1/23/2021 12:30:00 AM 0.22 32.396 0.093 7.06 3.54 13.94
1/23/2021 12:45:00 AM 0.17 32.306 0.093 7.06 3.67 13.94
1/23/2021 1:00:00 AM 0.12 32.216 0.093 7.06 3.56 13.98
1/23/2021 1:15:00 AM 0.07 32.126 0.093 7.06 3.83 14
1/23/2021 1:30:00 AM 0.03 32.054 0.094 7.05 3.69 13.99
1/23/2021 1:45:00 AM 0.02 32.036 0.094 7.05 3.47 14.02
1/23/2021 2:00:00 AM 0.01 32.018 0.094 7.05 4.11 14.01
1/23/2021 2:15:00 AM 0.02 32.036 0.094 7.05 3.45 14.03
1/23/2021 2:30:00 AM 0.03 32.054 0.094 7.05 3.44 14.05
1/23/2021 2:45:00 AM 0.03 32.054 0.095 7.05 3.37 14.07
1/23/2021 3:00:00 AM 0.03 32.054 0.094 7.05 3.43 14.06
1/23/2021 3:15:00 AM 0.03 32.054 0.095 7.06 3.4 14.07
1/23/2021 3:30:00 AM 0.03 32.054 0.095 7.05 3.46 14.06
1/23/2021 3:45:00 AM 0.03 32.054 0.095 7.05 3.27 14.07
1/23/2021 4:00:00 AM 0.03 32.054 0.095 7.05 3.4 14.07
1/23/2021 4:15:00 AM 0.03 32.054 0.095 7.05 3.27 14.08
1/23/2021 4:30:00 AM 0.03 32.054 0.094 7.05 3.26 14.08
1/23/2021 4:45:00 AM 0.03 32.054 0.095 7.05 3.22 14.08
1/23/2021 5:00:00 AM 0.03 32.054 0.095 7.05 3.33 14.08
1/23/2021 5:15:00 AM 0.02 32.036 0.095 7.04 3.33 14.08
1/23/2021 5:30:00 AM 0.01 32.018 0.096 7.04 3.17 14.09
1/23/2021 5:45:00 AM 0.01 32.018 0.096 7.04 3.31 14.08
1/23/2021 6:00:00 AM 0.01 32.018 0.096 7.04 3.19 14.08
1/23/2021 6:15:00 AM 0.02 32.036 0.095 7.03 3.07 14.07
1/23/2021 6:30:00 AM 0.02 32.036 0.096 7.03 3.33 14.08
1/23/2021 6:45:00 AM 0.02 32.036 0.096 7.03 3.54 14.06
1/23/2021 7:00:00 AM 0.03 32.054 0.097 7.03 3.49 14.07
1/23/2021 7:15:00 AM 0.03 32.054 0.096 7.03 3.72 14.07
1/23/2021 7:30:00 AM 0.04 32.072 0.096 7.02 3.34 14.06
1/23/2021 7:45:00 AM 0.03 32.054 0.097 7.03 3.26 14.05
1/23/2021 8:00:00 AM 0.04 32.072 0.096 7.03 3.05 14.07
1/23/2021 8:15:00 AM 0.05 32.09 0.096 7.03 3.21 14.07
1/23/2021 8:30:00 AM 0.06 32.108 0.096 7.04 3.12 14.11
1/23/2021 8:45:00 AM 0.07 32.126 0.097 7.04 3.19 14.12
1/23/2021 9:00:00 AM 0.08 32.144 0.096 7.05 3.09 14.13
1/23/2021 9:15:00 AM 0.07 32.126 0.096 7.05 3.09 14.16
1/23/2021 9:30:00 AM 0.07 32.126 0.097 7.06 3.02 14.18
1/23/2021 9:45:00 AM 0.08 32.144 0.097 7.06 3.06 14.16
1/23/2021 10:00:00 AM 0.1 32.18 0.096 7.07 3.06 14.19
1/23/2021 10:15:00 AM 0.1 32.18 0.096 7.07 3.09 14.23
1/23/2021 10:30:00 AM 0.11 32.198 0.096 7.07 3.06 14.24
1/23/2021 10:45:00 AM 0.1 32.18 0.096 7.08 3.1 14.25
1/23/2021 11:00:00 AM 0.11 32.198 0.096 7.08 2.98 14.28
1/23/2021 11:15:00 AM 0.12 32.216 0.096 7.08 3 14.28
1/23/2021 11:30:00 AM 0.17 32.306 0.096 7.08 2.96 14.27
1/23/2021 11:45:00 AM 0.22 32.396 0.096 7.09 3 14.34
1/23/2021 12:00:00 PM 0.22 32.396 0.096 7.1 2.94 14.36
1/23/2021 12:15:00 PM 0.16 32.288 0.096 7.11 3.02 14.36
1/23/2021 12:30:00 PM 0.11 32.198 0.096 7.11 2.98 14.38
1/23/2021 12:45:00 PM 0.13 32.234 0.096 7.12 3.03 14.39
1/23/2021 1:00:00 PM 0.19 32.342 0.095 7.12 2.99 14.4
1/23/2021 1:15:00 PM 0.2 32.36 0.096 7.13 3.1 14.4
1/23/2021 1:30:00 PM 0.19 32.342 0.096 7.13 3.13 14.39
1/23/2021 1:45:00 PM 0.16 32.288 0.095 7.14 3.32 14.38
1/23/2021 2:00:00 PM 0.1 32.18 0.095 7.14 3.33 14.39
1/23/2021 2:15:00 PM 0.08 32.144 0.094 7.14 3.13 14.39
1/23/2021 2:30:00 PM 0.06 32.108 0.095 7.14 3.49 14.4
1/23/2021 2:45:00 PM 0.04 32.072 0.094 7.14 3.4 14.4
1/23/2021 3:00:00 PM 0.07 32.126 0.094 7.14 3.03 14.4
1/23/2021 3:15:00 PM 0.11 32.198 0.094 7.14 3.08 14.39
1/23/2021 3:30:00 PM 0.11 32.198 0.094 7.14 3.19 14.4
1/23/2021 3:45:00 PM 0.08 32.144 0.094 7.14 3.16 14.41
1/23/2021 4:00:00 PM 0.05 32.09 0.094 7.14 3.33 14.41
1/23/2021 4:15:00 PM 0.03 32.054 0.094 7.14 3.18 14.42
1/23/2021 4:30:00 PM 0.02 32.036 0.094 7.14 3.14 14.43
1/23/2021 4:45:00 PM 0.02 32.036 0.094 7.13 3.28 14.42
1/23/2021 5:00:00 PM 0 32 0.094 7.13 3.45 14.41
1/23/2021 5:15:00 PM 0 32 0.095 7.12 3.51 14.38
1/23/2021 5:30:00 PM 0 32 0.095 7.11 3.62 14.35
1/23/2021 5:45:00 PM 0 32 0.095 7.11 3.15 14.32
1/23/2021 6:00:00 PM 0 32 0.095 7.1 3.23 14.32
1/23/2021 6:15:00 PM 0.01 32.018 0.095 7.09 3.6 14.3
1/23/2021 6:30:00 PM 0.01 32.018 0.095 7.09 3.19 14.28
1/23/2021 6:45:00 PM 0.01 32.018 0.096 7.08 3.29 14.26
1/23/2021 7:00:00 PM 0 32 0.095 7.08 3.28 14.26
1/23/2021 7:15:00 PM 0 32 0.096 7.08 3.25 14.24
1/23/2021 7:30:00 PM 0 32 0.096 7.07 3.08 14.23
1/23/2021 7:45:00 PM 0.01 32.018 0.096 7.07 3.11 14.22
1/23/2021 8:00:00 PM 0.01 32.018 0.096 7.06 3.02 14.21
1/23/2021 8:15:00 PM 0.02 32.036 0.096 7.06 3.02 14.21
1/23/2021 8:30:00 PM 0.02 32.036 0.096 7.06 3.1 14.2
1/23/2021 8:45:00 PM 0.02 32.036 0.096 7.06 3.15 14.2
1/23/2021 9:00:00 PM 0.02 32.036 0.096 7.05 3.02 14.19
1/23/2021 9:15:00 PM 0.02 32.036 0.096 7.05 3.13 14.19
1/23/2021 9:30:00 PM 0.02 32.036 0.096 7.05 3.01 14.18
1/23/2021 9:45:00 PM 0.02 32.036 0.096 7.05 3.15 14.2
1/23/2021 10:00:00 PM 0.02 32.036 0.097 7.05 3.03 14.19
1/23/2021 10:15:00 PM 0.02 32.036 0.097 7.04 3.12 14.18
1/23/2021 10:30:00 PM 0.02 32.036 0.097 7.04 3.09 14.16
1/23/2021 10:45:00 PM 0.02 32.036 0.097 7.04 3.09 14.16
1/23/2021 11:00:00 PM 0.02 32.036 0.097 7.04 3.19 14.15
1/23/2021 11:15:00 PM 0.03 32.054 0.098 7.04 3.17 14.14
1/23/2021 11:30:00 PM 0.03 32.054 0.097 7.03 3.42 14.14
1/23/2021 11:45:00 PM 0.04 32.072 0.098 7.03 3.53 14.13
1/24/2021 12:00:00 AM 0.04 32.072 0.097 7.04 3.03 14.14
1/24/2021 12:15:00 AM 0.03 32.054 0.098 7.04 3.1 14.13
1/24/2021 12:30:00 AM 0.03 32.054 0.098 7.03 3.1 14.14
1/24/2021 12:45:00 AM 0.02 32.036 0.098 7.03 3.48 14.13
1/24/2021 1:00:00 AM 0.01 32.018 0.098 7.03 3.18 14.15
1/24/2021 1:15:00 AM 0 32 0.098 7.04 3.05 14.06
1/24/2021 1:30:00 AM -0.02 31.964 0.099 7.03 2.97 14.07
1/24/2021 1:45:00 AM -0.02 31.964 0.098 7.03 2.83 14.08
1/24/2021 2:00:00 AM -0.02 31.964 0.098 7.03 2.96 14.09
1/24/2021 2:15:00 AM -0.02 31.964 0.099 7.03 3.02 14.14
1/24/2021 2:30:00 AM -0.02 31.964 0.099 7.03 2.92 14.15
1/24/2021 2:45:00 AM -0.02 31.964 0.098 7.03 2.97 14.15
1/24/2021 3:00:00 AM -0.01 31.982 0.099 7.03 3.04 14.15
1/24/2021 3:15:00 AM -0.01 31.982 0.099 7.03 2.84 14.15
1/24/2021 3:30:00 AM 0 32 0.099 7.03 3.5 14.14
1/24/2021 3:45:00 AM 0 32 0.099 7.03 3.37 14.14
1/24/2021 4:00:00 AM 0 32 0.099 7.03 2.96 14.14
1/24/2021 4:15:00 AM 0.01 32.018 0.1 7.03 2.82 14.14
1/24/2021 4:30:00 AM 0 32 0.099 7.03 2.93 14.15
1/24/2021 4:45:00 AM -0.01 31.982 0.099 7.03 2.88 14.16
1/24/2021 5:00:00 AM -0.01 31.982 0.099 7.02 3.06 14.16
1/24/2021 5:15:00 AM 0 32 0.099 7.02 2.9 14.14
1/24/2021 5:30:00 AM 0 32 0.099 7.02 2.98 14.15
1/24/2021 5:45:00 AM 0 32 0.099 7.02 3.05 14.14
1/24/2021 6:00:00 AM 0 32 0.1 7.02 3.06 14.15
1/24/2021 6:15:00 AM 0 32 0.1 7.02 2.93 14.14
1/24/2021 6:30:00 AM 0 32 0.1 7.02 2.81 14.15
1/24/2021 6:45:00 AM 0 32 0.1 7.02 3.02 14.15
1/24/2021 7:00:00 AM 0 32 0.1 7.01 2.98 14.13
1/24/2021 7:15:00 AM 0 32 0.1 7.01 2.83 14.12
1/24/2021 7:30:00 AM 0.01 32.018 0.1 7.01 3.12 14.14
1/24/2021 7:45:00 AM 0.02 32.036 0.1 7.01 2.77 14.13
1/24/2021 8:00:00 AM 0.03 32.054 0.1 7.01 2.84 14.14
1/24/2021 8:15:00 AM 0.03 32.054 0.1 7.01 2.86 14.15
1/24/2021 8:30:00 AM 0.04 32.072 0.1 7.02 2.76 14.18
1/24/2021 8:45:00 AM 0.04 32.072 0.1 7.02 2.87 14.2
1/24/2021 9:00:00 AM 0.05 32.09 0.1 7.02 2.94 14.23
1/24/2021 9:15:00 AM 0.05 32.09 0.1 7.03 2.85 14.26
1/24/2021 9:30:00 AM 0.06 32.108 0.1 7.03 2.82 14.28
1/24/2021 9:45:00 AM 0.07 32.126 0.1 7.04 3.03 14.3
1/24/2021 10:00:00 AM 0.07 32.126 0.1 7.04 2.91 14.32
1/24/2021 10:15:00 AM 0.07 32.126 0.1 7.04 2.78 14.34
1/24/2021 10:30:00 AM 0.07 32.126 0.1 7.05 2.83 14.36
1/24/2021 10:45:00 AM 0.11 32.198 0.1 7.06 2.9 14.36
1/24/2021 11:00:00 AM 0.14 32.252 0.1 7.06 3.01 14.38
1/24/2021 11:15:00 AM 0.15 32.27 0.1 7.07 2.8 14.4
1/24/2021 11:30:00 AM 0.18 32.324 0.1 7.07 3.25 14.41
1/24/2021 11:45:00 AM 0.21 32.378 0.1 7.08 2.98 14.42
1/24/2021 12:00:00 PM 0.24 32.432 0.1 7.09 3.05 14.43
1/24/2021 12:15:00 PM 0.23 32.414 0.1 7.1 2.91 14.44
1/24/2021 12:30:00 PM 0.23 32.414 0.1 7.11 2.97 14.46
1/24/2021 12:45:00 PM 0.22 32.396 0.1 7.12 3.15 14.46
1/24/2021 1:00:00 PM 0.21 32.378 0.1 7.12 3.3 14.46
1/24/2021 1:15:00 PM 0.21 32.378 0.1 7.13 3.3 14.45
1/24/2021 1:30:00 PM 0.2 32.36 0.1 7.13 3.45 14.45
1/24/2021 1:45:00 PM 0.18 32.324 0.1 7.13 3.62 14.45
1/24/2021 2:00:00 PM 0.18 32.324 0.1 7.13 3.84 14.44
1/24/2021 2:15:00 PM 0.19 32.342 0.099 7.14 3.69 14.43
1/24/2021 2:30:00 PM 0.19 32.342 0.099 7.14 4.09 14.43
1/24/2021 2:45:00 PM 0.18 32.324 0.099 7.14 3.92 14.43
1/24/2021 3:00:00 PM 0.17 32.306 0.099 7.14 4.38 14.44
1/24/2021 3:15:00 PM 0.15 32.27 0.099 7.14 4.34 14.44
1/24/2021 3:30:00 PM 0.13 32.234 0.099 7.14 4.45 14.42
1/24/2021 3:45:00 PM 0.11 32.198 0.098 7.14 4.1 14.42
1/24/2021 4:00:00 PM 0.1 32.18 0.098 7.14 3.92 14.45
1/24/2021 4:15:00 PM 0.08 32.144 0.098 7.14 4.85 14.45
1/24/2021 4:30:00 PM 0.06 32.108 0.098 7.14 4.14 14.46
1/24/2021 4:45:00 PM 0.05 32.09 0.098 7.14 4.16 14.45
1/24/2021 5:00:00 PM 0.03 32.054 0.098 7.13 4.11 14.43
1/24/2021 5:15:00 PM 0.02 32.036 0.098 7.13 4.2 14.42
1/24/2021 5:30:00 PM 0.02 32.036 0.098 7.12 3.79 14.39
1/24/2021 5:45:00 PM 0.02 32.036 0.098 7.12 3.8 14.37
1/24/2021 6:00:00 PM 0.02 32.036 0.098 7.11 4.3 14.35
1/24/2021 6:15:00 PM 0.02 32.036 0.098 7.1 15.23 14.31
1/24/2021 6:30:00 PM 0.02 32.036 0.098 7.09 4.34 14.26
1/24/2021 6:45:00 PM 0.01 32.018 0.098 7.08 3.98 14.26
1/24/2021 7:00:00 PM 0.01 32.018 0.098 7.08 4.55 14.26
1/24/2021 7:15:00 PM 0.01 32.018 0.098 7.07 3.62 14.25
1/24/2021 7:30:00 PM 0.02 32.036 0.098 7.07 3.72 14.23
1/24/2021 7:45:00 PM 0.01 32.018 0.098 7.06 3.79 14.22
1/24/2021 8:00:00 PM 0.01 32.018 0.098 7.06 3.92 14.22
1/24/2021 8:15:00 PM 0.01 32.018 0.098 7.05 4.48 14.2
1/24/2021 8:30:00 PM 0.02 32.036 0.098 7.05 3.67 14.2
1/24/2021 8:45:00 PM 0.02 32.036 0.098 7.05 4.19 14.19
1/24/2021 9:00:00 PM 0.02 32.036 0.098 7.04 3.88 14.2
1/24/2021 9:15:00 PM 0.01 32.018 0.098 7.04 4.08 14.18
1/24/2021 9:30:00 PM 0.01 32.018 0.098 7.04 3.48 14.15
1/24/2021 9:45:00 PM 0.02 32.036 0.098 7.04 3.46 14.17
1/24/2021 10:00:00 PM 0.02 32.036 0.098 7.03 3.86 14.15
1/24/2021 10:15:00 PM 0.03 32.054 0.098 7.03 3.32 14.17
1/24/2021 10:30:00 PM 0.03 32.054 0.098 7.03 3.5 14.16
1/24/2021 10:45:00 PM 0.04 32.072 0.098 7.03 3.32 14.16
1/24/2021 11:00:00 PM 0.04 32.072 0.099 7.03 3.39 14.14
1/24/2021 11:15:00 PM 0.04 32.072 0.098 7.02 3.25 14.14
1/24/2021 11:30:00 PM 0.04 32.072 0.099 7.02 3.39 14.13
1/24/2021 11:45:00 PM 0.04 32.072 0.099 7.02 3.37 14.12
1/25/2021 12:00:00 AM 0.04 32.072 0.099 7.02 3.5 14.12
1/25/2021 12:15:00 AM 0.03 32.054 0.099 7.01 3.34 14.11
1/25/2021 12:30:00 AM 0.03 32.054 0.099 7.02 3.34 14.12
1/25/2021 12:45:00 AM 0.03 32.054 0.099 7.01 3.54 14.12
1/25/2021 1:00:00 AM 0.02 32.036 0.099 7.01 3.33 14.13
1/25/2021 1:15:00 AM 0.02 32.036 0.099 7.01 3.24 14.12
1/25/2021 1:30:00 AM 0.02 32.036 0.099 7.01 3.13 14.12
1/25/2021 1:45:00 AM 0.02 32.036 0.099 7.01 3.18 14.11
1/25/2021 2:00:00 AM 0.02 32.036 0.099 7.01 3.09 14.11
1/25/2021 2:15:00 AM 0.02 32.036 0.1 7 3.34 14.09
1/25/2021 2:30:00 AM 0.02 32.036 0.1 7 3.88 14.07
1/25/2021 2:45:00 AM 0.02 32.036 0.1 7 3.52 14.07
1/25/2021 3:00:00 AM 0.02 32.036 0.1 7 3.06 14.07
1/25/2021 3:15:00 AM 0.02 32.036 0.1 6.99 3.71 14.06
1/25/2021 3:30:00 AM 0.03 32.054 0.1 6.99 3.33 14.06
1/25/2021 3:45:00 AM 0.03 32.054 0.1 6.99 3.71 14.06
1/25/2021 4:00:00 AM 0.03 32.054 0.1 6.99 3.16 14.04
1/25/2021 4:15:00 AM 0.03 32.054 0.1 6.99 3.09 14.04
1/25/2021 4:30:00 AM 0.03 32.054 0.101 6.99 3.02 14.07
1/25/2021 4:45:00 AM 0.03 32.054 0.1 6.98 3.05 14.08
1/25/2021 5:00:00 AM 0.03 32.054 0.101 6.98 3.46 14.08
1/25/2021 5:15:00 AM 0.04 32.072 0.1 6.98 3.22 14.08
1/25/2021 5:30:00 AM 0.04 32.072 0.101 6.98 3.25 14.07
1/25/2021 5:45:00 AM 0.04 32.072 0.1 6.98 4.65 14.08
1/25/2021 6:00:00 AM 0.04 32.072 0.101 6.97 3.71 14.07
1/25/2021 6:15:00 AM 0.04 32.072 0.101 6.97 3.71 14.06
1/25/2021 6:30:00 AM 0.04 32.072 0.101 6.97 3.15 14.06
1/25/2021 6:45:00 AM 0.04 32.072 0.101 6.96 3.16 14.05
1/25/2021 7:00:00 AM 0.05 32.09 0.101 6.97 3.12 14.04
1/25/2021 7:15:00 AM 0.05 32.09 0.101 6.97 3.07 14.06
1/25/2021 7:30:00 AM 0.05 32.09 0.101 6.96 2.98 14.06
1/25/2021 7:45:00 AM 0.06 32.108 0.101 6.96 3.1 14.05
1/25/2021 8:00:00 AM 0.06 32.108 0.101 6.96 3.09 14.06
1/25/2021 8:15:00 AM 0.07 32.126 0.102 6.96 3.11 14.07
1/25/2021 8:30:00 AM 0.08 32.144 0.101 6.96 3.64 14.09
1/25/2021 8:45:00 AM 0.08 32.144 0.102 6.96 3.59 14.11
1/25/2021 9:00:00 AM 0.09 32.162 0.102 6.96 3.54 14.14
1/25/2021 9:15:00 AM 0.1 32.18 0.102 6.97 2.88 14.17
1/25/2021 9:30:00 AM 0.12 32.216 0.102 6.97 2.87 14.19
1/25/2021 9:45:00 AM 0.15 32.27 0.102 6.98 2.85 14.21
1/25/2021 10:00:00 AM 0.18 32.324 0.102 6.99 2.88 14.23
1/25/2021 10:15:00 AM 0.22 32.396 0.102 6.99 2.91 14.25
1/25/2021 10:30:00 AM 0.27 32.486 0.102 6.99 2.84 14.26
1/25/2021 10:45:00 AM 0.3 32.54 0.102 7 2.99 14.27
1/25/2021 11:00:00 AM 0.33 32.594 0.102 7.01 2.82 14.3
1/25/2021 11:15:00 AM 0.36 32.648 0.102 7.01 3.19 14.31
1/25/2021 11:30:00 AM 0.38 32.684 0.102 7.02 2.87 14.33
1/25/2021 11:45:00 AM 0.39 32.702 0.102 7.03 3.03 14.33
1/25/2021 12:00:00 PM 0.4 32.72 0.102 7.04 3.32 14.35
1/25/2021 12:15:00 PM 0.39 32.702 0.101 7.05 3.27 14.37
1/25/2021 12:30:00 PM 0.35 32.63 0.102 7.07 3.37 14.38
1/25/2021 12:45:00 PM 0.31 32.558 0.101 7.08 3.29 14.38
1/25/2021 1:00:00 PM 0.3 32.54 0.102 7.09 3.92 14.38
1/25/2021 1:15:00 PM 0.29 32.522 0.101 7.12 3.57 14.38
1/25/2021 1:30:00 PM 0.25 32.45 0.102 7.12 3.59 14.38
1/25/2021 1:45:00 PM 0.22 32.396 0.101 7.13 3.67 14.37
1/25/2021 2:00:00 PM 0.19 32.342 0.101 7.14 3.38 14.41
1/25/2021 2:15:00 PM 0.18 32.324 0.101 7.16 3.9 14.43
1/25/2021 2:30:00 PM 0.18 32.324 0.101 7.16 3.58 14.43
1/25/2021 2:45:00 PM 0.15 32.27 0.102 7.17 3.95 14.45
1/25/2021 3:00:00 PM 0.13 32.234 0.101 7.17 3.94 14.44
1/25/2021 3:15:00 PM 0.12 32.216 0.101 7.18 3.98 14.44
1/25/2021 3:30:00 PM 0.11 32.198 0.101 7.18 4.04 14.43
1/25/2021 3:45:00 PM 0.1 32.18 0.101 7.18 4.45 14.44
1/25/2021 4:00:00 PM 0.1 32.18 0.101 7.17 3.98 14.45
1/25/2021 4:15:00 PM 0.09 32.162 0.1 7.17 3.96 14.44
1/25/2021 4:30:00 PM 0.08 32.144 0.1 7.17 4.03 14.43
1/25/2021 4:45:00 PM 0.07 32.126 0.1 7.17 4.02 14.42
1/25/2021 5:00:00 PM 0.06 32.108 0.1 7.16 3.98 14.41
1/25/2021 5:15:00 PM 0.05 32.09 0.1 7.16 4.03 14.39
1/25/2021 5:30:00 PM 0.05 32.09 0.1 7.15 3.84 14.36
1/25/2021 5:45:00 PM 0.04 32.072 0.1 7.13 6.17 14.32
1/25/2021 6:00:00 PM 0.04 32.072 0.1 7.13 4.17 14.29
1/25/2021 6:15:00 PM 0.04 32.072 0.099 7.12 4.26 14.27
1/25/2021 6:30:00 PM 0.04 32.072 0.099 7.11 3.69 14.23
1/25/2021 6:45:00 PM 0.04 32.072 0.099 7.1 3.59 14.2
1/25/2021 7:00:00 PM 0.04 32.072 0.099 7.1 3.33 14.19
1/25/2021 7:15:00 PM 0.04 32.072 0.099 7.09 3.81 14.17
1/25/2021 7:30:00 PM 0.04 32.072 0.099 7.09 3.49 14.16
1/25/2021 7:45:00 PM 0.04 32.072 0.099 7.08 3.49 14.16
1/25/2021 8:00:00 PM 0.05 32.09 0.098 7.07 3.45 14.15
1/25/2021 8:15:00 PM 0.05 32.09 0.099 7.07 3.49 14.1
1/25/2021 8:30:00 PM 0.05 32.09 0.097 7.07 3.4 14.1
1/25/2021 8:45:00 PM 0.05 32.09 0.098 7.07 3.4 14.09
1/25/2021 9:00:00 PM 0.05 32.09 0.098 7.06 3.76 14.06
1/25/2021 9:15:00 PM 0.05 32.09 0.098 7.06 3.45 14.04
1/25/2021 9:30:00 PM 0.05 32.09 0.098 7.05 3.62 14.05
1/25/2021 9:45:00 PM 0.05 32.09 0.099 7.06 3.42 14.04
1/25/2021 10:00:00 PM 0.05 32.09 0.098 7.06 3.41 14.06
1/25/2021 10:15:00 PM 0.05 32.09 0.098 7.06 3.49 14.06
1/25/2021 10:30:00 PM 0.05 32.09 0.098 7.05 3.33 14.03
1/25/2021 10:45:00 PM 0.05 32.09 0.097 7.05 3.47 14.06
1/25/2021 11:00:00 PM 0.05 32.09 0.098 7.05 3.66 14.09
1/25/2021 11:15:00 PM 0.05 32.09 0.097 7.05 3.54 14.09
1/25/2021 11:30:00 PM 0.05 32.09 0.098 7.05 3.37 14.07
1/25/2021 11:45:00 PM 0.05 32.09 0.098 7.05 3.33 14.06
1/26/2021 12:00:00 AM 0.05 32.09 0.098 7.05 3.43 14.06
1/26/2021 12:15:00 AM 0.05 32.09 0.098 7.05 3.24 14.05
1/26/2021 12:30:00 AM 0.06 32.108 0.098 7.05 3.39 14.05
1/26/2021 12:45:00 AM 0.06 32.108 0.098 7.04 4.06 14.08
1/26/2021 1:00:00 AM 0.06 32.108 0.098 7.04 3.51 14.06
1/26/2021 1:15:00 AM 0.06 32.108 0.098 7.04 3.49 14.05
1/26/2021 1:30:00 AM 0.06 32.108 0.098 7.04 3.84 14.04
1/26/2021 1:45:00 AM 0.06 32.108 0.098 7.04 3.61 14.05
1/26/2021 2:00:00 AM 0.06 32.108 0.097 7.04 3.45 14.06
1/26/2021 2:15:00 AM 0.06 32.108 0.098 7.04 3.4 14.02
1/26/2021 2:30:00 AM 0.06 32.108 0.098 7.04 3.91 14.02
1/26/2021 2:45:00 AM 0.06 32.108 0.098 7.04 3.49 14.01
1/26/2021 3:00:00 AM 0.06 32.108 0.097 7.04 3.6 14
1/26/2021 3:15:00 AM 0.06 32.108 0.097 7.04 3.81 14.02
1/26/2021 3:30:00 AM 0.06 32.108 0.098 7.04 3.64 14.03
1/26/2021 3:45:00 AM 0.06 32.108 0.097 7.04 3.64 14.03
1/26/2021 4:00:00 AM 0.06 32.108 0.098 7.04 3.94 14.02
1/26/2021 4:15:00 AM 0.06 32.108 0.097 7.04 3.4 14.04
1/26/2021 4:30:00 AM 0.06 32.108 0.099 7.04 8.01 14.04
1/26/2021 4:45:00 AM 0.06 32.108 0.098 7.04 4.2 14.04
1/26/2021 5:00:00 AM 0.06 32.108 0.097 7.04 4.09 14.03
1/26/2021 5:15:00 AM 0.07 32.126 0.098 7.04 3.62 14.03
1/26/2021 5:30:00 AM 0.07 32.126 0.098 7.04 3.84 14.01
1/26/2021 5:45:00 AM 0.07 32.126 0.097 7.04 3.41 14
1/26/2021 6:00:00 AM 0.07 32.126 0.097 7.04 3.67 13.98
1/26/2021 6:15:00 AM 0.07 32.126 0.097 7.04 3.66 13.97
1/26/2021 6:30:00 AM 0.06 32.108 0.098 7.04 3.37 13.95
1/26/2021 6:45:00 AM 0.06 32.108 0.097 7.04 3.66 13.98
1/26/2021 7:00:00 AM 0.06 32.108 0.098 7.04 3.31 13.99
1/26/2021 7:15:00 AM 0.07 32.126 0.098 7.04 3.32 13.99
1/26/2021 7:30:00 AM 0.07 32.126 0.097 7.04 3.61 14
1/26/2021 7:45:00 AM 0.07 32.126 0.096 7.04 3.54 13.98
1/26/2021 8:00:00 AM 0.07 32.126 0.097 7.04 3.36 13.95
1/26/2021 8:15:00 AM 0.08 32.144 0.097 7.04 3.99 13.98
1/26/2021 8:30:00 AM 0.08 32.144 0.097 7.05 4.01 14.01
1/26/2021 8:45:00 AM 0.09 32.162 0.097 7.06 4 14.02
1/26/2021 9:00:00 AM 0.09 32.162 0.097 7.06 3.65 14.05
1/26/2021 9:15:00 AM 0.09 32.162 0.097 7.07 3.47 14.09
1/26/2021 9:30:00 AM 0.1 32.18 0.096 7.08 3.55 14.11
1/26/2021 9:45:00 AM 0.1 32.18 0.096 7.09 3.47 14.15
1/26/2021 10:00:00 AM 0.1 32.18 0.096 7.1 3.57 14.21
1/26/2021 10:15:00 AM 0.07 32.126 0.097 7.1 3.76 14.25
1/26/2021 10:30:00 AM 0.05 32.09 0.096 7.11 3.72 14.27
1/26/2021 10:45:00 AM 0.04 32.072 0.097 7.11 3.94 14.28
1/26/2021 11:00:00 AM 0.04 32.072 0.096 7.11 3.64 14.28
1/26/2021 11:15:00 AM 0.04 32.072 0.097 7.11 3.71 14.29
1/26/2021 11:30:00 AM 0.05 32.09 0.096 7.11 3.55 14.29
1/26/2021 11:45:00 AM 0.06 32.108 0.096 7.12 3.58 14.3
1/26/2021 12:00:00 PM 0.06 32.108 0.096 7.12 3.59 14.32
1/26/2021 12:15:00 PM 0.05 32.09 0.095 7.12 3.66 14.32
1/26/2021 12:30:00 PM 0.04 32.072 0.096 7.12 3.57 14.32
1/26/2021 12:45:00 PM 0.04 32.072 0.096 7.12 4.2 14.32
1/26/2021 1:00:00 PM 0.05 32.09 0.096 7.12 4.34 14.31
1/26/2021 1:15:00 PM 0.06 32.108 0.096 7.13 3.7 14.29
1/26/2021 1:30:00 PM 0.07 32.126 0.096 7.12 4.82 14.29
1/26/2021 1:45:00 PM 0.05 32.09 0.096 7.12 4.29 14.31
1/26/2021 2:00:00 PM 0.04 32.072 0.096 7.12 4.03 14.3
1/26/2021 2:15:00 PM 0.05 32.09 0.096 7.12 3.8 14.3
1/26/2021 2:30:00 PM 0.05 32.09 0.096 7.12 3.84 14.28
1/26/2021 2:45:00 PM 0.06 32.108 0.096 7.13 3.82 14.25
1/26/2021 3:00:00 PM 0.06 32.108 0.095 7.13 3.77 14.22
1/26/2021 3:15:00 PM 0.06 32.108 0.096 7.12 3.82 14.18
1/26/2021 3:30:00 PM 0.06 32.108 0.095 7.12 3.71 14.19
1/26/2021 3:45:00 PM 0.06 32.108 0.095 7.12 3.89 14.19
1/26/2021 4:00:00 PM 0.07 32.126 0.096 7.12 4.01 14.23
1/26/2021 4:15:00 PM 0.07 32.126 0.095 7.12 3.83 14.24
1/26/2021 4:30:00 PM 0.07 32.126 0.095 7.11 4.11 14.24
1/26/2021 4:45:00 PM 0.07 32.126 0.095 7.11 4.06 14.23
1/26/2021 5:00:00 PM 0.07 32.126 0.095 7.1 3.86 14.2
1/26/2021 5:15:00 PM 0.06 32.108 0.095 7.1 3.92 14.18
1/26/2021 5:30:00 PM 0.06 32.108 0.095 7.09 3.57 14.15
1/26/2021 5:45:00 PM 0.06 32.108 0.095 7.09 4.54 14.13
1/26/2021 6:00:00 PM 0.06 32.108 0.095 7.08 4.65 14.1
1/26/2021 6:15:00 PM 0.06 32.108 0.095 7.08 4.09 14.07
1/26/2021 6:30:00 PM 0.06 32.108 0.095 7.07 3.74 14.06
1/26/2021 6:45:00 PM 0.06 32.108 0.094 7.07 3.92 14.04
1/26/2021 7:00:00 PM 0.07 32.126 0.095 7.07 3.86 14.03
1/26/2021 7:15:00 PM 0.06 32.108 0.094 7.07 3.86 14.01
1/26/2021 7:30:00 PM 0.06 32.108 0.095 7.06 3.8 14
1/26/2021 7:45:00 PM 0.06 32.108 0.095 7.06 3.69 13.99
1/26/2021 8:00:00 PM 0.06 32.108 0.095 7.06 3.77 13.99
1/26/2021 8:15:00 PM 0.06 32.108 0.094 7.06 3.79 13.97
1/26/2021 8:30:00 PM 0.06 32.108 0.095 7.06 3.7 13.98
1/26/2021 8:45:00 PM 0.06 32.108 0.095 7.06 4.01 13.97
1/26/2021 9:00:00 PM 0.06 32.108 0.095 7.05 3.69 13.96
1/26/2021 9:15:00 PM 0.06 32.108 0.094 7.05 3.95 13.95
1/26/2021 9:30:00 PM 0.06 32.108 0.094 7.05 3.88 13.95
1/26/2021 9:45:00 PM 0.06 32.108 0.095 7.05 3.78 13.95
1/26/2021 10:00:00 PM 0.06 32.108 0.095 7.05 3.65 13.93
1/26/2021 10:15:00 PM 0.06 32.108 0.095 7.05 3.67 13.94
1/26/2021 10:30:00 PM 0.07 32.126 0.094 7.05 3.81 13.95
1/26/2021 10:45:00 PM 0.07 32.126 0.094 7.05 4.37 13.95
1/26/2021 11:00:00 PM 0.07 32.126 0.095 7.05 3.73 13.94
1/26/2021 11:15:00 PM 0.07 32.126 0.094 7.05 4.01 13.93
1/26/2021 11:30:00 PM 0.07 32.126 0.094 7.05 3.83 13.91
1/26/2021 11:45:00 PM 0.07 32.126 0.094 7.05 3.85 13.91
1/27/2021 12:00:00 AM 0.07 32.126 0.094 7.05 4.12 13.91
1/27/2021 12:15:00 AM 0.07 32.126 0.093 7.05 3.52 13.91
1/27/2021 12:30:00 AM 0.07 32.126 0.095 7.05 4.09 13.91
1/27/2021 12:45:00 AM 0.07 32.126 0.094 7.05 3.34 13.91
1/27/2021 1:00:00 AM 0.07 32.126 0.093 7.05 4.52 13.92
1/27/2021 1:15:00 AM 0.07 32.126 0.094 7.05 5.15 13.91
1/27/2021 1:30:00 AM 0.07 32.126 0.094 7.05 4.57 13.91
1/27/2021 1:45:00 AM 0.07 32.126 0.093 7.05 6.76 13.9
1/27/2021 2:00:00 AM 0.07 32.126 0.095 7.05 4.56 13.91
1/27/2021 2:15:00 AM 0.07 32.126 0.093 7.05 4.61 13.91
1/27/2021 2:30:00 AM 0.07 32.126 0.093 7.05 3.89 13.93
1/27/2021 2:45:00 AM 0.07 32.126 0.093 7.05 3.32 13.91
1/27/2021 3:00:00 AM 0.07 32.126 0.094 7.05 3.39 13.93
1/27/2021 3:15:00 AM 0.07 32.126 0.093 7.05 3.94 13.94
1/27/2021 3:30:00 AM 0.07 32.126 0.093 7.05 3.73 13.92
1/27/2021 3:45:00 AM 0.07 32.126 0.093 7.05 3.55 13.9
1/27/2021 4:00:00 AM 0.07 32.126 0.094 7.05 3.67 13.93
1/27/2021 4:15:00 AM 0.07 32.126 0.093 7.05 3.55 13.93
1/27/2021 4:30:00 AM 0.07 32.126 0.093 7.05 5.32 13.94
1/27/2021 4:45:00 AM 0.06 32.108 0.093 7.05 4.29 13.94
1/27/2021 5:00:00 AM 0.06 32.108 0.095 7.05 3.86 13.96
1/27/2021 5:15:00 AM 0.06 32.108 0.093 7.05 3.44 13.97
1/27/2021 5:30:00 AM 0.06 32.108 0.094 7.05 4.37 13.98
1/27/2021 5:45:00 AM 0.06 32.108 0.094 7.06 4 13.98
1/27/2021 6:00:00 AM 0.06 32.108 0.094 7.05 3.87 13.99
1/27/2021 6:15:00 AM 0.06 32.108 0.094 7.05 3.74 13.99
1/27/2021 6:30:00 AM 0.06 32.108 0.093 7.06 4.01 14
1/27/2021 6:45:00 AM 0.06 32.108 0.094 7.06 4.18 14
1/27/2021 7:00:00 AM 0.06 32.108 0.094 7.05 3.62 14
1/27/2021 7:15:00 AM 0.06 32.108 0.094 7.06 3.66 14
1/27/2021 7:30:00 AM 0.05 32.09 0.094 7.06 3.94 14.01
1/27/2021 7:45:00 AM 0.06 32.108 0.094 7.06 3.69 14.01
1/27/2021 8:00:00 AM 0.06 32.108 0.094 7.06 4.04 14.02
1/27/2021 8:15:00 AM 0.06 32.108 0.094 7.06 3.85 14.03
1/27/2021 8:30:00 AM 0.06 32.108 0.094 7.06 3.87 14.05
1/27/2021 8:45:00 AM 0.06 32.108 0.094 7.07 3.96 14.07
1/27/2021 9:00:00 AM 0.06 32.108 0.095 7.07 3.42 14.11
1/27/2021 9:15:00 AM 0.07 32.126 0.094 7.08 3.73 14.15
1/27/2021 9:30:00 AM 0.07 32.126 0.094 7.09 3.86 14.18
1/27/2021 9:45:00 AM 0.08 32.144 0.094 7.1 3.44 14.21
1/27/2021 10:00:00 AM 0.08 32.144 0.094 7.1 3.71 14.24
1/27/2021 10:15:00 AM 0.08 32.144 0.094 7.11 3.39 14.27
1/27/2021 10:30:00 AM 0.08 32.144 0.094 7.11 3.87 14.29
1/27/2021 10:45:00 AM 0.08 32.144 0.093 7.12 3.29 14.32
1/27/2021 11:00:00 AM 0.08 32.144 0.094 7.12 3.67 14.33
1/27/2021 11:15:00 AM 0.08 32.144 0.093 7.13 3.65 14.35
1/27/2021 11:30:00 AM 0.08 32.144 0.093 7.13 3.98 14.37
1/27/2021 11:45:00 AM 0.08 32.144 0.094 7.13 3.85 14.38
1/27/2021 12:00:00 PM 0.08 32.144 0.094 7.13 3.58 14.39
1/27/2021 12:15:00 PM 0.09 32.162 0.094 7.14 3.61 14.4
1/27/2021 12:30:00 PM 0.09 32.162 0.093 7.14 3.59 14.42
1/27/2021 12:45:00 PM 0.09 32.162 0.094 7.15 3.52 14.43
1/27/2021 1:00:00 PM 0.1 32.18 0.094 7.15 3.3 14.44
1/27/2021 1:15:00 PM 0.11 32.198 0.093 7.15 3.67 14.46
1/27/2021 1:30:00 PM 0.11 32.198 0.094 7.16 3.67 14.47
1/27/2021 1:45:00 PM 0.11 32.198 0.093 7.15 4.08 14.48
1/27/2021 2:00:00 PM 0.12 32.216 0.093 7.16 3.72 14.48
1/27/2021 2:15:00 PM 0.13 32.234 0.093 7.16 3.54 14.49
1/27/2021 2:30:00 PM 0.13 32.234 0.093 7.16 3.61 14.49
1/27/2021 2:45:00 PM 0.13 32.234 0.093 7.17 3.39 14.49
1/27/2021 3:00:00 PM 0.12 32.216 0.093 7.17 3.58 14.5
1/27/2021 3:15:00 PM 0.11 32.198 0.093 7.17 3.59 14.5
1/27/2021 3:30:00 PM 0.11 32.198 0.093 7.17 3.5 14.49
1/27/2021 3:45:00 PM 0.1 32.18 0.093 7.17 3.75 14.49
1/27/2021 4:00:00 PM 0.09 32.162 0.093 7.17 3.49 14.49
1/27/2021 4:15:00 PM 0.08 32.144 0.093 7.17 3.46 14.47
1/27/2021 4:30:00 PM 0.08 32.144 0.094 7.15 3.51 14.46
1/27/2021 4:45:00 PM 0.07 32.126 0.093 7.15 3.33 14.43
1/27/2021 5:00:00 PM 0.07 32.126 0.093 7.15 3.59 14.41
1/27/2021 5:15:00 PM 0.06 32.108 0.093 7.14 3.39 14.38
1/27/2021 5:30:00 PM 0.06 32.108 0.094 7.13 3.67 14.34
1/27/2021 5:45:00 PM 0.06 32.108 0.093 7.12 4.06 14.31
1/27/2021 6:00:00 PM 0.06 32.108 0.093 7.11 3.91 14.27
1/27/2021 6:15:00 PM 0.06 32.108 0.094 7.1 4.22 14.24
1/27/2021 6:30:00 PM 0.06 32.108 0.094 7.1 3.48 14.23
1/27/2021 6:45:00 PM 0.05 32.09 0.093 7.09 3.71 14.22
1/27/2021 7:00:00 PM 0.05 32.09 0.093 7.09 4.08 14.2
1/27/2021 7:15:00 PM 0.05 32.09 0.094 7.08 3.95 14.18
1/27/2021 7:30:00 PM 0.05 32.09 0.093 7.08 3.8 14.16
1/27/2021 7:45:00 PM 0.05 32.09 0.093 7.07 3.63 14.16
1/27/2021 8:00:00 PM 0.05 32.09 0.094 7.07 3.82 14.15
1/27/2021 8:15:00 PM 0.05 32.09 0.093 7.07 3.39 14.14
1/27/2021 8:30:00 PM 0.05 32.09 0.093 7.07 3.67 14.14
1/27/2021 8:45:00 PM 0.05 32.09 0.093 7.07 3.63 14.13
1/27/2021 9:00:00 PM 0.05 32.09 0.094 7.06 3.5 14.13
1/27/2021 9:15:00 PM 0.05 32.09 0.093 7.06 3.67 14.13
1/27/2021 9:30:00 PM 0.05 32.09 0.094 7.06 3.76 14.12
1/27/2021 9:45:00 PM 0.05 32.09 0.094 7.06 3.9 14.12
1/27/2021 10:00:00 PM 0.05 32.09 0.094 7.06 3.77 14.13
1/27/2021 10:15:00 PM 0.05 32.09 0.094 7.06 3.72 14.12
1/27/2021 10:30:00 PM 0.05 32.09 0.094 7.06 3.92 14.12
1/27/2021 10:45:00 PM 0.05 32.09 0.095 7.06 4.78 14.1
1/27/2021 11:00:00 PM 0.05 32.09 0.094 7.06 4.04 14.12
1/27/2021 11:15:00 PM 0.04 32.072 0.095 7.06 4.1 14.12
1/27/2021 11:30:00 PM 0.04 32.072 0.095 7.06 3.36 14.11
1/27/2021 11:45:00 PM 0.03 32.054 0.095 7.06 3.98 14.12
1/28/2021 12:00:00 AM 0.03 32.054 0.095 7.06 3.57 14.13
1/28/2021 12:15:00 AM 0.03 32.054 0.095 7.06 3.69 14.13
1/28/2021 12:30:00 AM 0.02 32.036 0.095 7.06 4.22 14.13
1/28/2021 12:45:00 AM 0.02 32.036 0.095 7.05 4.25 14.13
1/28/2021 1:00:00 AM 0.02 32.036 0.095 7.05 5.28 14.13
1/28/2021 1:15:00 AM 0.02 32.036 0.096 7.05 4.2 14.14
1/28/2021 1:30:00 AM 0.02 32.036 0.096 7.05 6.03 14.13
1/28/2021 1:45:00 AM 0.02 32.036 0.096 7.05 5.41 14.13
1/28/2021 2:00:00 AM 0.02 32.036 0.096 7.05 3.96 14.13
1/28/2021 2:15:00 AM 0.02 32.036 0.095 7.05 4.09 14.12
1/28/2021 2:30:00 AM 0.03 32.054 0.095 7.05 4.24 14.12
1/28/2021 2:45:00 AM 0.04 32.072 0.096 7.05 3.98 14.12
1/28/2021 3:00:00 AM 0.04 32.072 0.096 7.05 3.87 14.12
1/28/2021 3:15:00 AM 0.04 32.072 0.095 7.05 3.81 14.12
1/28/2021 3:30:00 AM 0.05 32.09 0.096 7.05 3.95 14.11
1/28/2021 3:45:00 AM 0.05 32.09 0.096 7.05 3.97 14.11
1/28/2021 4:00:00 AM 0.05 32.09 0.096 7.05 3.86 14.11
1/28/2021 4:15:00 AM 0.05 32.09 0.095 7.05 3.76 14.11
1/28/2021 4:30:00 AM 0.05 32.09 0.096 7.04 3.8 14.1
1/28/2021 4:45:00 AM 0.05 32.09 0.095 7.04 3.7 14.1
1/28/2021 5:00:00 AM 0.05 32.09 0.096 7.04 3.73 14.1
1/28/2021 5:15:00 AM 0.04 32.072 0.096 7.05 3.72 14.09
1/28/2021 5:30:00 AM 0.04 32.072 0.096 7.04 4.41 14.09
1/28/2021 5:45:00 AM 0.04 32.072 0.097 7.04 4.26 14.1
1/28/2021 6:00:00 AM 0.04 32.072 0.096 7.04 3.8 14.1
1/28/2021 6:15:00 AM 0.04 32.072 0.096 7.05 3.69 14.1
1/28/2021 6:30:00 AM 0.04 32.072 0.095 7.05 3.81 14.1
1/28/2021 6:45:00 AM 0.03 32.054 0.096 7.04 3.75 14.1
1/28/2021 7:00:00 AM 0.02 32.036 0.096 7.05 3.63 14.1
1/28/2021 7:15:00 AM 0.01 32.018 0.098 7.05 3.79 14.11
1/28/2021 7:30:00 AM 0.02 32.036 0.097 7.05 3.59 14.11
1/28/2021 7:45:00 AM 0.02 32.036 0.097 7.05 3.66 14.12
1/28/2021 8:00:00 AM 0.03 32.054 0.097 7.05 3.69 14.14
1/28/2021 8:15:00 AM 0.04 32.072 0.097 7.05 3.58 14.16
1/28/2021 8:30:00 AM 0.04 32.072 0.096 7.06 3.51 14.2
1/28/2021 8:45:00 AM 0.05 32.09 0.096 7.07 3.52 14.23
1/28/2021 9:00:00 AM 0.04 32.072 0.096 7.08 3.56 14.27
1/28/2021 9:15:00 AM 0.05 32.09 0.096 7.09 3.55 14.31
1/28/2021 9:30:00 AM 0.06 32.108 0.097 7.09 3.69 14.34
1/28/2021 9:45:00 AM 0.08 32.144 0.096 7.1 3.48 14.39
1/28/2021 10:00:00 AM 0.09 32.162 0.096 7.11 3.4 14.43
1/28/2021 10:15:00 AM 0.1 32.18 0.096 7.12 3.45 14.45
1/28/2021 10:30:00 AM 0.12 32.216 0.096 7.12 3.44 14.48
1/28/2021 10:45:00 AM 0.15 32.27 0.096 7.13 3.55 14.5
1/28/2021 11:00:00 AM 0.17 32.306 0.096 7.14 3.41 14.52
1/28/2021 11:15:00 AM 0.18 32.324 0.096 7.14 3.52 14.54
1/28/2021 11:30:00 AM 0.19 32.342 0.095 7.15 3.44 14.55
1/28/2021 11:45:00 AM 0.2 32.36 0.095 7.16 3.32 14.57
1/28/2021 12:00:00 PM 0.24 32.432 0.097 7.16 3.81 14.58
1/28/2021 12:15:00 PM 0.26 32.468 0.097 7.17 3.67 14.58
1/28/2021 12:30:00 PM 0.24 32.432 0.097 7.17 3.62 14.6
1/28/2021 12:45:00 PM 0.21 32.378 0.096 7.18 3.47 14.62
1/28/2021 1:00:00 PM 0.17 32.306 0.096 7.19 3.57 14.63
1/28/2021 1:15:00 PM 0.14 32.252 0.095 7.19 3.48 14.62
1/28/2021 1:30:00 PM 0.15 32.27 0.096 7.19 3.51 14.62
1/28/2021 1:45:00 PM 0.18 32.324 0.096 7.2 3.49 14.62
1/28/2021 2:00:00 PM 0.19 32.342 0.096 7.2 3.56 14.63
1/28/2021 2:15:00 PM 0.21 32.378 0.097 7.2 3.54 14.62
1/28/2021 2:30:00 PM 0.21 32.378 0.096 7.2 3.76 14.61
1/28/2021 2:45:00 PM 0.2 32.36 0.096 7.2 3.35 14.61
1/28/2021 3:00:00 PM 0.19 32.342 0.096 7.2 3.69 14.6
1/28/2021 3:15:00 PM 0.17 32.306 0.095 7.19 3.52 14.6
1/28/2021 3:30:00 PM 0.15 32.27 0.095 7.19 3.75 14.6
1/28/2021 3:45:00 PM 0.13 32.234 0.095 7.19 3.52 14.59
1/28/2021 4:00:00 PM 0.1 32.18 0.095 7.19 3.51 14.59
1/28/2021 4:15:00 PM 0.08 32.144 0.095 7.18 3.41 14.59
1/28/2021 4:30:00 PM 0.05 32.09 0.095 7.18 3.46 14.59
1/28/2021 4:45:00 PM 0.04 32.072 0.095 7.18 3.63 14.59
1/28/2021 5:00:00 PM 0.02 32.036 0.096 7.17 3.34 14.58
1/28/2021 5:15:00 PM 0 32 0.097 7.16 3.63 14.55
1/28/2021 5:30:00 PM -0.01 31.982 0.096 7.15 3.58 14.53
1/28/2021 5:45:00 PM -0.01 31.982 0.097 7.13 3.28 14.49
1/28/2021 6:00:00 PM -0.01 31.982 0.097 7.12 3.59 14.45
1/28/2021 6:15:00 PM 0 32 0.097 7.11 4.02 14.42
1/28/2021 6:30:00 PM 0 32 0.097 7.1 3.83 14.4
1/28/2021 6:45:00 PM 0.01 32.018 0.097 7.09 3.58 14.37
1/28/2021 7:00:00 PM 0.02 32.036 0.097 7.09 3.42 14.34
1/28/2021 7:15:00 PM 0.02 32.036 0.097 7.08 3.45 14.3
1/28/2021 7:30:00 PM 0.03 32.054 0.096 7.08 3.56 14.28
1/28/2021 7:45:00 PM 0.03 32.054 0.097 7.07 3.4 14.27
1/28/2021 8:00:00 PM 0.03 32.054 0.097 7.07 3.65 14.25
1/28/2021 8:15:00 PM 0.03 32.054 0.097 7.06 3.49 14.24
1/28/2021 8:30:00 PM 0.03 32.054 0.098 7.06 3.39 14.23
1/28/2021 8:45:00 PM 0.02 32.036 0.097 7.06 3.2 14.22
1/28/2021 9:00:00 PM 0.02 32.036 0.098 7.05 3.38 14.21
1/28/2021 9:15:00 PM 0.02 32.036 0.097 7.05 3.37 14.2
1/28/2021 9:30:00 PM 0.02 32.036 0.098 7.04 3.47 14.19
1/28/2021 9:45:00 PM 0.02 32.036 0.097 7.04 3.51 14.18
1/28/2021 10:00:00 PM 0.02 32.036 0.098 7.04 3.31 14.18
1/28/2021 10:15:00 PM 0.02 32.036 0.098 7.04 3.52 14.18
1/28/2021 10:30:00 PM 0.02 32.036 0.097 7.03 3.5 14.17
1/28/2021 10:45:00 PM 0.02 32.036 0.098 7.03 3.4 14.17
1/28/2021 11:00:00 PM 0.02 32.036 0.098 7.03 3.3 14.16
1/28/2021 11:15:00 PM 0.02 32.036 0.098 7.02 3.56 14.16
1/28/2021 11:30:00 PM 0.03 32.054 0.098 7.03 3.46 14.15
1/28/2021 11:45:00 PM 0.03 32.054 0.098 7.03 3.49 14.14
1/29/2021 12:00:00 AM 0.03 32.054 0.097 7.02 3.53 14.14
1/29/2021 12:15:00 AM 0.03 32.054 0.098 7.02 3.59 14.14
1/29/2021 12:30:00 AM 0.03 32.054 0.097 7.02 3.45 14.13
1/29/2021 12:45:00 AM 0.04 32.072 0.098 7.02 3.42 14.13
1/29/2021 1:00:00 AM 0.04 32.072 0.097 7.02 3.48 14.12
1/29/2021 1:15:00 AM 0.04 32.072 0.098 7.02 3.59 14.12
1/29/2021 1:30:00 AM 0.04 32.072 0.098 7.02 4.02 14.1
1/29/2021 1:45:00 AM 0.03 32.054 0.098 7.02 3.31 14.1
1/29/2021 2:00:00 AM 0.03 32.054 0.099 7.02 3.37 14.09
1/29/2021 2:15:00 AM 0.02 32.036 0.098 7.02 3.45 14.09
1/29/2021 2:30:00 AM 0.02 32.036 0.099 7.02 3.36 14.08
1/29/2021 2:45:00 AM 0.02 32.036 0.099 7.01 3.3 14.08
1/29/2021 3:00:00 AM 0.02 32.036 0.098 7.02 3.52 14.08
1/29/2021 3:15:00 AM 0.01 32.018 0.098 7.02 3.43 14.08
1/29/2021 3:30:00 AM 0.01 32.018 0.098 7.02 3.65 14.07
1/29/2021 3:45:00 AM 0.02 32.036 0.098 7.02 3.66 14.07
1/29/2021 4:00:00 AM 0.02 32.036 0.099 7.01 3.41 14.07
1/29/2021 4:15:00 AM 0.01 32.018 0.1 7.02 3.38 14.07
1/29/2021 4:30:00 AM 0.01 32.018 0.1 7.01 3.4 14.07
1/29/2021 4:45:00 AM 0 32 0.098 7.01 3.67 14.07
1/29/2021 5:00:00 AM 0 32 0.098 7.01 3.45 14.07
1/29/2021 5:15:00 AM 0.01 32.018 0.098 7.01 3.37 14.06
1/29/2021 5:30:00 AM 0.02 32.036 0.098 7.01 3.33 14.06
1/29/2021 5:45:00 AM 0.02 32.036 0.099 7.01 4.57 14.07
1/29/2021 6:00:00 AM 0.01 32.018 0.099 7.01 3.66 14.07
1/29/2021 6:15:00 AM 0.01 32.018 0.099 7.01 3.12 14.06
1/29/2021 6:30:00 AM 0.01 32.018 0.099 7.01 3.31 14.07
1/29/2021 6:45:00 AM 0.01 32.018 0.099 7.01 3.34 14.07
1/29/2021 7:00:00 AM 0.01 32.018 0.1 7 3.4 14.07
1/29/2021 7:15:00 AM 0.02 32.036 0.099 7.01 3.57 14.07
1/29/2021 7:30:00 AM 0.02 32.036 0.099 7 3.07 14.08
1/29/2021 7:45:00 AM 0.02 32.036 0.1 7 3.24 14.07
1/29/2021 8:00:00 AM 0.03 32.054 0.099 7.01 3.14 14.08
1/29/2021 8:15:00 AM 0.04 32.072 0.1 7.01 3.18 14.1
1/29/2021 8:30:00 AM 0.05 32.09 0.099 7.01 3.34 14.13
1/29/2021 8:45:00 AM 0.05 32.09 0.1 7.02 3.11 14.17
1/29/2021 9:00:00 AM 0.06 32.108 0.099 7.02 3.17 14.19
1/29/2021 9:15:00 AM 0.07 32.126 0.099 7.03 3.28 14.22
1/29/2021 9:30:00 AM 0.08 32.144 0.099 7.04 3.4 14.27
1/29/2021 9:45:00 AM 0.1 32.18 0.099 7.04 3.27 14.3
1/29/2021 10:00:00 AM 0.11 32.198 0.099 7.05 3.17 14.33
1/29/2021 10:15:00 AM 0.12 32.216 0.099 7.05 3.18 14.36
1/29/2021 10:30:00 AM 0.14 32.252 0.099 7.07 3.14 14.39
1/29/2021 10:45:00 AM 0.14 32.252 0.099 7.07 3.25 14.44
1/29/2021 11:00:00 AM 0.15 32.27 0.099 7.08 3.24 14.47
1/29/2021 11:15:00 AM 0.15 32.27 0.099 7.09 3.34 14.51
1/29/2021 11:30:00 AM 0.15 32.27 0.098 7.1 3.36 14.54
1/29/2021 11:45:00 AM 0.16 32.288 0.098 7.1 3.49 14.57
1/29/2021 12:00:00 PM 0.16 32.288 0.099 7.11 3.39 14.6
1/29/2021 12:15:00 PM 0.15 32.27 0.099 7.12 3.38 14.63
1/29/2021 12:30:00 PM 0.14 32.252 0.098 7.13 3.16 14.65
1/29/2021 12:45:00 PM 0.15 32.27 0.098 7.13 3.4 14.67
1/29/2021 1:00:00 PM 0.15 32.27 0.098 7.15 3.28 14.69
1/29/2021 1:15:00 PM 0.14 32.252 0.099 7.15 3.65 14.71
1/29/2021 1:30:00 PM 0.13 32.234 0.099 7.16 3.64 14.72
1/29/2021 1:45:00 PM 0.11 32.198 0.098 7.17 3.58 14.74
1/29/2021 2:00:00 PM 0.11 32.198 0.099 7.17 4.19 14.74
1/29/2021 2:15:00 PM 0.11 32.198 0.099 7.18 3.82 14.76
1/29/2021 2:30:00 PM 0.1 32.18 0.098 7.18 3.98 14.76
1/29/2021 2:45:00 PM 0.12 32.216 0.098 7.19 4.31 14.78
1/29/2021 3:00:00 PM 0.14 32.252 0.099 7.19 4.06 14.78
1/29/2021 3:15:00 PM 0.14 32.252 0.099 7.2 4.19 14.79
1/29/2021 3:30:00 PM 0.11 32.198 0.098 7.21 5.33 14.8
1/29/2021 3:45:00 PM 0.08 32.144 0.098 7.21 4.59 14.79
1/29/2021 4:00:00 PM 0.06 32.108 0.099 7.21 4.15 14.79
1/29/2021 4:15:00 PM 0.05 32.09 0.099 7.21 4.34 14.79
1/29/2021 4:30:00 PM 0.04 32.072 0.099 7.2 4.31 14.77
1/29/2021 4:45:00 PM 0.03 32.054 0.099 7.2 4.13 14.77
1/29/2021 5:00:00 PM 0.02 32.036 0.099 7.19 4.11 14.74
1/29/2021 5:15:00 PM 0.02 32.036 0.1 7.18 4.25 14.72
1/29/2021 5:30:00 PM 0.02 32.036 0.1 7.17 4.25 14.67
1/29/2021 5:45:00 PM 0.01 32.018 0.1 7.16 4.88 14.62
1/29/2021 6:00:00 PM 0.01 32.018 0.099 7.15 4.02 14.58
1/29/2021 6:15:00 PM 0.01 32.018 0.1 7.14 4.16 14.54
1/29/2021 6:30:00 PM 0.01 32.018 0.1 7.12 3.82 14.5
1/29/2021 6:45:00 PM 0.01 32.018 0.1 7.11 3.9 14.46
1/29/2021 7:00:00 PM 0.01 32.018 0.1 7.1 3.89 14.43
1/29/2021 7:15:00 PM 0.01 32.018 0.1 7.09 3.88 14.39
1/29/2021 7:30:00 PM 0.01 32.018 0.1 7.08 3.82 14.36
1/29/2021 7:45:00 PM 0.01 32.018 0.1 7.07 3.6 14.34
1/29/2021 8:00:00 PM 0.01 32.018 0.101 7.07 3.63 14.32
1/29/2021 8:15:00 PM 0.01 32.018 0.1 7.06 3.67 14.3
1/29/2021 8:30:00 PM 0.01 32.018 0.1 7.05 3.5 14.28
1/29/2021 8:45:00 PM 0.01 32.018 0.101 7.05 3.32 14.26
1/29/2021 9:00:00 PM 0.01 32.018 0.101 7.04 3.58 14.25
1/29/2021 9:15:00 PM 0.01 32.018 0.1 7.04 3.99 14.24
1/29/2021 9:30:00 PM 0.01 32.018 0.102 7.03 4.33 14.21
1/29/2021 9:45:00 PM 0.01 32.018 0.1 7.03 3.43 14.21
1/29/2021 10:00:00 PM 0.01 32.018 0.101 7.03 3.28 14.2
1/29/2021 10:15:00 PM 0.01 32.018 0.101 7.03 3.51 14.18
1/29/2021 10:30:00 PM 0.01 32.018 0.101 7.02 3.58 14.18
1/29/2021 10:45:00 PM 0.01 32.018 0.101 7.02 3.23 14.15
1/29/2021 11:00:00 PM 0.01 32.018 0.102 7.02 3.13 14.16
1/29/2021 11:15:00 PM 0.02 32.036 0.101 7.01 3.08 14.15
1/29/2021 11:30:00 PM 0.02 32.036 0.1 7.01 7.66 14.15
1/29/2021 11:45:00 PM 0.03 32.054 0.101 7.01 3.36 14.13
1/30/2021 12:00:00 AM 0.03 32.054 0.101 7 3.55 14.12
1/30/2021 12:15:00 AM 0.03 32.054 0.101 7.01 3.37 14.12
1/30/2021 12:30:00 AM 0.04 32.072 0.099 7 3.32 14.1
1/30/2021 12:45:00 AM 0.04 32.072 0.102 7 3.15 14.1
1/30/2021 1:00:00 AM 0.04 32.072 0.1 7 3.26 14.08
1/30/2021 1:15:00 AM 0.04 32.072 0.101 7 3.63 14.09
1/30/2021 1:30:00 AM 0.04 32.072 0.102 7 3.59 14.08
1/30/2021 1:45:00 AM 0.04 32.072 0.101 7 3.24 14.07
1/30/2021 2:00:00 AM 0.04 32.072 0.101 6.99 3.55 14.07
1/30/2021 2:15:00 AM 0.05 32.09 0.101 6.99 3.18 14.06
1/30/2021 2:30:00 AM 0.05 32.09 0.101 6.99 3.32 14.07
1/30/2021 2:45:00 AM 0.05 32.09 0.102 6.99 3.32 14.06
1/30/2021 3:00:00 AM 0.06 32.108 0.101 6.99 3.22 14.06
1/30/2021 3:15:00 AM 0.06 32.108 0.101 6.99 3.38 14.04
1/30/2021 3:30:00 AM 0.06 32.108 0.101 6.99 3.34 14.05
1/30/2021 3:45:00 AM 0.07 32.126 0.101 6.99 3.34 14.04
1/30/2021 4:00:00 AM 0.07 32.126 0.101 6.99 3.78 14.04
1/30/2021 4:15:00 AM 0.07 32.126 0.101 6.99 3.34 14.04
1/30/2021 4:30:00 AM 0.07 32.126 0.101 6.99 3.1 14.02
1/30/2021 4:45:00 AM 0.07 32.126 0.101 6.99 3.25 14.03
1/30/2021 5:00:00 AM 0.07 32.126 0.101 6.99 3.3 14.03
1/30/2021 5:15:00 AM 0.07 32.126 0.102 6.98 3.27 14.02
1/30/2021 5:30:00 AM 0.06 32.108 0.101 6.99 3.35 14.01
1/30/2021 5:45:00 AM 0.06 32.108 0.101 6.99 3.46 14.01
1/30/2021 6:00:00 AM 0.06 32.108 0.101 6.99 3.56 14
1/30/2021 6:15:00 AM 0.06 32.108 0.102 6.99 3.45 13.99
1/30/2021 6:30:00 AM 0.06 32.108 0.101 6.99 3.2 13.98
1/30/2021 6:45:00 AM 0.06 32.108 0.101 6.99 3.08 13.98
1/30/2021 7:00:00 AM 0.06 32.108 0.101 6.99 3.01 13.96
1/30/2021 7:15:00 AM 0.07 32.126 0.102 6.99 3.17 13.98
1/30/2021 7:30:00 AM 0.07 32.126 0.101 6.99 3.12 14
1/30/2021 7:45:00 AM 0.07 32.126 0.101 6.99 3.34 14
1/30/2021 8:00:00 AM 0.07 32.126 0.102 6.99 3.11 14.01
1/30/2021 8:15:00 AM 0.07 32.126 0.101 6.99 3.16 14.03
1/30/2021 8:30:00 AM 0.08 32.144 0.101 7 3.37 14.06
1/30/2021 8:45:00 AM 0.08 32.144 0.101 7.01 3.24 14.1
1/30/2021 9:00:00 AM 0.09 32.162 0.101 7.02 3.29 14.14
1/30/2021 9:15:00 AM 0.1 32.18 0.101 7.02 3.28 14.19
1/30/2021 9:30:00 AM 0.11 32.198 0.101 7.04 3.13 14.24
1/30/2021 9:45:00 AM 0.11 32.198 0.101 7.04 3.28 14.29
1/30/2021 10:00:00 AM 0.12 32.216 0.101 7.05 3.57 14.34
1/30/2021 10:15:00 AM 0.14 32.252 0.101 7.06 3.59 14.39
1/30/2021 10:30:00 AM 0.15 32.27 0.101 7.07 3.25 14.44
1/30/2021 10:45:00 AM 0.17 32.306 0.1 7.08 3.45 14.47
1/30/2021 11:00:00 AM 0.17 32.306 0.101 7.09 3.42 14.51
1/30/2021 11:15:00 AM 0.18 32.324 0.101 7.1 3.15 14.55
1/30/2021 11:30:00 AM 0.21 32.378 0.101 7.1 3.15 14.57
1/30/2021 11:45:00 AM 0.22 32.396 0.101 7.11 3.36 14.6
1/30/2021 12:00:00 PM 0.23 32.414 0.101 7.12 3.31 14.63
1/30/2021 12:15:00 PM 0.23 32.414 0.101 7.13 3.38 14.66
1/30/2021 12:30:00 PM 0.24 32.432 0.101 7.14 3.24 14.69
1/30/2021 12:45:00 PM 0.24 32.432 0.101 7.14 3.44 14.71
1/30/2021 1:00:00 PM 0.24 32.432 0.101 7.15 3.44 14.74
1/30/2021 1:15:00 PM 0.23 32.414 0.1 7.16 4.25 14.75
1/30/2021 1:30:00 PM 0.22 32.396 0.1 7.17 3.41 14.77
1/30/2021 1:45:00 PM 0.21 32.378 0.1 7.18 3.58 14.8
1/30/2021 2:00:00 PM 0.2 32.36 0.1 7.19 3.57 14.8
1/30/2021 2:15:00 PM 0.19 32.342 0.1 7.19 4.23 14.79
1/30/2021 2:30:00 PM 0.18 32.324 0.1 7.21 3.38 14.79
1/30/2021 2:45:00 PM 0.17 32.306 0.1 7.21 3.6 14.8
1/30/2021 3:00:00 PM 0.15 32.27 0.099 7.21 3.65 14.8
1/30/2021 3:15:00 PM 0.14 32.252 0.099 7.21 3.63 14.81
1/30/2021 3:30:00 PM 0.13 32.234 0.099 7.21 3.94 14.83
1/30/2021 3:45:00 PM 0.12 32.216 0.099 7.21 3.45 14.82
1/30/2021 4:00:00 PM 0.1 32.18 0.099 7.21 4.06 14.81
1/30/2021 4:15:00 PM 0.09 32.162 0.099 7.2 3.43 14.78
1/30/2021 4:30:00 PM 0.07 32.126 0.099 7.2 3.56 14.75
1/30/2021 4:45:00 PM 0.06 32.108 0.099 7.2 3.44 14.75
1/30/2021 5:00:00 PM 0.06 32.108 0.1 7.19 3.61 14.73
1/30/2021 5:15:00 PM 0.05 32.09 0.1 7.17 3.35 14.7
1/30/2021 5:30:00 PM 0.05 32.09 0.1 7.16 3.4 14.65
1/30/2021 5:45:00 PM 0.04 32.072 0.1 7.15 3.18 14.59
1/30/2021 6:00:00 PM 0.04 32.072 0.1 7.13 3.57 14.54
1/30/2021 6:15:00 PM 0.04 32.072 0.099 7.12 3.09 14.49
1/30/2021 6:30:00 PM 0.03 32.054 0.1 7.11 3.21 14.44
1/30/2021 6:45:00 PM 0.03 32.054 0.099 7.09 3.77 14.4
1/30/2021 7:00:00 PM 0.03 32.054 0.1 7.08 3.49 14.37
1/30/2021 7:15:00 PM 0.03 32.054 0.1 7.07 3.52 14.34
1/30/2021 7:30:00 PM 0.02 32.036 0.1 7.07 3.42 14.31
1/30/2021 7:45:00 PM 0.02 32.036 0.1 7.06 3.51 14.29
1/30/2021 8:00:00 PM 0.02 32.036 0.099 7.05 3.93 14.25
1/30/2021 8:15:00 PM 0.02 32.036 0.1 7.05 3.48 14.25
1/30/2021 8:30:00 PM 0.02 32.036 0.1 7.04 3.23 14.24
1/30/2021 8:45:00 PM 0.02 32.036 0.1 7.04 3.08 14.23
1/30/2021 9:00:00 PM 0.02 32.036 0.1 7.03 3.17 14.2
1/30/2021 9:15:00 PM 0.02 32.036 0.1 7.03 3.18 14.18
1/30/2021 9:30:00 PM 0.02 32.036 0.1 7.03 3.32 14.18
1/30/2021 9:45:00 PM 0.02 32.036 0.1 7.02 3.28 14.17
1/30/2021 10:00:00 PM 0.02 32.036 0.1 7.02 3.22 14.16
1/30/2021 10:15:00 PM 0.02 32.036 0.101 7.02 3.1 14.16
1/30/2021 10:30:00 PM 0.02 32.036 0.099 7.02 3.05 14.14
1/30/2021 10:45:00 PM 0.02 32.036 0.1 7.01 3.25 14.14
1/30/2021 11:00:00 PM 0.02 32.036 0.099 7.01 3.3 14.13
1/30/2021 11:15:00 PM 0.02 32.036 0.1 7.01 3.17 14.13
1/30/2021 11:30:00 PM 0.02 32.036 0.1 7.01 3.33 14.13
1/30/2021 11:45:00 PM 0.02 32.036 0.1 7 3.11 14.12
1/31/2021 12:00:00 AM 0.02 32.036 0.101 7 3 14.11
1/31/2021 12:15:00 AM 0.02 32.036 0.1 7 3.18 14.1
1/31/2021 12:30:00 AM 0.02 32.036 0.101 6.99 4.12 14.11
1/31/2021 12:45:00 AM 0.02 32.036 0.102 6.99 3.77 14.11
1/31/2021 1:00:00 AM 0.03 32.054 0.101 6.99 3.66 14.11
1/31/2021 1:15:00 AM 0.03 32.054 0.1 6.99 3.15 14.11
1/31/2021 1:30:00 AM 0.03 32.054 0.101 6.99 3.71 14.11
1/31/2021 1:45:00 AM 0.03 32.054 0.101 6.99 3.38 14.1
1/31/2021 2:00:00 AM 0.03 32.054 0.101 6.99 3.4 14.09
1/31/2021 2:15:00 AM 0.03 32.054 0.101 6.98 3.19 14.09
1/31/2021 2:30:00 AM 0.04 32.072 0.101 6.98 3.18 14.08
1/31/2021 2:45:00 AM 0.04 32.072 0.101 6.98 3.29 14.06
1/31/2021 3:00:00 AM 0.04 32.072 0.102 6.98 3.12 14.06
1/31/2021 3:15:00 AM 0.04 32.072 0.102 6.98 3.25 14.05
1/31/2021 3:30:00 AM 0.04 32.072 0.101 6.98 3.09 14.05
1/31/2021 3:45:00 AM 0.05 32.09 0.101 6.97 3.04 14.04
1/31/2021 4:00:00 AM 0.05 32.09 0.102 6.97 3.66 14.03
1/31/2021 4:15:00 AM 0.05 32.09 0.102 6.97 3.39 14.02
1/31/2021 4:30:00 AM 0.05 32.09 0.102 6.97 3.04 14.02
1/31/2021 4:45:00 AM 0.05 32.09 0.102 6.97 3.24 14.03
1/31/2021 5:00:00 AM 0.05 32.09 0.102 6.97 3.18 14.02
1/31/2021 5:15:00 AM 0.05 32.09 0.102 6.97 3.08 14.01
1/31/2021 5:30:00 AM 0.06 32.108 0.103 6.96 3.03 14
1/31/2021 5:45:00 AM 0.06 32.108 0.101 6.96 2.96 14.01
1/31/2021 6:00:00 AM 0.06 32.108 0.102 6.96 3.2 14.01
1/31/2021 6:15:00 AM 0.06 32.108 0.102 6.97 2.9 14
1/31/2021 6:30:00 AM 0.06 32.108 0.103 6.96 2.95 13.99
1/31/2021 6:45:00 AM 0.06 32.108 0.102 6.96 3.08 13.99
1/31/2021 7:00:00 AM 0.06 32.108 0.102 6.96 3.14 13.98
1/31/2021 7:15:00 AM 0.07 32.126 0.102 6.96 3.19 13.98
1/31/2021 7:30:00 AM 0.07 32.126 0.102 6.96 3.12 13.98
1/31/2021 7:45:00 AM 0.07 32.126 0.102 6.96 2.94 13.97
1/31/2021 8:00:00 AM 0.08 32.144 0.102 6.96 3.09 13.98
1/31/2021 8:15:00 AM 0.08 32.144 0.103 6.97 3.16 13.99
1/31/2021 8:30:00 AM 0.09 32.162 0.102 6.97 3.27 14
1/31/2021 8:45:00 AM 0.09 32.162 0.102 6.98 3.29 14.06
1/31/2021 9:00:00 AM 0.1 32.18 0.102 6.99 3.34 14.13
1/31/2021 9:15:00 AM 0.11 32.198 0.102 7 3.17 14.18
1/31/2021 9:30:00 AM 0.12 32.216 0.101 7 3.25 14.24
1/31/2021 9:45:00 AM 0.12 32.216 0.102 7.01 7.06 14.31
1/31/2021 10:00:00 AM 0.12 32.216 0.101 7.02 3.2 14.36
1/31/2021 10:15:00 AM 0.13 32.234 0.101 7.03 3.36 14.44
1/31/2021 10:30:00 AM 0.13 32.234 0.101 7.04 3.21 14.49
1/31/2021 10:45:00 AM 0.13 32.234 0.102 7.05 3.24 14.53
1/31/2021 11:00:00 AM 0.15 32.27 0.101 7.06 3.61 14.59
1/31/2021 11:15:00 AM 0.15 32.27 0.102 7.08 3.43 14.63
1/31/2021 11:30:00 AM 0.16 32.288 0.101 7.09 3.6 14.67
1/31/2021 11:45:00 AM 0.15 32.27 0.101 7.1 3.36 14.71
1/31/2021 12:00:00 PM 0.14 32.252 0.101 7.11 3.31 14.74
1/31/2021 12:15:00 PM 0.13 32.234 0.101 7.11 3.73 14.77
1/31/2021 12:30:00 PM 0.13 32.234 0.101 7.12 3.89 14.78
1/31/2021 12:45:00 PM 0.14 32.252 0.101 7.13 3.65 14.81
1/31/2021 1:00:00 PM 0.15 32.27 0.101 7.14 3.79 14.83
1/31/2021 1:15:00 PM 0.16 32.288 0.101 7.14 3.93 14.86
1/31/2021 1:30:00 PM 0.17 32.306 0.101 7.15 3.75 14.88
1/31/2021 1:45:00 PM 0.17 32.306 0.1 7.16 3.71 14.91
1/31/2021 2:00:00 PM 0.16 32.288 0.101 7.17 4.01 14.93
1/31/2021 2:15:00 PM 0.15 32.27 0.101 7.18 3.98 14.95
1/31/2021 2:30:00 PM 0.14 32.252 0.1 7.18 3.9 14.96
1/31/2021 2:45:00 PM 0.13 32.234 0.101 7.19 3.73 14.96
1/31/2021 3:00:00 PM 0.12 32.216 0.1 7.19 3.9 14.97
1/31/2021 3:15:00 PM 0.11 32.198 0.1 7.2 3.55 14.96
1/31/2021 3:30:00 PM 0.11 32.198 0.1 7.2 4.45 14.95
1/31/2021 3:45:00 PM 0.1 32.18 0.1 7.2 3.8 14.94
1/31/2021 4:00:00 PM 0.09 32.162 0.101 7.2 4.17 14.92
1/31/2021 4:15:00 PM 0.09 32.162 0.101 7.19 3.98 14.87
1/31/2021 4:30:00 PM 0.09 32.162 0.1 7.19 4.08 14.86
1/31/2021 4:45:00 PM 0.08 32.144 0.101 7.19 4.23 14.83
1/31/2021 5:00:00 PM 0.08 32.144 0.1 7.18 4.18 14.78
1/31/2021 5:15:00 PM 0.08 32.144 0.1 7.17 4.53 14.74
1/31/2021 5:30:00 PM 0.07 32.126 0.1 7.16 4.62 14.68
1/31/2021 5:45:00 PM 0.06 32.108 0.1 7.14 4.36 14.62
1/31/2021 6:00:00 PM 0.06 32.108 0.101 7.13 3.65 14.56
1/31/2021 6:15:00 PM 0.05 32.09 0.1 7.12 3.82 14.51
1/31/2021 6:30:00 PM 0.05 32.09 0.1 7.11 3.66 14.46
1/31/2021 6:45:00 PM 0.05 32.09 0.1 7.1 4.17 14.4
1/31/2021 7:00:00 PM 0.06 32.108 0.1 7.09 3.99 14.37
1/31/2021 7:15:00 PM 0.06 32.108 0.1 7.08 3.86 14.32
1/31/2021 7:30:00 PM 0.06 32.108 0.1 7.07 4.09 14.28
1/31/2021 7:45:00 PM 0.06 32.108 0.1 7.06 3.68 14.24
1/31/2021 8:00:00 PM 0.06 32.108 0.1 7.06 3.69 14.17
1/31/2021 8:15:00 PM 0.06 32.108 0.1 7.05 3.6 14.13
1/31/2021 8:30:00 PM 0.05 32.09 0.1 7.05 3.42 14.1
1/31/2021 8:45:00 PM 0.05 32.09 0.1 7.04 3.62 14.06
1/31/2021 9:00:00 PM 0.05 32.09 0.099 7.04 3.6 14.04
1/31/2021 9:15:00 PM 0.05 32.09 0.1 7.03 3.35 14.04
1/31/2021 9:30:00 PM 0.05 32.09 0.099 7.03 3.28 14.03
1/31/2021 9:45:00 PM 0.05 32.09 0.1 7.03 3.5 14.01
1/31/2021 10:00:00 PM 0.05 32.09 0.1 7.03 3.39 14
1/31/2021 10:15:00 PM 0.05 32.09 0.099 7.03 3.32 13.97
1/31/2021 10:30:00 PM 0.06 32.108 0.1 7.02 3.37 13.97
1/31/2021 10:45:00 PM 0.06 32.108 0.1 7.02 3.4 13.96
1/31/2021 11:00:00 PM 0.06 32.108 0.1 7.02 3.2 13.98
1/31/2021 11:15:00 PM 0.06 32.108 0.099 7.02 3.21 13.95
1/31/2021 11:30:00 PM 0.06 32.108 0.099 7.02 3.24 13.92
1/31/2021 11:45:00 PM 0.06 32.108 0.099 7.01 3.44 13.91
2/1/2021 12:00:00 AM 0.06 32.108 0.1 7.01 3.48 13.91
2/1/2021 12:15:00 AM 0.05 32.09 0.1 7.01 3.37 13.91
2/1/2021 12:30:00 AM 0.05 32.09 0.099 7.01 3.28 13.9
2/1/2021 12:45:00 AM 0.05 32.09 0.1 7.01 3.34 13.89
2/1/2021 1:00:00 AM 0.05 32.09 0.1 7.01 3.37 13.89
2/1/2021 1:15:00 AM 0.04 32.072 0.1 7.01 3.3 13.89
2/1/2021 1:30:00 AM 0.05 32.09 0.099 7.01 3.26 13.88
2/1/2021 1:45:00 AM 0.05 32.09 0.099 7.01 3.29 13.87
2/1/2021 2:00:00 AM 0.05 32.09 0.1 7.01 3.18 13.88
2/1/2021 2:15:00 AM 0.05 32.09 0.099 7.01 3.36 13.88
2/1/2021 2:30:00 AM 0.06 32.108 0.1 7.01 3.44 13.85
2/1/2021 2:45:00 AM 0.06 32.108 0.099 7.01 3.35 13.85
2/1/2021 3:00:00 AM 0.06 32.108 0.099 7.01 3.24 13.86
2/1/2021 3:15:00 AM 0.06 32.108 0.099 7.01 3.33 13.85
2/1/2021 3:30:00 AM 0.06 32.108 0.099 7.01 3.38 13.85
2/1/2021 3:45:00 AM 0.06 32.108 0.099 7.01 3.31 13.85
2/1/2021 4:00:00 AM 0.06 32.108 0.099 7.01 3.35 13.84
2/1/2021 4:15:00 AM 0.06 32.108 0.099 7.01 3.4 13.85
2/1/2021 4:30:00 AM 0.05 32.09 0.099 7.01 3.36 13.85
2/1/2021 4:45:00 AM 0.05 32.09 0.099 7.01 3.44 13.83
2/1/2021 5:00:00 AM 0.05 32.09 0.1 7 3.2 13.81
2/1/2021 5:15:00 AM 0.05 32.09 0.099 7 3.47 13.87
2/1/2021 5:30:00 AM 0.04 32.072 0.099 7.01 3.39 13.88
2/1/2021 5:45:00 AM 0.04 32.072 0.099 7 4.02 13.88
2/1/2021 6:00:00 AM 0.05 32.09 0.099 7.01 3.68 13.86
2/1/2021 6:15:00 AM 0.05 32.09 0.099 7.01 3.59 13.86
2/1/2021 6:30:00 AM 0.04 32.072 0.099 7 3.64 13.84
2/1/2021 6:45:00 AM 0.04 32.072 0.099 7 3.63 13.85
2/1/2021 7:00:00 AM 0.04 32.072 0.099 7 3.44 13.83
2/1/2021 7:15:00 AM 0.04 32.072 0.099 7 3.43 13.87
2/1/2021 7:30:00 AM 0.04 32.072 0.099 7.01 3.52 13.88
2/1/2021 7:45:00 AM 0.04 32.072 0.099 7.01 3.72 13.89
2/1/2021 8:00:00 AM 0.04 32.072 0.099 7.01 3.52 13.91
2/1/2021 8:15:00 AM 0.05 32.09 0.099 7.01 3.46 13.92
2/1/2021 8:30:00 AM 0.05 32.09 0.099 7.02 3.55 13.95
2/1/2021 8:45:00 AM 0.05 32.09 0.099 7.02 3.41 13.98
2/1/2021 9:00:00 AM 0.06 32.108 0.099 7.03 3.47 14.01
2/1/2021 9:15:00 AM 0.07 32.126 0.099 7.04 3.34 14.04
2/1/2021 9:30:00 AM 0.08 32.144 0.099 7.04 3.49 14.09
2/1/2021 9:45:00 AM 0.09 32.162 0.099 7.05 3.42 14.12
2/1/2021 10:00:00 AM 0.08 32.144 0.099 7.05 3.48 14.16
2/1/2021 10:15:00 AM 0.08 32.144 0.099 7.06 3.55 14.19
2/1/2021 10:30:00 AM 0.09 32.162 0.099 7.07 3.45 14.18
2/1/2021 10:45:00 AM 0.1 32.18 0.098 7.07 3.53 14.17
2/1/2021 11:00:00 AM 0.11 32.198 0.098 7.08 3.19 14.26
2/1/2021 11:15:00 AM 0.11 32.198 0.099 7.09 3.39 14.29
2/1/2021 11:30:00 AM 0.11 32.198 0.098 7.09 3.38 14.32
2/1/2021 11:45:00 AM 0.11 32.198 0.098 7.1 3.38 14.34
2/1/2021 12:00:00 PM 0.11 32.198 0.098 7.1 3.7 14.37
2/1/2021 12:15:00 PM 0.1 32.18 0.098 7.11 3.84 14.34
2/1/2021 12:30:00 PM 0.09 32.162 0.098 7.11 3.55 14.36
2/1/2021 12:45:00 PM 0.09 32.162 0.098 7.11 3.51 14.37
2/1/2021 1:00:00 PM 0.09 32.162 0.098 7.12 3.47 14.38
2/1/2021 1:15:00 PM 0.1 32.18 0.098 7.12 3.52 14.4
2/1/2021 1:30:00 PM 0.11 32.198 0.097 7.13 3.23 14.41
2/1/2021 1:45:00 PM 0.11 32.198 0.097 7.13 3.34 14.41
2/1/2021 2:00:00 PM 0.11 32.198 0.098 7.13 3.27 14.43
2/1/2021 2:15:00 PM 0.11 32.198 0.098 7.13 3.26 14.42
2/1/2021 2:30:00 PM 0.1 32.18 0.098 7.14 3.38 14.41
2/1/2021 2:45:00 PM 0.1 32.18 0.098 7.14 3.35 14.42
2/1/2021 3:00:00 PM 0.1 32.18 0.098 7.14 3.23 14.41
2/1/2021 3:15:00 PM 0.09 32.162 0.098 7.14 3.18 14.41
2/1/2021 3:30:00 PM 0.09 32.162 0.098 7.13 3.38 14.4
2/1/2021 3:45:00 PM 0.08 32.144 0.097 7.13 3.37 14.39
2/1/2021 4:00:00 PM 0.08 32.144 0.097 7.13 3.29 14.36
2/1/2021 4:15:00 PM 0.07 32.126 0.098 7.12 3.09 14.34
2/1/2021 4:30:00 PM 0.07 32.126 0.097 7.12 3.21 14.32
2/1/2021 4:45:00 PM 0.06 32.108 0.097 7.11 3.14 14.29
2/1/2021 5:00:00 PM 0.06 32.108 0.097 7.11 3.04 14.25
2/1/2021 5:15:00 PM 0.06 32.108 0.098 7.1 3.24 14.22
2/1/2021 5:30:00 PM 0.05 32.09 0.097 7.09 3.22 14.17
2/1/2021 5:45:00 PM 0.05 32.09 0.098 7.08 3.18 14.14
2/1/2021 6:00:00 PM 0.05 32.09 0.097 7.08 3.49 14.1
2/1/2021 6:15:00 PM 0.05 32.09 0.097 7.07 3.25 14.07
2/1/2021 6:30:00 PM 0.04 32.072 0.097 7.06 2.97 14.04
2/1/2021 6:45:00 PM 0.04 32.072 0.097 7.05 3.18 14.02
2/1/2021 7:00:00 PM 0.04 32.072 0.097 7.05 3.18 14
2/1/2021 7:15:00 PM 0.04 32.072 0.098 7.05 3.39 13.98
2/1/2021 7:30:00 PM 0.03 32.054 0.098 7.04 3.28 13.95
2/1/2021 7:45:00 PM 0.03 32.054 0.097 7.04 3.16 13.92
2/1/2021 8:00:00 PM 0.02 32.036 0.098 7.04 3.17 13.9
2/1/2021 8:15:00 PM 0.01 32.018 0.098 7.03 3.4 13.89
2/1/2021 8:30:00 PM 0.01 32.018 0.098 7.03 3.36 13.88
2/1/2021 8:45:00 PM 0.01 32.018 0.098 7.03 3.2 13.87
2/1/2021 9:00:00 PM 0 32 0.098 7.03 3.18 13.86
2/1/2021 9:15:00 PM 0 32 0.098 7.03 3.27 13.87
2/1/2021 9:30:00 PM 0 32 0.098 7.02 3.53 13.85
2/1/2021 9:45:00 PM 0.01 32.018 0.098 7.02 3.29 13.85
2/1/2021 10:00:00 PM 0.01 32.018 0.098 7.02 3.45 13.86
2/1/2021 10:15:00 PM 0.01 32.018 0.098 7.02 3.35 13.86
2/1/2021 10:30:00 PM 0.02 32.036 0.098 7.02 3.34 13.85
2/1/2021 10:45:00 PM 0.02 32.036 0.098 7.02 3.44 13.84
2/1/2021 11:00:00 PM 0.02 32.036 0.098 7.02 3.41 13.85
2/1/2021 11:15:00 PM 0.02 32.036 0.098 7.02 3.35 13.85
2/1/2021 11:30:00 PM 0.02 32.036 0.098 7.01 3.71 13.84
2/1/2021 11:45:00 PM 0.02 32.036 0.097 7.01 3.91 13.82
2/2/2021 12:00:00 AM 0.02 32.036 0.098 7.01 3.36 13.83
2/2/2021 12:15:00 AM 0.03 32.054 0.097 7.01 3.56 13.81
2/2/2021 12:30:00 AM 0.03 32.054 0.097 7.01 3.51 13.79
2/2/2021 12:45:00 AM 0.04 32.072 0.097 7.01 3.76 13.79
2/2/2021 1:00:00 AM 0.05 32.09 0.097 7.01 3.54 13.78
2/2/2021 1:15:00 AM 0.05 32.09 0.098 7.01 3.52 13.79
2/2/2021 1:30:00 AM 0.05 32.09 0.097 7.01 3.63 13.78
2/2/2021 1:45:00 AM 0.05 32.09 0.097 7.01 3.49 13.78
2/2/2021 2:00:00 AM 0.05 32.09 0.098 7.01 3.53 13.77
2/2/2021 2:15:00 AM 0.05 32.09 0.097 7.01 3.72 13.77
2/2/2021 2:30:00 AM 0.04 32.072 0.098 7.01 3.46 13.78
2/2/2021 2:45:00 AM 0.05 32.09 0.098 7.01 3.54 13.77
2/2/2021 3:00:00 AM 0.05 32.09 0.098 7.01 3.63 13.77
2/2/2021 3:15:00 AM 0.05 32.09 0.098 7.01 3.78 13.77
2/2/2021 3:30:00 AM 0.05 32.09 0.098 7.01 3.52 13.76
2/2/2021 3:45:00 AM 0.05 32.09 0.098 7.01 3.63 13.76
2/2/2021 4:00:00 AM 0.05 32.09 0.097 7.01 3.5 13.71
2/2/2021 4:15:00 AM 0.05 32.09 0.097 7.01 3.58 13.7
2/2/2021 4:30:00 AM 0.05 32.09 0.098 7.01 3.53 13.73
2/2/2021 4:45:00 AM 0.04 32.072 0.097 7.01 3.61 13.74
2/2/2021 5:00:00 AM 0.04 32.072 0.097 7.01 3.4 13.73
2/2/2021 5:15:00 AM 0.04 32.072 0.098 7.01 3.59 13.73
2/2/2021 5:30:00 AM 0.04 32.072 0.098 7.01 3.52 13.69
2/2/2021 5:45:00 AM 0.04 32.072 0.097 7.01 3.45 13.68
2/2/2021 6:00:00 AM 0.04 32.072 0.098 7.01 3.55 13.7
2/2/2021 6:15:00 AM 0.04 32.072 0.098 7.01 3.73 13.72
2/2/2021 6:30:00 AM 0.04 32.072 0.098 7.01 3.78 13.7
2/2/2021 6:45:00 AM 0.04 32.072 0.098 7.01 3.48 13.69
2/2/2021 7:00:00 AM 0.03 32.054 0.098 7.01 3.64 13.68
2/2/2021 7:15:00 AM 0.03 32.054 0.098 7.01 3.69 13.68
2/2/2021 7:30:00 AM 0.03 32.054 0.098 7.01 3.84 13.69
2/2/2021 7:45:00 AM 0.03 32.054 0.098 7.01 4.39 13.72
2/2/2021 8:00:00 AM 0.04 32.072 0.098 7.01 3.87 13.74
2/2/2021 8:15:00 AM 0.04 32.072 0.098 7.02 4.49 13.77
2/2/2021 8:30:00 AM 0.04 32.072 0.098 7.02 4.1 13.79
2/2/2021 8:45:00 AM 0.05 32.09 0.098 7.03 3.69 13.81
2/2/2021 9:00:00 AM 0.06 32.108 0.098 7.04 3.87 13.85
2/2/2021 9:15:00 AM 0.06 32.108 0.098 7.04 3.78 13.9
2/2/2021 9:30:00 AM 0.07 32.126 0.098 7.05 3.82 13.94
2/2/2021 9:45:00 AM 0.08 32.144 0.098 7.06 3.6 14
2/2/2021 10:00:00 AM 0.08 32.144 0.098 7.07 3.61 14.04
2/2/2021 10:15:00 AM 0.09 32.162 0.097 7.08 3.66 14.09
2/2/2021 10:30:00 AM 0.09 32.162 0.097 7.09 3.48 14.13
2/2/2021 10:45:00 AM 0.09 32.162 0.097 7.1 2.96 14.17
2/2/2021 11:00:00 AM 0.1 32.18 0.098 7.11 3.06 14.2
2/2/2021 11:15:00 AM 0.1 32.18 0.097 7.11 3.05 14.23
2/2/2021 11:30:00 AM 0.11 32.198 0.098 7.12 3.06 14.26
2/2/2021 11:45:00 AM 0.11 32.198 0.097 7.13 3.25 14.28
2/2/2021 12:00:00 PM 0.1 32.18 0.098 7.13 3.06 14.31
2/2/2021 12:15:00 PM 0.1 32.18 0.097 7.14 3.17 14.31
2/2/2021 12:30:00 PM 0.11 32.198 0.097 7.14 3.16 14.33
2/2/2021 12:45:00 PM 0.11 32.198 0.097 7.15 3.14 14.34
2/2/2021 1:00:00 PM 0.11 32.198 0.097 7.15 3.06 14.37
2/2/2021 1:15:00 PM 0.1 32.18 0.097 7.16 3.13 14.38
2/2/2021 1:30:00 PM 0.1 32.18 0.097 7.16 3.24 14.39
2/2/2021 1:45:00 PM 0.1 32.18 0.097 7.16 3.23 14.39
2/2/2021 2:00:00 PM 0.1 32.18 0.097 7.17 3.24 14.39
2/2/2021 2:15:00 PM 0.1 32.18 0.097 7.17 3.22 14.4
2/2/2021 2:30:00 PM 0.1 32.18 0.097 7.17 3.17 14.4
2/2/2021 2:45:00 PM 0.09 32.162 0.097 7.17 3.19 14.4
2/2/2021 3:00:00 PM 0.08 32.144 0.096 7.17 3.19 14.39
2/2/2021 3:15:00 PM 0.08 32.144 0.097 7.17 3.23 14.39
2/2/2021 3:30:00 PM 0.07 32.126 0.097 7.17 3.18 14.37
2/2/2021 3:45:00 PM 0.07 32.126 0.097 7.17 3.5 14.35
2/2/2021 4:00:00 PM 0.06 32.108 0.097 7.17 3.66 14.34
2/2/2021 4:15:00 PM 0.06 32.108 0.097 7.16 3.57 14.3
2/2/2021 4:30:00 PM 0.05 32.09 0.097 7.15 3.25 14.3
2/2/2021 4:45:00 PM 0.05 32.09 0.097 7.15 3.2 14.26
2/2/2021 5:00:00 PM 0.04 32.072 0.097 7.14 3.26 14.22
2/2/2021 5:15:00 PM 0.04 32.072 0.097 7.12 3.28 14.16
2/2/2021 5:30:00 PM 0.04 32.072 0.097 7.11 3.31 14.12
2/2/2021 5:45:00 PM 0.04 32.072 0.097 7.1 3.33 14.07
2/2/2021 6:00:00 PM 0.04 32.072 0.097 7.09 3.39 14.03
2/2/2021 6:15:00 PM 0.04 32.072 0.097 7.08 3.25 14
2/2/2021 6:30:00 PM 0.04 32.072 0.098 7.07 3.28 13.96
2/2/2021 6:45:00 PM 0.04 32.072 0.097 7.07 3.29 13.93
2/2/2021 7:00:00 PM 0.04 32.072 0.098 7.06 3.33 13.9
2/2/2021 7:15:00 PM 0.04 32.072 0.097 7.06 3.24 13.88
2/2/2021 7:30:00 PM 0.04 32.072 0.097 7.05 3.29 13.86
2/2/2021 7:45:00 PM 0.03 32.054 0.098 7.05 3.44 13.85
2/2/2021 8:00:00 PM 0.03 32.054 0.098 7.05 3.32 13.82
2/2/2021 8:15:00 PM 0.04 32.072 0.098 7.04 3.38 13.81
2/2/2021 8:30:00 PM 0.03 32.054 0.097 7.04 3.54 13.8
2/2/2021 8:45:00 PM 0.03 32.054 0.097 7.04 3.23 13.79
2/2/2021 9:00:00 PM 0.03 32.054 0.097 7.03 3.32 13.78
2/2/2021 9:15:00 PM 0.03 32.054 0.097 7.03 3.37 13.77
2/2/2021 9:30:00 PM 0.03 32.054 0.098 7.03 3.25 13.76
2/2/2021 9:45:00 PM 0.03 32.054 0.098 7.03 3.2 13.74
2/2/2021 10:00:00 PM 0.03 32.054 0.098 7.03 3.19 13.75
2/2/2021 10:15:00 PM 0.03 32.054 0.097 7.03 3.42 13.74
2/2/2021 10:30:00 PM 0.03 32.054 0.098 7.03 3.29 13.73
2/2/2021 10:45:00 PM 0.04 32.072 0.098 7.03 3.17 13.72
2/2/2021 11:00:00 PM 0.03 32.054 0.098 7.03 3.51 13.7
2/2/2021 11:15:00 PM 0.03 32.054 0.097 7.03 3.2 13.71
2/2/2021 11:30:00 PM 0.03 32.054 0.098 7.03 3.3 13.71
2/2/2021 11:45:00 PM 0.03 32.054 0.098 7.03 3.34 13.7
2/3/2021 12:00:00 AM 0.03 32.054 0.098 7.03 3.25 13.71
2/3/2021 12:15:00 AM 0.04 32.072 0.098 7.03 3.53 13.71
2/3/2021 12:30:00 AM 0.04 32.072 0.098 7.03 3.54 13.7
2/3/2021 12:45:00 AM 0.03 32.054 0.098 7.03 3.49 13.69
2/3/2021 1:00:00 AM 0.03 32.054 0.098 7.03 3.6 13.68
2/3/2021 1:15:00 AM 0.04 32.072 0.098 7.03 3.31 13.67
2/3/2021 1:30:00 AM 0.04 32.072 0.099 7.03 3.09 13.66
2/3/2021 1:45:00 AM 0.04 32.072 0.098 7.03 3.12 13.69
2/3/2021 2:00:00 AM 0.04 32.072 0.098 7.03 3.01 13.69
2/3/2021 2:15:00 AM 0.04 32.072 0.098 7.03 3.01 13.69
2/3/2021 2:30:00 AM 0.04 32.072 0.098 7.03 3.4 13.68
2/3/2021 2:45:00 AM 0.04 32.072 0.098 7.03 3.03 13.68
2/3/2021 3:00:00 AM 0.04 32.072 0.098 7.03 2.99 13.68
2/3/2021 3:15:00 AM 0.04 32.072 0.098 7.03 2.97 13.68
2/3/2021 3:30:00 AM 0.04 32.072 0.099 7.03 3.03 13.69
2/3/2021 3:45:00 AM 0.04 32.072 0.098 7.03 2.87 13.69
2/3/2021 4:00:00 AM 0.04 32.072 0.098 7.03 3.09 13.68
2/3/2021 4:15:00 AM 0.04 32.072 0.098 7.03 2.98 13.68
2/3/2021 4:30:00 AM 0.04 32.072 0.099 7.03 3.1 13.68
2/3/2021 4:45:00 AM 0.04 32.072 0.098 7.03 2.85 13.68
2/3/2021 5:00:00 AM 0.04 32.072 0.098 7.03 3.07 13.68
2/3/2021 5:15:00 AM 0.04 32.072 0.098 7.03 3.19 13.68
2/3/2021 5:30:00 AM 0.04 32.072 0.099 7.03 3.03 13.68
2/3/2021 5:45:00 AM 0.04 32.072 0.098 7.03 2.9 13.68
2/3/2021 6:00:00 AM 0.04 32.072 0.098 7.03 2.98 13.68
2/3/2021 6:15:00 AM 0.04 32.072 0.098 7.03 2.94 13.68
2/3/2021 6:30:00 AM 0.04 32.072 0.099 7.03 3.09 13.69
2/3/2021 6:45:00 AM 0.04 32.072 0.098 7.03 3.16 13.69
2/3/2021 7:00:00 AM 0.04 32.072 0.098 7.03 2.93 13.69
2/3/2021 7:15:00 AM 0.04 32.072 0.099 7.03 3.25 13.7
2/3/2021 7:30:00 AM 0.04 32.072 0.099 7.03 3.28 13.7
2/3/2021 7:45:00 AM 0.04 32.072 0.098 7.03 2.93 13.71
2/3/2021 8:00:00 AM 0.04 32.072 0.099 7.03 3.15 13.73
2/3/2021 8:15:00 AM 0.04 32.072 0.099 7.04 3.2 13.76
2/3/2021 8:30:00 AM 0.05 32.09 0.099 7.05 3.19 13.8
2/3/2021 8:45:00 AM 0.06 32.108 0.098 7.06 3.17 13.84
2/3/2021 9:00:00 AM 0.07 32.126 0.098 7.07 3.2 13.89
2/3/2021 9:15:00 AM 0.08 32.144 0.098 7.07 3.46 13.94
2/3/2021 9:30:00 AM 0.09 32.162 0.098 7.08 3.39 13.99
2/3/2021 9:45:00 AM 0.1 32.18 0.098 7.1 3.32 14.07
2/3/2021 10:00:00 AM 0.1 32.18 0.098 7.11 3.37 14.11
2/3/2021 10:15:00 AM 0.1 32.18 0.098 7.11 3.36 14.15
2/3/2021 10:30:00 AM 0.1 32.18 0.098 7.12 3.31 14.2
2/3/2021 10:45:00 AM 0.1 32.18 0.098 7.13 3.21 14.22
2/3/2021 11:00:00 AM 0.1 32.18 0.098 7.14 3.35 14.25
2/3/2021 11:15:00 AM 0.1 32.18 0.098 7.15 3.37 14.26
2/3/2021 11:30:00 AM 0.1 32.18 0.098 7.15 3.31 14.28
2/3/2021 11:45:00 AM 0.1 32.18 0.098 7.16 3.34 14.29
2/3/2021 12:00:00 PM 0.1 32.18 0.098 7.16 3.36 14.28
2/3/2021 12:15:00 PM 0.1 32.18 0.098 7.16 3.2 14.29
2/3/2021 12:30:00 PM 0.09 32.162 0.098 7.17 3.37 14.33
2/3/2021 12:45:00 PM 0.1 32.18 0.098 7.17 3.17 14.34
2/3/2021 1:00:00 PM 0.11 32.198 0.098 7.17 3.18 14.35
2/3/2021 1:15:00 PM 0.11 32.198 0.098 7.18 3.24 14.37
2/3/2021 1:30:00 PM 0.11 32.198 0.098 7.18 3.07 14.39
2/3/2021 1:45:00 PM 0.11 32.198 0.098 7.19 3.06 14.39
2/3/2021 2:00:00 PM 0.1 32.18 0.098 7.19 3.17 14.4
2/3/2021 2:15:00 PM 0.1 32.18 0.098 7.19 3.09 14.38
2/3/2021 2:30:00 PM 0.1 32.18 0.098 7.19 3.06 14.38
2/3/2021 2:45:00 PM 0.09 32.162 0.098 7.19 3.23 14.37
2/3/2021 3:00:00 PM 0.08 32.144 0.098 7.19 3.08 14.36
2/3/2021 3:15:00 PM 0.07 32.126 0.098 7.18 3.19 14.33
2/3/2021 3:30:00 PM 0.06 32.108 0.098 7.18 3.24 14.31
2/3/2021 3:45:00 PM 0.06 32.108 0.098 7.17 3.27 14.26
2/3/2021 4:00:00 PM 0.05 32.09 0.098 7.16 3.2 14.24
2/3/2021 4:15:00 PM 0.05 32.09 0.098 7.15 3.18 14.22
2/3/2021 4:30:00 PM 0.05 32.09 0.098 7.15 3.06 14.18
2/3/2021 4:45:00 PM 0.05 32.09 0.098 7.13 3.15 14.14
2/3/2021 5:00:00 PM 0.05 32.09 0.098 7.12 3.31 14.12
2/3/2021 5:15:00 PM 0.04 32.072 0.098 7.12 3.17 14.08
2/3/2021 5:30:00 PM 0.04 32.072 0.098 7.11 3.17 14.04
2/3/2021 5:45:00 PM 0.04 32.072 0.098 7.1 3.3 14.02
2/3/2021 6:00:00 PM 0.04 32.072 0.098 7.09 3.26 13.98
2/3/2021 6:15:00 PM 0.05 32.09 0.098 7.08 3.17 13.95
2/3/2021 6:30:00 PM 0.05 32.09 0.098 7.08 3.6 13.94
2/3/2021 6:45:00 PM 0.05 32.09 0.098 7.08 3.36 13.92
2/3/2021 7:00:00 PM 0.06 32.108 0.098 7.07 3.24 13.89
2/3/2021 7:15:00 PM 0.06 32.108 0.098 7.07 3.38 13.86
2/3/2021 7:30:00 PM 0.06 32.108 0.098 7.06 3.44 13.84
2/3/2021 7:45:00 PM 0.05 32.09 0.098 7.06 3.32 13.82
2/3/2021 8:00:00 PM 0.05 32.09 0.098 7.05 3.32 13.84
2/3/2021 8:15:00 PM 0.06 32.108 0.098 7.05 3.34 13.84
2/3/2021 8:30:00 PM 0.06 32.108 0.098 7.05 4 13.83
2/3/2021 8:45:00 PM 0.06 32.108 0.098 7.05 3.4 13.82
2/3/2021 9:00:00 PM 0.06 32.108 0.098 7.05 3.36 13.79
2/3/2021 9:15:00 PM 0.05 32.09 0.098 7.05 3.34 13.8
2/3/2021 9:30:00 PM 0.05 32.09 0.098 7.05 3.46 13.81
2/3/2021 9:45:00 PM 0.05 32.09 0.099 7.04 3.37 13.76
2/3/2021 10:00:00 PM 0.05 32.09 0.099 7.04 3.48 13.76
2/3/2021 10:15:00 PM 0.05 32.09 0.098 7.05 3.45 13.76
2/3/2021 10:30:00 PM 0.05 32.09 0.098 7.04 3.16 13.76
2/3/2021 10:45:00 PM 0.05 32.09 0.098 7.04 3.23 13.77
2/3/2021 11:00:00 PM 0.05 32.09 0.098 7.04 3.27 13.79
2/3/2021 11:15:00 PM 0.05 32.09 0.098 7.04 3.24 13.77
2/3/2021 11:30:00 PM 0.05 32.09 0.098 7.04 3.7 13.76
2/3/2021 11:45:00 PM 0.05 32.09 0.099 7.04 3.32 13.8
2/4/2021 12:00:00 AM 0.05 32.09 0.098 7.04 3.38 13.79
2/4/2021 12:15:00 AM 0.05 32.09 0.099 7.04 3.15 13.78
2/4/2021 12:30:00 AM 0.05 32.09 0.098 7.04 3.28 13.8
2/4/2021 12:45:00 AM 0.05 32.09 0.099 7.04 3.04 13.8
2/4/2021 1:00:00 AM 0.05 32.09 0.099 7.04 3.26 13.79
2/4/2021 1:15:00 AM 0.05 32.09 0.099 7.04 3.26 13.8
2/4/2021 1:30:00 AM 0.05 32.09 0.099 7.04 3.2 13.81
2/4/2021 1:45:00 AM 0.05 32.09 0.098 7.04 3.11 13.81
2/4/2021 2:00:00 AM 0.05 32.09 0.099 7.04 3.22 13.8
2/4/2021 2:15:00 AM 0.05 32.09 0.099 7.04 3.31 13.8
2/4/2021 2:30:00 AM 0.05 32.09 0.098 7.04 3.08 13.77
2/4/2021 2:45:00 AM 0.05 32.09 0.099 7.04 3.22 13.7
2/4/2021 3:00:00 AM 0.05 32.09 0.099 7.04 3.11 13.68
2/4/2021 3:15:00 AM 0.05 32.09 0.098 7.04 3.48 13.67
2/4/2021 3:30:00 AM 0.05 32.09 0.099 7.04 3.18 13.73
2/4/2021 3:45:00 AM 0.05 32.09 0.099 7.04 3.2 13.8
2/4/2021 4:00:00 AM 0.05 32.09 0.099 7.04 3.32 13.81
2/4/2021 4:15:00 AM 0.05 32.09 0.099 7.04 3.13 13.81
2/4/2021 4:30:00 AM 0.04 32.072 0.099 7.04 3.45 13.82
2/4/2021 4:45:00 AM 0.04 32.072 0.099 7.04 3.59 13.82
2/4/2021 5:00:00 AM 0.04 32.072 0.098 7.04 3.46 13.81
2/4/2021 5:15:00 AM 0.04 32.072 0.099 7.04 3.46 13.81
2/4/2021 5:30:00 AM 0.04 32.072 0.099 7.04 3.49 13.79
2/4/2021 5:45:00 AM 0.04 32.072 0.099 7.04 3.41 13.81
2/4/2021 6:00:00 AM 0.04 32.072 0.099 7.04 3.29 13.8
2/4/2021 6:15:00 AM 0.04 32.072 0.099 7.04 3.42 13.79
2/4/2021 6:30:00 AM 0.03 32.054 0.099 7.04 3.49 13.77
2/4/2021 6:45:00 AM 0.04 32.072 0.1 7.04 3.43 13.76
2/4/2021 7:00:00 AM 0.04 32.072 0.099 7.04 3.24 13.77
2/4/2021 7:15:00 AM 0.05 32.09 0.099 7.04 3.56 13.79
2/4/2021 7:30:00 AM 0.05 32.09 0.099 7.04 3.31 13.83
2/4/2021 7:45:00 AM 0.06 32.108 0.099 7.04 3.19 13.84
2/4/2021 8:00:00 AM 0.06 32.108 0.099 7.04 3.19 13.87
2/4/2021 8:15:00 AM 0.06 32.108 0.099 7.05 3.06 13.89
2/4/2021 8:30:00 AM 0.07 32.126 0.1 7.06 3.05 13.93
2/4/2021 8:45:00 AM 0.07 32.126 0.099 7.06 3.16 13.98
2/4/2021 9:00:00 AM 0.08 32.144 0.099 7.07 3.02 14.02
2/4/2021 9:15:00 AM 0.09 32.162 0.099 7.08 3.23 14.07
2/4/2021 9:30:00 AM 0.1 32.18 0.099 7.09 3.07 14.12
2/4/2021 9:45:00 AM 0.11 32.198 0.099 7.1 3.03 14.17
2/4/2021 10:00:00 AM 0.13 32.234 0.099 7.12 2.95 14.22
2/4/2021 10:15:00 AM 0.16 32.288 0.099 7.13 3.02 14.26
2/4/2021 10:30:00 AM 0.16 32.288 0.099 7.14 3.14 14.3
2/4/2021 10:45:00 AM 0.18 32.324 0.099 7.14 3.16 14.35
2/4/2021 11:00:00 AM 0.2 32.36 0.099 7.15 3.07 14.37
2/4/2021 11:15:00 AM 0.23 32.414 0.099 7.16 3.07 14.38
2/4/2021 11:30:00 AM 0.25 32.45 0.099 7.17 3.01 14.4
2/4/2021 11:45:00 AM 0.27 32.486 0.1 7.17 3.04 14.41
2/4/2021 12:00:00 PM 0.28 32.504 0.099 7.18 3.17 14.44
2/4/2021 12:15:00 PM 0.29 32.522 0.099 7.18 3.06 14.46
2/4/2021 12:30:00 PM 0.3 32.54 0.099 7.18 3.12 14.47
2/4/2021 12:45:00 PM 0.3 32.54 0.099 7.19 3.24 14.49
2/4/2021 1:00:00 PM 0.31 32.558 0.099 7.2 3.05 14.52
2/4/2021 1:15:00 PM 0.31 32.558 0.099 7.2 3.22 14.52
2/4/2021 1:30:00 PM 0.3 32.54 0.098 7.21 3.05 14.53
2/4/2021 1:45:00 PM 0.3 32.54 0.098 7.21 3.21 14.53
2/4/2021 2:00:00 PM 0.29 32.522 0.098 7.21 3.76 14.53
2/4/2021 2:15:00 PM 0.29 32.522 0.099 7.22 3.22 14.54
2/4/2021 2:30:00 PM 0.28 32.504 0.099 7.22 3.24 14.53
2/4/2021 2:45:00 PM 0.27 32.486 0.099 7.22 3.31 14.52
2/4/2021 3:00:00 PM 0.25 32.45 0.1 7.22 3.3 14.51
2/4/2021 3:15:00 PM 0.24 32.432 0.1 7.21 3.34 14.51
2/4/2021 3:30:00 PM 0.22 32.396 0.1 7.21 3.18 14.51
2/4/2021 3:45:00 PM 0.2 32.36 0.1 7.21 3.35 14.51
2/4/2021 4:00:00 PM 0.18 32.324 0.099 7.21 3.17 14.5
2/4/2021 4:15:00 PM 0.15 32.27 0.099 7.21 3.35 14.49
2/4/2021 4:30:00 PM 0.13 32.234 0.099 7.21 3.25 14.47
2/4/2021 4:45:00 PM 0.11 32.198 0.098 7.2 3.14 14.44
2/4/2021 5:00:00 PM 0.09 32.162 0.099 7.19 3.36 14.41
2/4/2021 5:15:00 PM 0.08 32.144 0.099 7.18 3.47 14.38
2/4/2021 5:30:00 PM 0.07 32.126 0.099 7.17 3.63 14.34
2/4/2021 5:45:00 PM 0.06 32.108 0.099 7.15 3.77 14.29
2/4/2021 6:00:00 PM 0.05 32.09 0.099 7.14 3.3 14.22
2/4/2021 6:15:00 PM 0.05 32.09 0.099 7.13 3.65 14.16
2/4/2021 6:30:00 PM 0.05 32.09 0.099 7.11 3.14 14.12
2/4/2021 6:45:00 PM 0.04 32.072 0.099 7.1 3.49 14.08
2/4/2021 7:00:00 PM 0.04 32.072 0.099 7.09 3.4 14.05
2/4/2021 7:15:00 PM 0.04 32.072 0.099 7.08 3.3 14.02
2/4/2021 7:30:00 PM 0.04 32.072 0.099 7.08 3.31 14
2/4/2021 7:45:00 PM 0.04 32.072 0.099 7.07 3.18 13.98
2/4/2021 8:00:00 PM 0.03 32.054 0.099 7.07 3.33 13.97
2/4/2021 8:15:00 PM 0.04 32.072 0.099 7.06 3.51 13.95
2/4/2021 8:30:00 PM 0.04 32.072 0.099 7.06 3.58 13.94
2/4/2021 8:45:00 PM 0.04 32.072 0.1 7.06 3.21 13.93
2/4/2021 9:00:00 PM 0.04 32.072 0.099 7.05 3.09 13.93
2/4/2021 9:15:00 PM 0.04 32.072 0.099 7.05 3.52 13.91
2/4/2021 9:30:00 PM 0.04 32.072 0.1 7.05 3.24 13.92
2/4/2021 9:45:00 PM 0.04 32.072 0.099 7.05 3.22 13.92
2/4/2021 10:00:00 PM 0.04 32.072 0.1 7.04 3.14 13.91
2/4/2021 10:15:00 PM 0.04 32.072 0.1 7.04 4.86 13.9
2/4/2021 10:30:00 PM 0.04 32.072 0.1 7.03 3.4 13.9
2/4/2021 10:45:00 PM 0.04 32.072 0.1 7.02 3.24 13.88
2/4/2021 11:00:00 PM 0.04 32.072 0.1 7.02 3.44 13.86
2/4/2021 11:15:00 PM 0.04 32.072 0.1 7.03 3.33 13.87
2/4/2021 11:30:00 PM 0.04 32.072 0.101 7.03 3.31 13.87
2/4/2021 11:45:00 PM 0.05 32.09 0.101 7.03 3.26 13.87
2/5/2021 12:00:00 AM 0.05 32.09 0.101 7.03 3.45 13.87
2/5/2021 12:15:00 AM 0.05 32.09 0.101 7.03 3.44 13.87
2/5/2021 12:30:00 AM 0.06 32.108 0.101 7.03 3.28 13.87
2/5/2021 12:45:00 AM 0.06 32.108 0.102 7.03 3.35 13.86
2/5/2021 1:00:00 AM 0.06 32.108 0.101 7.03 3.26 13.86
2/5/2021 1:15:00 AM 0.06 32.108 0.102 7.03 3.4 13.86
2/5/2021 1:30:00 AM 0.06 32.108 0.102 7.03 4.33 13.86
2/5/2021 1:45:00 AM 0.07 32.126 0.101 7.03 3.24 13.85
2/5/2021 2:00:00 AM 0.07 32.126 0.102 7.03 3.4 13.84
2/5/2021 2:15:00 AM 0.07 32.126 0.102 7.03 3.24 13.83
2/5/2021 2:30:00 AM 0.08 32.144 0.102 7.03 3.33 13.82
2/5/2021 2:45:00 AM 0.08 32.144 0.101 7.04 3.34 13.83
2/5/2021 3:00:00 AM 0.08 32.144 0.101 7.04 3.35 13.82
2/5/2021 3:15:00 AM 0.08 32.144 0.101 7.04 3.24 13.82
2/5/2021 3:30:00 AM 0.08 32.144 0.102 7.04 3.14 13.82
2/5/2021 3:45:00 AM 0.08 32.144 0.102 7.04 3.09 13.81
2/5/2021 4:00:00 AM 0.08 32.144 0.101 7.04 3.06 13.8
2/5/2021 4:15:00 AM 0.08 32.144 0.101 7.04 3.31 13.8
2/5/2021 4:30:00 AM 0.08 32.144 0.101 7.04 3.14 13.79
2/5/2021 4:45:00 AM 0.08 32.144 0.101 7.04 3.29 13.78
2/5/2021 5:00:00 AM 0.08 32.144 0.102 7.04 3.21 13.77
2/5/2021 5:15:00 AM 0.08 32.144 0.102 7.04 3.02 13.79
2/5/2021 5:30:00 AM 0.09 32.162 0.102 7.04 3.32 13.78
2/5/2021 5:45:00 AM 0.09 32.162 0.102 7.04 3.29 13.77
2/5/2021 6:00:00 AM 0.09 32.162 0.102 7.05 3.18 13.77
2/5/2021 6:15:00 AM 0.09 32.162 0.102 7.04 3.84 13.77
2/5/2021 6:30:00 AM 0.09 32.162 0.102 7.04 3.8 13.75
2/5/2021 6:45:00 AM 0.07 32.126 0.102 7.04 3.91 13.75
2/5/2021 7:00:00 AM 0.07 32.126 0.102 7.05 3.3 13.74
2/5/2021 7:15:00 AM 0.07 32.126 0.102 7.05 3.1 13.75
2/5/2021 7:30:00 AM 0.07 32.126 0.102 7.05 3.02 13.71
2/5/2021 7:45:00 AM 0.07 32.126 0.102 7.05 3.07 13.69
2/5/2021 8:00:00 AM 0.07 32.126 0.102 7.05 3 13.71
2/5/2021 8:15:00 AM 0.08 32.144 0.103 7.06 3.35 13.74
2/5/2021 8:30:00 AM 0.09 32.162 0.102 7.06 3.02 13.76
2/5/2021 8:45:00 AM 0.1 32.18 0.102 7.07 2.97 13.8
2/5/2021 9:00:00 AM 0.1 32.18 0.102 7.07 3.06 13.8
2/5/2021 9:15:00 AM 0.11 32.198 0.102 7.08 2.99 13.86
2/5/2021 9:30:00 AM 0.12 32.216 0.102 7.1 2.9 13.95
2/5/2021 9:45:00 AM 0.14 32.252 0.102 7.11 2.89 13.98
2/5/2021 10:00:00 AM 0.16 32.288 0.102 7.12 2.96 14.04
2/5/2021 10:15:00 AM 0.19 32.342 0.102 7.13 3.01 14.09
2/5/2021 10:30:00 AM 0.22 32.396 0.103 7.15 2.94 14.13
2/5/2021 10:45:00 AM 0.24 32.432